<?xml version="1.0" encoding="UTF-8" standalone="no" ?>
<gpx xmlns="http://www.topografix.com/GPX/1/1" xmlns:xsi="http://www.w3.org/2001/XMLSchema-instance" xsi:schemaLocation="http://www.topografix.com/GPX/1/1 http://www.topografix.com/GPX/1/1/gpx.xsd" version="1.1" creator="VisuGPX - https://www.visugpx.com">
  <metadata>
    <name>pennedepie_criqueboeuf_14,5</name>
  </metadata>
  <trk>
    <name><![CDATA[pennedepie_criqueboeuf_14,5]]></name>
    <extensions>
      <line xmlns="http://www.topografix.com/GPX/gpx_style/0/2">
        <width>3</width>
      </line>
    </extensions>
    <trkseg>
      <trkpt lat="49.407" lon="0.17714">
        <ele>23.8</ele>
        <time>2018-12-13T08:04:17.000Z</time>
      </trkpt>
      <trkpt lat="49.407" lon="0.17713">
        <ele>23.8</ele>
        <time>2018-12-13T08:04:18.000Z</time>
      </trkpt>
      <trkpt lat="49.407" lon="0.17698">
        <ele>22.3</ele>
        <time>2018-12-13T08:04:27.000Z</time>
      </trkpt>
      <trkpt lat="49.40692" lon="0.17691">
        <ele>20.8</ele>
        <time>2018-12-13T08:04:35.000Z</time>
      </trkpt>
      <trkpt lat="49.40682" lon="0.17691">
        <ele>20.5</ele>
        <time>2018-12-13T08:04:44.000Z</time>
      </trkpt>
      <trkpt lat="49.40672" lon="0.1769">
        <ele>18.9</ele>
        <time>2018-12-13T08:04:54.000Z</time>
      </trkpt>
      <trkpt lat="49.40663" lon="0.17693">
        <ele>21.6</ele>
        <time>2018-12-13T08:05:04.000Z</time>
      </trkpt>
      <trkpt lat="49.40654" lon="0.17698">
        <ele>22.6</ele>
        <time>2018-12-13T08:05:14.000Z</time>
      </trkpt>
      <trkpt lat="49.40646" lon="0.17707">
        <ele>23</ele>
        <time>2018-12-13T08:05:24.000Z</time>
      </trkpt>
      <trkpt lat="49.40638" lon="0.17717">
        <ele>24.5</ele>
        <time>2018-12-13T08:05:32.000Z</time>
      </trkpt>
      <trkpt lat="49.40629" lon="0.17723">
        <ele>25.7</ele>
        <time>2018-12-13T08:05:40.000Z</time>
      </trkpt>
      <trkpt lat="49.40622" lon="0.17733">
        <ele>26.3</ele>
        <time>2018-12-13T08:05:48.000Z</time>
      </trkpt>
      <trkpt lat="49.40616" lon="0.17746">
        <ele>26.9</ele>
        <time>2018-12-13T08:05:57.000Z</time>
      </trkpt>
      <trkpt lat="49.4061" lon="0.17756">
        <ele>27.2</ele>
        <time>2018-12-13T08:06:04.000Z</time>
      </trkpt>
      <trkpt lat="49.40603" lon="0.17768">
        <ele>28.1</ele>
        <time>2018-12-13T08:06:12.000Z</time>
      </trkpt>
      <trkpt lat="49.40596" lon="0.17778">
        <ele>28.9</ele>
        <time>2018-12-13T08:06:20.000Z</time>
      </trkpt>
      <trkpt lat="49.40588" lon="0.17788">
        <ele>29.6</ele>
        <time>2018-12-13T08:06:28.000Z</time>
      </trkpt>
      <trkpt lat="49.4058" lon="0.17796">
        <ele>30.3</ele>
        <time>2018-12-13T08:06:36.000Z</time>
      </trkpt>
      <trkpt lat="49.40573" lon="0.17807">
        <ele>31.2</ele>
        <time>2018-12-13T08:06:47.000Z</time>
      </trkpt>
      <trkpt lat="49.40568" lon="0.17819">
        <ele>32.1</ele>
        <time>2018-12-13T08:06:55.000Z</time>
      </trkpt>
      <trkpt lat="49.40563" lon="0.17831">
        <ele>33.2</ele>
        <time>2018-12-13T08:07:05.000Z</time>
      </trkpt>
      <trkpt lat="49.4056" lon="0.17844">
        <ele>35.3</ele>
        <time>2018-12-13T08:07:16.000Z</time>
      </trkpt>
      <trkpt lat="49.40554" lon="0.17855">
        <ele>37.4</ele>
        <time>2018-12-13T08:07:27.000Z</time>
      </trkpt>
      <trkpt lat="49.40547" lon="0.17865">
        <ele>38.9</ele>
        <time>2018-12-13T08:07:37.000Z</time>
      </trkpt>
      <trkpt lat="49.40539" lon="0.17874">
        <ele>39.8</ele>
        <time>2018-12-13T08:07:47.000Z</time>
      </trkpt>
      <trkpt lat="49.40534" lon="0.17886">
        <ele>41</ele>
        <time>2018-12-13T08:07:56.000Z</time>
      </trkpt>
      <trkpt lat="49.40527" lon="0.17897">
        <ele>42</ele>
        <time>2018-12-13T08:08:06.000Z</time>
      </trkpt>
      <trkpt lat="49.40524" lon="0.1791">
        <ele>42.9</ele>
        <time>2018-12-13T08:08:15.000Z</time>
      </trkpt>
      <trkpt lat="49.40519" lon="0.17922">
        <ele>44.1</ele>
        <time>2018-12-13T08:08:29.000Z</time>
      </trkpt>
      <trkpt lat="49.40512" lon="0.17933">
        <ele>45.5</ele>
        <time>2018-12-13T08:08:40.000Z</time>
      </trkpt>
      <trkpt lat="49.40509" lon="0.17946">
        <ele>46.4</ele>
        <time>2018-12-13T08:08:48.000Z</time>
      </trkpt>
      <trkpt lat="49.40504" lon="0.17959">
        <ele>48</ele>
        <time>2018-12-13T08:08:59.000Z</time>
      </trkpt>
      <trkpt lat="49.40502" lon="0.17973">
        <ele>49</ele>
        <time>2018-12-13T08:09:09.000Z</time>
      </trkpt>
      <trkpt lat="49.405" lon="0.17987">
        <ele>50.5</ele>
        <time>2018-12-13T08:09:19.000Z</time>
      </trkpt>
      <trkpt lat="49.40494" lon="0.17999">
        <ele>52.1</ele>
        <time>2018-12-13T08:09:33.000Z</time>
      </trkpt>
      <trkpt lat="49.40486" lon="0.18006">
        <ele>54.4</ele>
        <time>2018-12-13T08:09:47.000Z</time>
      </trkpt>
      <trkpt lat="49.40477" lon="0.18013">
        <ele>56.3</ele>
        <time>2018-12-13T08:09:58.000Z</time>
      </trkpt>
      <trkpt lat="49.40468" lon="0.1802">
        <ele>57.9</ele>
        <time>2018-12-13T08:10:11.000Z</time>
      </trkpt>
      <trkpt lat="49.40462" lon="0.18032">
        <ele>59</ele>
        <time>2018-12-13T08:10:23.000Z</time>
      </trkpt>
      <trkpt lat="49.40457" lon="0.18043">
        <ele>60.9</ele>
        <time>2018-12-13T08:10:35.000Z</time>
      </trkpt>
      <trkpt lat="49.40457" lon="0.18059">
        <ele>63.1</ele>
        <time>2018-12-13T08:10:49.000Z</time>
      </trkpt>
      <trkpt lat="49.40448" lon="0.18065">
        <ele>64.4</ele>
        <time>2018-12-13T08:11:00.000Z</time>
      </trkpt>
      <trkpt lat="49.40439" lon="0.18061">
        <ele>65.7</ele>
        <time>2018-12-13T08:11:11.000Z</time>
      </trkpt>
      <trkpt lat="49.4043" lon="0.18058">
        <ele>67.2</ele>
        <time>2018-12-13T08:11:23.000Z</time>
      </trkpt>
      <trkpt lat="49.40421" lon="0.1806">
        <ele>69.8</ele>
        <time>2018-12-13T08:11:43.000Z</time>
      </trkpt>
      <trkpt lat="49.40413" lon="0.18068">
        <ele>71.4</ele>
        <time>2018-12-13T08:11:54.000Z</time>
      </trkpt>
      <trkpt lat="49.40409" lon="0.1808">
        <ele>72.8</ele>
        <time>2018-12-13T08:12:05.000Z</time>
      </trkpt>
      <trkpt lat="49.40401" lon="0.18089">
        <ele>74.5</ele>
        <time>2018-12-13T08:12:16.000Z</time>
      </trkpt>
      <trkpt lat="49.40396" lon="0.18102">
        <ele>76.7</ele>
        <time>2018-12-13T08:12:29.000Z</time>
      </trkpt>
      <trkpt lat="49.40391" lon="0.18113">
        <ele>79.1</ele>
        <time>2018-12-13T08:12:42.000Z</time>
      </trkpt>
      <trkpt lat="49.40383" lon="0.18119">
        <ele>80.4</ele>
        <time>2018-12-13T08:12:52.000Z</time>
      </trkpt>
      <trkpt lat="49.40376" lon="0.18129">
        <ele>82.1</ele>
        <time>2018-12-13T08:13:05.000Z</time>
      </trkpt>
      <trkpt lat="49.40373" lon="0.18142">
        <ele>83.8</ele>
        <time>2018-12-13T08:13:16.000Z</time>
      </trkpt>
      <trkpt lat="49.40369" lon="0.18155">
        <ele>85.9</ele>
        <time>2018-12-13T08:13:31.000Z</time>
      </trkpt>
      <trkpt lat="49.40366" lon="0.18168">
        <ele>88.4</ele>
        <time>2018-12-13T08:13:47.000Z</time>
      </trkpt>
      <trkpt lat="49.40358" lon="0.18175">
        <ele>89.8</ele>
        <time>2018-12-13T08:14:01.000Z</time>
      </trkpt>
      <trkpt lat="49.40365" lon="0.18184">
        <ele>93</ele>
        <time>2018-12-13T08:14:22.000Z</time>
      </trkpt>
      <trkpt lat="49.40373" lon="0.18179">
        <ele>93.4</ele>
        <time>2018-12-13T08:14:32.000Z</time>
      </trkpt>
      <trkpt lat="49.40382" lon="0.18171">
        <ele>93.9</ele>
        <time>2018-12-13T08:14:43.000Z</time>
      </trkpt>
      <trkpt lat="49.40391" lon="0.18165">
        <ele>94.2</ele>
        <time>2018-12-13T08:14:49.000Z</time>
      </trkpt>
      <trkpt lat="49.40399" lon="0.18156">
        <ele>94.8</ele>
        <time>2018-12-13T08:14:58.000Z</time>
      </trkpt>
      <trkpt lat="49.40408" lon="0.18154">
        <ele>95.2</ele>
        <time>2018-12-13T08:15:08.000Z</time>
      </trkpt>
      <trkpt lat="49.40418" lon="0.18157">
        <ele>95.6</ele>
        <time>2018-12-13T08:15:18.000Z</time>
      </trkpt>
      <trkpt lat="49.40427" lon="0.1816">
        <ele>96.4</ele>
        <time>2018-12-13T08:15:27.000Z</time>
      </trkpt>
      <trkpt lat="49.40436" lon="0.18167">
        <ele>96.7</ele>
        <time>2018-12-13T08:15:34.000Z</time>
      </trkpt>
      <trkpt lat="49.40445" lon="0.18171">
        <ele>97.1</ele>
        <time>2018-12-13T08:15:42.000Z</time>
      </trkpt>
      <trkpt lat="49.40453" lon="0.18175">
        <ele>97.7</ele>
        <time>2018-12-13T08:15:52.000Z</time>
      </trkpt>
      <trkpt lat="49.40464" lon="0.18175">
        <ele>98.6</ele>
        <time>2018-12-13T08:16:00.000Z</time>
      </trkpt>
      <trkpt lat="49.40474" lon="0.18175">
        <ele>99.1</ele>
        <time>2018-12-13T08:16:10.000Z</time>
      </trkpt>
      <trkpt lat="49.40483" lon="0.18173">
        <ele>99.5</ele>
        <time>2018-12-13T08:16:17.000Z</time>
      </trkpt>
      <trkpt lat="49.40492" lon="0.18169">
        <ele>100.1</ele>
        <time>2018-12-13T08:16:28.000Z</time>
      </trkpt>
      <trkpt lat="49.405" lon="0.18161">
        <ele>100.4</ele>
        <time>2018-12-13T08:16:37.000Z</time>
      </trkpt>
      <trkpt lat="49.40508" lon="0.18156">
        <ele>101.2</ele>
        <time>2018-12-13T08:16:47.000Z</time>
      </trkpt>
      <trkpt lat="49.40519" lon="0.18154">
        <ele>102</ele>
        <time>2018-12-13T08:16:58.000Z</time>
      </trkpt>
      <trkpt lat="49.40528" lon="0.1816">
        <ele>103.1</ele>
        <time>2018-12-13T08:17:08.000Z</time>
      </trkpt>
      <trkpt lat="49.40538" lon="0.18164">
        <ele>103.7</ele>
        <time>2018-12-13T08:17:17.000Z</time>
      </trkpt>
      <trkpt lat="49.40546" lon="0.1817">
        <ele>104.2</ele>
        <time>2018-12-13T08:17:25.000Z</time>
      </trkpt>
      <trkpt lat="49.40556" lon="0.18173">
        <ele>104.2</ele>
        <time>2018-12-13T08:17:33.000Z</time>
      </trkpt>
      <trkpt lat="49.40565" lon="0.18182">
        <ele>104.6</ele>
        <time>2018-12-13T08:17:43.000Z</time>
      </trkpt>
      <trkpt lat="49.40572" lon="0.18192">
        <ele>104.6</ele>
        <time>2018-12-13T08:17:53.000Z</time>
      </trkpt>
      <trkpt lat="49.40579" lon="0.182">
        <ele>104.7</ele>
        <time>2018-12-13T08:18:03.000Z</time>
      </trkpt>
      <trkpt lat="49.40588" lon="0.18207">
        <ele>104.6</ele>
        <time>2018-12-13T08:18:11.000Z</time>
      </trkpt>
      <trkpt lat="49.40596" lon="0.18215">
        <ele>104.5</ele>
        <time>2018-12-13T08:18:21.000Z</time>
      </trkpt>
      <trkpt lat="49.40605" lon="0.18221">
        <ele>104.8</ele>
        <time>2018-12-13T08:18:29.000Z</time>
      </trkpt>
      <trkpt lat="49.40611" lon="0.18232">
        <ele>104.6</ele>
        <time>2018-12-13T08:18:38.000Z</time>
      </trkpt>
      <trkpt lat="49.40613" lon="0.18245">
        <ele>104.4</ele>
        <time>2018-12-13T08:18:45.000Z</time>
      </trkpt>
      <trkpt lat="49.40614" lon="0.18262">
        <ele>104.5</ele>
        <time>2018-12-13T08:18:54.000Z</time>
      </trkpt>
      <trkpt lat="49.40612" lon="0.18276">
        <ele>104.5</ele>
        <time>2018-12-13T08:19:02.000Z</time>
      </trkpt>
      <trkpt lat="49.4061" lon="0.18291">
        <ele>104.8</ele>
        <time>2018-12-13T08:19:09.000Z</time>
      </trkpt>
      <trkpt lat="49.40605" lon="0.18303">
        <ele>104.7</ele>
        <time>2018-12-13T08:19:18.000Z</time>
      </trkpt>
      <trkpt lat="49.40601" lon="0.18316">
        <ele>104.9</ele>
        <time>2018-12-13T08:19:27.000Z</time>
      </trkpt>
      <trkpt lat="49.40596" lon="0.18328">
        <ele>104.7</ele>
        <time>2018-12-13T08:19:35.000Z</time>
      </trkpt>
      <trkpt lat="49.40589" lon="0.18338">
        <ele>104.4</ele>
        <time>2018-12-13T08:19:43.000Z</time>
      </trkpt>
      <trkpt lat="49.40588" lon="0.18354">
        <ele>104.5</ele>
        <time>2018-12-13T08:19:52.000Z</time>
      </trkpt>
      <trkpt lat="49.40593" lon="0.18366">
        <ele>104.4</ele>
        <time>2018-12-13T08:20:02.000Z</time>
      </trkpt>
      <trkpt lat="49.40602" lon="0.18372">
        <ele>104.1</ele>
        <time>2018-12-13T08:20:14.000Z</time>
      </trkpt>
      <trkpt lat="49.40611" lon="0.18374">
        <ele>104</ele>
        <time>2018-12-13T08:20:22.000Z</time>
      </trkpt>
      <trkpt lat="49.40621" lon="0.18373">
        <ele>104.2</ele>
        <time>2018-12-13T08:20:31.000Z</time>
      </trkpt>
      <trkpt lat="49.4063" lon="0.18371">
        <ele>104.2</ele>
        <time>2018-12-13T08:20:37.000Z</time>
      </trkpt>
      <trkpt lat="49.4064" lon="0.18368">
        <ele>103.8</ele>
        <time>2018-12-13T08:20:44.000Z</time>
      </trkpt>
      <trkpt lat="49.40649" lon="0.18363">
        <ele>103.8</ele>
        <time>2018-12-13T08:20:51.000Z</time>
      </trkpt>
      <trkpt lat="49.40659" lon="0.18359">
        <ele>104</ele>
        <time>2018-12-13T08:21:00.000Z</time>
      </trkpt>
      <trkpt lat="49.40668" lon="0.18354">
        <ele>104.1</ele>
        <time>2018-12-13T08:21:11.000Z</time>
      </trkpt>
      <trkpt lat="49.40678" lon="0.18354">
        <ele>104.3</ele>
        <time>2018-12-13T08:21:18.000Z</time>
      </trkpt>
      <trkpt lat="49.40688" lon="0.18352">
        <ele>104</ele>
        <time>2018-12-13T08:21:27.000Z</time>
      </trkpt>
      <trkpt lat="49.40697" lon="0.18353">
        <ele>103.9</ele>
        <time>2018-12-13T08:21:34.000Z</time>
      </trkpt>
      <trkpt lat="49.40706" lon="0.18358">
        <ele>104.2</ele>
        <time>2018-12-13T08:21:40.000Z</time>
      </trkpt>
      <trkpt lat="49.40714" lon="0.18366">
        <ele>104.1</ele>
        <time>2018-12-13T08:21:49.000Z</time>
      </trkpt>
      <trkpt lat="49.4072" lon="0.18377">
        <ele>103.9</ele>
        <time>2018-12-13T08:21:57.000Z</time>
      </trkpt>
      <trkpt lat="49.40724" lon="0.18391">
        <ele>104.1</ele>
        <time>2018-12-13T08:22:06.000Z</time>
      </trkpt>
      <trkpt lat="49.4072" lon="0.18404">
        <ele>104.1</ele>
        <time>2018-12-13T08:22:14.000Z</time>
      </trkpt>
      <trkpt lat="49.40716" lon="0.18417">
        <ele>104</ele>
        <time>2018-12-13T08:22:22.000Z</time>
      </trkpt>
      <trkpt lat="49.4071" lon="0.18428">
        <ele>103.9</ele>
        <time>2018-12-13T08:22:29.000Z</time>
      </trkpt>
      <trkpt lat="49.40705" lon="0.18441">
        <ele>103.7</ele>
        <time>2018-12-13T08:22:37.000Z</time>
      </trkpt>
      <trkpt lat="49.40703" lon="0.18456">
        <ele>103.5</ele>
        <time>2018-12-13T08:22:45.000Z</time>
      </trkpt>
      <trkpt lat="49.40706" lon="0.1847">
        <ele>103.5</ele>
        <time>2018-12-13T08:22:54.000Z</time>
      </trkpt>
      <trkpt lat="49.40713" lon="0.1848">
        <ele>103.6</ele>
        <time>2018-12-13T08:23:03.000Z</time>
      </trkpt>
      <trkpt lat="49.40721" lon="0.18487">
        <ele>104</ele>
        <time>2018-12-13T08:23:13.000Z</time>
      </trkpt>
      <trkpt lat="49.40729" lon="0.18494">
        <ele>104.6</ele>
        <time>2018-12-13T08:23:20.000Z</time>
      </trkpt>
      <trkpt lat="49.40737" lon="0.18503">
        <ele>104.7</ele>
        <time>2018-12-13T08:23:28.000Z</time>
      </trkpt>
      <trkpt lat="49.40746" lon="0.18512">
        <ele>105.3</ele>
        <time>2018-12-13T08:23:36.000Z</time>
      </trkpt>
      <trkpt lat="49.40754" lon="0.18517">
        <ele>105.4</ele>
        <time>2018-12-13T08:23:46.000Z</time>
      </trkpt>
      <trkpt lat="49.40762" lon="0.18525">
        <ele>105.3</ele>
        <time>2018-12-13T08:23:53.000Z</time>
      </trkpt>
      <trkpt lat="49.40771" lon="0.1853">
        <ele>104.9</ele>
        <time>2018-12-13T08:24:03.000Z</time>
      </trkpt>
      <trkpt lat="49.40781" lon="0.18536">
        <ele>104.6</ele>
        <time>2018-12-13T08:24:10.000Z</time>
      </trkpt>
      <trkpt lat="49.40788" lon="0.18544">
        <ele>104.7</ele>
        <time>2018-12-13T08:24:18.000Z</time>
      </trkpt>
      <trkpt lat="49.40796" lon="0.18551">
        <ele>105</ele>
        <time>2018-12-13T08:24:25.000Z</time>
      </trkpt>
      <trkpt lat="49.40805" lon="0.18559">
        <ele>105</ele>
        <time>2018-12-13T08:24:32.000Z</time>
      </trkpt>
      <trkpt lat="49.40813" lon="0.18567">
        <ele>104.9</ele>
        <time>2018-12-13T08:24:40.000Z</time>
      </trkpt>
      <trkpt lat="49.4082" lon="0.18576">
        <ele>104.7</ele>
        <time>2018-12-13T08:24:48.000Z</time>
      </trkpt>
      <trkpt lat="49.40827" lon="0.18586">
        <ele>104.9</ele>
        <time>2018-12-13T08:24:58.000Z</time>
      </trkpt>
      <trkpt lat="49.40832" lon="0.18598">
        <ele>104.9</ele>
        <time>2018-12-13T08:25:07.000Z</time>
      </trkpt>
      <trkpt lat="49.4084" lon="0.18607">
        <ele>104.8</ele>
        <time>2018-12-13T08:25:15.000Z</time>
      </trkpt>
      <trkpt lat="49.40847" lon="0.18618">
        <ele>104.6</ele>
        <time>2018-12-13T08:25:22.000Z</time>
      </trkpt>
      <trkpt lat="49.40852" lon="0.18632">
        <ele>104.1</ele>
        <time>2018-12-13T08:25:31.000Z</time>
      </trkpt>
      <trkpt lat="49.40858" lon="0.18644">
        <ele>103.8</ele>
        <time>2018-12-13T08:25:41.000Z</time>
      </trkpt>
      <trkpt lat="49.40866" lon="0.18653">
        <ele>103.1</ele>
        <time>2018-12-13T08:25:49.000Z</time>
      </trkpt>
      <trkpt lat="49.40872" lon="0.18663">
        <ele>103.1</ele>
        <time>2018-12-13T08:25:56.000Z</time>
      </trkpt>
      <trkpt lat="49.4088" lon="0.18673">
        <ele>103.3</ele>
        <time>2018-12-13T08:26:04.000Z</time>
      </trkpt>
      <trkpt lat="49.40886" lon="0.18685">
        <ele>103.5</ele>
        <time>2018-12-13T08:26:13.000Z</time>
      </trkpt>
      <trkpt lat="49.40892" lon="0.18696">
        <ele>103.1</ele>
        <time>2018-12-13T08:26:22.000Z</time>
      </trkpt>
      <trkpt lat="49.40897" lon="0.18709">
        <ele>102.9</ele>
        <time>2018-12-13T08:26:31.000Z</time>
      </trkpt>
      <trkpt lat="49.40904" lon="0.1872">
        <ele>102.8</ele>
        <time>2018-12-13T08:26:38.000Z</time>
      </trkpt>
      <trkpt lat="49.40909" lon="0.18734">
        <ele>102.4</ele>
        <time>2018-12-13T08:26:46.000Z</time>
      </trkpt>
      <trkpt lat="49.40914" lon="0.18747">
        <ele>102.3</ele>
        <time>2018-12-13T08:26:54.000Z</time>
      </trkpt>
      <trkpt lat="49.4092" lon="0.18759">
        <ele>102.4</ele>
        <time>2018-12-13T08:27:02.000Z</time>
      </trkpt>
      <trkpt lat="49.40926" lon="0.1877">
        <ele>102.5</ele>
        <time>2018-12-13T08:27:10.000Z</time>
      </trkpt>
      <trkpt lat="49.40932" lon="0.18781">
        <ele>102.5</ele>
        <time>2018-12-13T08:27:17.000Z</time>
      </trkpt>
      <trkpt lat="49.40938" lon="0.18792">
        <ele>102.6</ele>
        <time>2018-12-13T08:27:25.000Z</time>
      </trkpt>
      <trkpt lat="49.40944" lon="0.18803">
        <ele>102.5</ele>
        <time>2018-12-13T08:27:33.000Z</time>
      </trkpt>
      <trkpt lat="49.4095" lon="0.18815">
        <ele>102.5</ele>
        <time>2018-12-13T08:27:41.000Z</time>
      </trkpt>
      <trkpt lat="49.40955" lon="0.18827">
        <ele>102.7</ele>
        <time>2018-12-13T08:27:50.000Z</time>
      </trkpt>
      <trkpt lat="49.4096" lon="0.1884">
        <ele>103</ele>
        <time>2018-12-13T08:28:00.000Z</time>
      </trkpt>
      <trkpt lat="49.40967" lon="0.1885">
        <ele>102.9</ele>
        <time>2018-12-13T08:28:07.000Z</time>
      </trkpt>
      <trkpt lat="49.40971" lon="0.18862">
        <ele>102.8</ele>
        <time>2018-12-13T08:28:16.000Z</time>
      </trkpt>
      <trkpt lat="49.40977" lon="0.18874">
        <ele>103.2</ele>
        <time>2018-12-13T08:28:24.000Z</time>
      </trkpt>
      <trkpt lat="49.40984" lon="0.18886">
        <ele>103.2</ele>
        <time>2018-12-13T08:28:31.000Z</time>
      </trkpt>
      <trkpt lat="49.40991" lon="0.18897">
        <ele>103.1</ele>
        <time>2018-12-13T08:28:39.000Z</time>
      </trkpt>
      <trkpt lat="49.40998" lon="0.18908">
        <ele>103</ele>
        <time>2018-12-13T08:28:48.000Z</time>
      </trkpt>
      <trkpt lat="49.41003" lon="0.18921">
        <ele>102.7</ele>
        <time>2018-12-13T08:28:57.000Z</time>
      </trkpt>
      <trkpt lat="49.41008" lon="0.18933">
        <ele>102.4</ele>
        <time>2018-12-13T08:29:04.000Z</time>
      </trkpt>
      <trkpt lat="49.41015" lon="0.18943">
        <ele>102.5</ele>
        <time>2018-12-13T08:29:12.000Z</time>
      </trkpt>
      <trkpt lat="49.4102" lon="0.18955">
        <ele>102.7</ele>
        <time>2018-12-13T08:29:19.000Z</time>
      </trkpt>
      <trkpt lat="49.41026" lon="0.18967">
        <ele>102.7</ele>
        <time>2018-12-13T08:29:27.000Z</time>
      </trkpt>
      <trkpt lat="49.41033" lon="0.18978">
        <ele>102.4</ele>
        <time>2018-12-13T08:29:35.000Z</time>
      </trkpt>
      <trkpt lat="49.41038" lon="0.18989">
        <ele>102.3</ele>
        <time>2018-12-13T08:29:43.000Z</time>
      </trkpt>
      <trkpt lat="49.41044" lon="0.19001">
        <ele>102.3</ele>
        <time>2018-12-13T08:29:51.000Z</time>
      </trkpt>
      <trkpt lat="49.41051" lon="0.19012">
        <ele>102.2</ele>
        <time>2018-12-13T08:30:00.000Z</time>
      </trkpt>
      <trkpt lat="49.41056" lon="0.19024">
        <ele>102.5</ele>
        <time>2018-12-13T08:30:09.000Z</time>
      </trkpt>
      <trkpt lat="49.41062" lon="0.19036">
        <ele>102.3</ele>
        <time>2018-12-13T08:30:17.000Z</time>
      </trkpt>
      <trkpt lat="49.41068" lon="0.19049">
        <ele>102.7</ele>
        <time>2018-12-13T08:30:26.000Z</time>
      </trkpt>
      <trkpt lat="49.41076" lon="0.19058">
        <ele>102.9</ele>
        <time>2018-12-13T08:30:34.000Z</time>
      </trkpt>
      <trkpt lat="49.41082" lon="0.19068">
        <ele>102.8</ele>
        <time>2018-12-13T08:30:41.000Z</time>
      </trkpt>
      <trkpt lat="49.41088" lon="0.1908">
        <ele>102.6</ele>
        <time>2018-12-13T08:30:50.000Z</time>
      </trkpt>
      <trkpt lat="49.41094" lon="0.19091">
        <ele>102.2</ele>
        <time>2018-12-13T08:30:58.000Z</time>
      </trkpt>
      <trkpt lat="49.41101" lon="0.19102">
        <ele>101.7</ele>
        <time>2018-12-13T08:31:07.000Z</time>
      </trkpt>
      <trkpt lat="49.41106" lon="0.19113">
        <ele>101.5</ele>
        <time>2018-12-13T08:31:14.000Z</time>
      </trkpt>
      <trkpt lat="49.41114" lon="0.19122">
        <ele>101.2</ele>
        <time>2018-12-13T08:31:24.000Z</time>
      </trkpt>
      <trkpt lat="49.41123" lon="0.1912">
        <ele>100.7</ele>
        <time>2018-12-13T08:31:36.000Z</time>
      </trkpt>
      <trkpt lat="49.41132" lon="0.19123">
        <ele>99.8</ele>
        <time>2018-12-13T08:31:48.000Z</time>
      </trkpt>
      <trkpt lat="49.41141" lon="0.19125">
        <ele>98.5</ele>
        <time>2018-12-13T08:32:01.000Z</time>
      </trkpt>
      <trkpt lat="49.41149" lon="0.19133">
        <ele>96.8</ele>
        <time>2018-12-13T08:32:13.000Z</time>
      </trkpt>
      <trkpt lat="49.41153" lon="0.19145">
        <ele>94.8</ele>
        <time>2018-12-13T08:32:33.000Z</time>
      </trkpt>
      <trkpt lat="49.41158" lon="0.19158">
        <ele>93.4</ele>
        <time>2018-12-13T08:32:46.000Z</time>
      </trkpt>
      <trkpt lat="49.41167" lon="0.19164">
        <ele>92.2</ele>
        <time>2018-12-13T08:32:55.000Z</time>
      </trkpt>
      <trkpt lat="49.41174" lon="0.19173">
        <ele>90.8</ele>
        <time>2018-12-13T08:33:07.000Z</time>
      </trkpt>
      <trkpt lat="49.41183" lon="0.1918">
        <ele>89.9</ele>
        <time>2018-12-13T08:33:17.000Z</time>
      </trkpt>
      <trkpt lat="49.4119" lon="0.1919">
        <ele>88.2</ele>
        <time>2018-12-13T08:33:29.000Z</time>
      </trkpt>
      <trkpt lat="49.41197" lon="0.19198">
        <ele>86.8</ele>
        <time>2018-12-13T08:33:37.000Z</time>
      </trkpt>
      <trkpt lat="49.41205" lon="0.19208">
        <ele>84.7</ele>
        <time>2018-12-13T08:33:51.000Z</time>
      </trkpt>
      <trkpt lat="49.41213" lon="0.19215">
        <ele>82.8</ele>
        <time>2018-12-13T08:34:03.000Z</time>
      </trkpt>
      <trkpt lat="49.41223" lon="0.19217">
        <ele>80.9</ele>
        <time>2018-12-13T08:34:15.000Z</time>
      </trkpt>
      <trkpt lat="49.41232" lon="0.19213">
        <ele>79.5</ele>
        <time>2018-12-13T08:34:23.000Z</time>
      </trkpt>
      <trkpt lat="49.41236" lon="0.192">
        <ele>76.8</ele>
        <time>2018-12-13T08:34:37.000Z</time>
      </trkpt>
      <trkpt lat="49.41234" lon="0.19186">
        <ele>74.6</ele>
        <time>2018-12-13T08:34:48.000Z</time>
      </trkpt>
      <trkpt lat="49.41234" lon="0.19172">
        <ele>72.9</ele>
        <time>2018-12-13T08:34:59.000Z</time>
      </trkpt>
      <trkpt lat="49.41232" lon="0.19159">
        <ele>71.1</ele>
        <time>2018-12-13T08:35:09.000Z</time>
      </trkpt>
      <trkpt lat="49.41227" lon="0.19147">
        <ele>69.7</ele>
        <time>2018-12-13T08:35:19.000Z</time>
      </trkpt>
      <trkpt lat="49.41221" lon="0.19136">
        <ele>67.5</ele>
        <time>2018-12-13T08:35:32.000Z</time>
      </trkpt>
      <trkpt lat="49.41215" lon="0.19125">
        <ele>66.9</ele>
        <time>2018-12-13T08:35:40.000Z</time>
      </trkpt>
      <trkpt lat="49.41209" lon="0.19114">
        <ele>65.5</ele>
        <time>2018-12-13T08:35:49.000Z</time>
      </trkpt>
      <trkpt lat="49.41205" lon="0.19102">
        <ele>64</ele>
        <time>2018-12-13T08:35:59.000Z</time>
      </trkpt>
      <trkpt lat="49.412" lon="0.1909">
        <ele>62.4</ele>
        <time>2018-12-13T08:36:12.000Z</time>
      </trkpt>
      <trkpt lat="49.41198" lon="0.19076">
        <ele>60.8</ele>
        <time>2018-12-13T08:36:24.000Z</time>
      </trkpt>
      <trkpt lat="49.41197" lon="0.19061">
        <ele>58.6</ele>
        <time>2018-12-13T08:36:38.000Z</time>
      </trkpt>
      <trkpt lat="49.41194" lon="0.19047">
        <ele>56.7</ele>
        <time>2018-12-13T08:36:52.000Z</time>
      </trkpt>
      <trkpt lat="49.41189" lon="0.19035">
        <ele>54.8</ele>
        <time>2018-12-13T08:37:06.000Z</time>
      </trkpt>
      <trkpt lat="49.41184" lon="0.19024">
        <ele>53.3</ele>
        <time>2018-12-13T08:37:16.000Z</time>
      </trkpt>
      <trkpt lat="49.4118" lon="0.1901">
        <ele>51.9</ele>
        <time>2018-12-13T08:37:26.000Z</time>
      </trkpt>
      <trkpt lat="49.41176" lon="0.18997">
        <ele>50.4</ele>
        <time>2018-12-13T08:37:36.000Z</time>
      </trkpt>
      <trkpt lat="49.41172" lon="0.18984">
        <ele>48</ele>
        <time>2018-12-13T08:37:49.000Z</time>
      </trkpt>
      <trkpt lat="49.41173" lon="0.18969">
        <ele>47.5</ele>
        <time>2018-12-13T08:37:57.000Z</time>
      </trkpt>
      <trkpt lat="49.41173" lon="0.18955">
        <ele>46</ele>
        <time>2018-12-13T08:38:08.000Z</time>
      </trkpt>
      <trkpt lat="49.41175" lon="0.18941">
        <ele>44.5</ele>
        <time>2018-12-13T08:38:21.000Z</time>
      </trkpt>
      <trkpt lat="49.41181" lon="0.18928">
        <ele>43.5</ele>
        <time>2018-12-13T08:38:31.000Z</time>
      </trkpt>
      <trkpt lat="49.41184" lon="0.18914">
        <ele>42.2</ele>
        <time>2018-12-13T08:38:42.000Z</time>
      </trkpt>
      <trkpt lat="49.4119" lon="0.18903">
        <ele>40.7</ele>
        <time>2018-12-13T08:38:51.000Z</time>
      </trkpt>
      <trkpt lat="49.41195" lon="0.1889">
        <ele>39.8</ele>
        <time>2018-12-13T08:39:00.000Z</time>
      </trkpt>
      <trkpt lat="49.41201" lon="0.18878">
        <ele>38</ele>
        <time>2018-12-13T08:39:10.000Z</time>
      </trkpt>
      <trkpt lat="49.41208" lon="0.18868">
        <ele>37.5</ele>
        <time>2018-12-13T08:39:18.000Z</time>
      </trkpt>
      <trkpt lat="49.41215" lon="0.1886">
        <ele>36.4</ele>
        <time>2018-12-13T08:39:28.000Z</time>
      </trkpt>
      <trkpt lat="49.41223" lon="0.18853">
        <ele>35.1</ele>
        <time>2018-12-13T08:39:39.000Z</time>
      </trkpt>
      <trkpt lat="49.41232" lon="0.18844">
        <ele>34</ele>
        <time>2018-12-13T08:39:48.000Z</time>
      </trkpt>
      <trkpt lat="49.41239" lon="0.18836">
        <ele>33.1</ele>
        <time>2018-12-13T08:39:56.000Z</time>
      </trkpt>
      <trkpt lat="49.41246" lon="0.18827">
        <ele>31.6</ele>
        <time>2018-12-13T08:40:07.000Z</time>
      </trkpt>
      <trkpt lat="49.41254" lon="0.18819">
        <ele>29.9</ele>
        <time>2018-12-13T08:40:17.000Z</time>
      </trkpt>
      <trkpt lat="49.41262" lon="0.1881">
        <ele>28.6</ele>
        <time>2018-12-13T08:40:25.000Z</time>
      </trkpt>
      <trkpt lat="49.41269" lon="0.18802">
        <ele>26.4</ele>
        <time>2018-12-13T08:40:53.000Z</time>
      </trkpt>
      <trkpt lat="49.41277" lon="0.18794">
        <ele>25.1</ele>
        <time>2018-12-13T08:41:11.000Z</time>
      </trkpt>
      <trkpt lat="49.41285" lon="0.18787">
        <ele>23.8</ele>
        <time>2018-12-13T08:41:22.000Z</time>
      </trkpt>
      <trkpt lat="49.41292" lon="0.18776">
        <ele>23</ele>
        <time>2018-12-13T08:41:32.000Z</time>
      </trkpt>
      <trkpt lat="49.413" lon="0.1877">
        <ele>22.2</ele>
        <time>2018-12-13T08:41:40.000Z</time>
      </trkpt>
      <trkpt lat="49.41308" lon="0.18761">
        <ele>21.6</ele>
        <time>2018-12-13T08:41:49.000Z</time>
      </trkpt>
      <trkpt lat="49.41316" lon="0.18751">
        <ele>20.9</ele>
        <time>2018-12-13T08:41:58.000Z</time>
      </trkpt>
      <trkpt lat="49.41324" lon="0.18742">
        <ele>19.9</ele>
        <time>2018-12-13T08:42:07.000Z</time>
      </trkpt>
      <trkpt lat="49.41332" lon="0.18734">
        <ele>19</ele>
        <time>2018-12-13T08:42:16.000Z</time>
      </trkpt>
      <trkpt lat="49.41339" lon="0.18723">
        <ele>18.1</ele>
        <time>2018-12-13T08:42:27.000Z</time>
      </trkpt>
      <trkpt lat="49.41345" lon="0.18713">
        <ele>17.1</ele>
        <time>2018-12-13T08:42:37.000Z</time>
      </trkpt>
      <trkpt lat="49.41352" lon="0.18701">
        <ele>16</ele>
        <time>2018-12-13T08:42:47.000Z</time>
      </trkpt>
      <trkpt lat="49.41348" lon="0.18687">
        <ele>15.5</ele>
        <time>2018-12-13T08:42:55.000Z</time>
      </trkpt>
      <trkpt lat="49.41342" lon="0.18676">
        <ele>15.3</ele>
        <time>2018-12-13T08:43:03.000Z</time>
      </trkpt>
      <trkpt lat="49.41335" lon="0.18665">
        <ele>15.5</ele>
        <time>2018-12-13T08:43:10.000Z</time>
      </trkpt>
      <trkpt lat="49.41328" lon="0.18653">
        <ele>15.7</ele>
        <time>2018-12-13T08:43:18.000Z</time>
      </trkpt>
      <trkpt lat="49.41322" lon="0.18643">
        <ele>15.8</ele>
        <time>2018-12-13T08:43:25.000Z</time>
      </trkpt>
      <trkpt lat="49.41316" lon="0.18632">
        <ele>15.6</ele>
        <time>2018-12-13T08:43:33.000Z</time>
      </trkpt>
      <trkpt lat="49.4131" lon="0.18619">
        <ele>14.9</ele>
        <time>2018-12-13T08:43:42.000Z</time>
      </trkpt>
      <trkpt lat="49.41304" lon="0.18609">
        <ele>14.6</ele>
        <time>2018-12-13T08:43:51.000Z</time>
      </trkpt>
      <trkpt lat="49.41297" lon="0.18598">
        <ele>14.6</ele>
        <time>2018-12-13T08:44:01.000Z</time>
      </trkpt>
      <trkpt lat="49.413" lon="0.18585">
        <ele>14.3</ele>
        <time>2018-12-13T08:44:13.000Z</time>
      </trkpt>
      <trkpt lat="49.41304" lon="0.18572">
        <ele>13.6</ele>
        <time>2018-12-13T08:44:22.000Z</time>
      </trkpt>
      <trkpt lat="49.4131" lon="0.1856">
        <ele>12.3</ele>
        <time>2018-12-13T08:44:33.000Z</time>
      </trkpt>
      <trkpt lat="49.41316" lon="0.1855">
        <ele>11.6</ele>
        <time>2018-12-13T08:44:42.000Z</time>
      </trkpt>
      <trkpt lat="49.41322" lon="0.18539">
        <ele>11</ele>
        <time>2018-12-13T08:44:50.000Z</time>
      </trkpt>
      <trkpt lat="49.41329" lon="0.18529">
        <ele>10.5</ele>
        <time>2018-12-13T08:44:57.000Z</time>
      </trkpt>
      <trkpt lat="49.41337" lon="0.1852">
        <ele>10</ele>
        <time>2018-12-13T08:45:05.000Z</time>
      </trkpt>
      <trkpt lat="49.41341" lon="0.18508">
        <ele>8.8</ele>
        <time>2018-12-13T08:45:17.000Z</time>
      </trkpt>
      <trkpt lat="49.41349" lon="0.185">
        <ele>8.2</ele>
        <time>2018-12-13T08:45:26.000Z</time>
      </trkpt>
      <trkpt lat="49.41353" lon="0.18487">
        <ele>7.7</ele>
        <time>2018-12-13T08:45:38.000Z</time>
      </trkpt>
      <trkpt lat="49.41356" lon="0.18473">
        <ele>7.7</ele>
        <time>2018-12-13T08:45:46.000Z</time>
      </trkpt>
      <trkpt lat="49.41358" lon="0.18458">
        <ele>6.8</ele>
        <time>2018-12-13T08:45:57.000Z</time>
      </trkpt>
      <trkpt lat="49.41363" lon="0.18444">
        <ele>6.2</ele>
        <time>2018-12-13T08:46:04.000Z</time>
      </trkpt>
      <trkpt lat="49.41371" lon="0.18434">
        <ele>5.5</ele>
        <time>2018-12-13T08:46:12.000Z</time>
      </trkpt>
      <trkpt lat="49.41379" lon="0.18424">
        <ele>4.4</ele>
        <time>2018-12-13T08:46:22.000Z</time>
      </trkpt>
      <trkpt lat="49.41386" lon="0.18414">
        <ele>3.5</ele>
        <time>2018-12-13T08:46:30.000Z</time>
      </trkpt>
      <trkpt lat="49.41393" lon="0.18406">
        <ele>2.7</ele>
        <time>2018-12-13T08:46:38.000Z</time>
      </trkpt>
      <trkpt lat="49.41402" lon="0.184">
        <ele>2</ele>
        <time>2018-12-13T08:46:47.000Z</time>
      </trkpt>
      <trkpt lat="49.41412" lon="0.18394">
        <ele>1.7</ele>
        <time>2018-12-13T08:46:56.000Z</time>
      </trkpt>
      <trkpt lat="49.41422" lon="0.184">
        <ele>1.4</ele>
        <time>2018-12-13T08:47:05.000Z</time>
      </trkpt>
      <trkpt lat="49.4143" lon="0.18409">
        <ele>1.3</ele>
        <time>2018-12-13T08:47:13.000Z</time>
      </trkpt>
      <trkpt lat="49.41437" lon="0.18418">
        <ele>1.2</ele>
        <time>2018-12-13T08:47:21.000Z</time>
      </trkpt>
      <trkpt lat="49.41444" lon="0.18428">
        <ele>1.3</ele>
        <time>2018-12-13T08:47:29.000Z</time>
      </trkpt>
      <trkpt lat="49.41451" lon="0.18437">
        <ele>1.5</ele>
        <time>2018-12-13T08:47:37.000Z</time>
      </trkpt>
      <trkpt lat="49.41458" lon="0.18446">
        <ele>1.5</ele>
        <time>2018-12-13T08:47:46.000Z</time>
      </trkpt>
      <trkpt lat="49.41465" lon="0.18455">
        <ele>1.1</ele>
        <time>2018-12-13T08:47:56.000Z</time>
      </trkpt>
      <trkpt lat="49.41472" lon="0.18464">
        <ele>1</ele>
        <time>2018-12-13T08:48:03.000Z</time>
      </trkpt>
      <trkpt lat="49.41479" lon="0.18474">
        <ele>0.8</ele>
        <time>2018-12-13T08:48:11.000Z</time>
      </trkpt>
      <trkpt lat="49.41487" lon="0.18482">
        <ele>0.9</ele>
        <time>2018-12-13T08:48:19.000Z</time>
      </trkpt>
      <trkpt lat="49.41494" lon="0.18491">
        <ele>0.8</ele>
        <time>2018-12-13T08:48:28.000Z</time>
      </trkpt>
      <trkpt lat="49.41501" lon="0.18501">
        <ele>0.6</ele>
        <time>2018-12-13T08:48:37.000Z</time>
      </trkpt>
      <trkpt lat="49.4151" lon="0.18504">
        <ele>0.2</ele>
        <time>2018-12-13T08:48:46.000Z</time>
      </trkpt>
      <trkpt lat="49.41517" lon="0.18495">
        <ele>-0.3</ele>
        <time>2018-12-13T08:48:58.000Z</time>
      </trkpt>
      <trkpt lat="49.41526" lon="0.18489">
        <ele>-1.8</ele>
        <time>2018-12-13T08:49:09.000Z</time>
      </trkpt>
      <trkpt lat="49.41534" lon="0.18479">
        <ele>-3.3</ele>
        <time>2018-12-13T08:49:20.000Z</time>
      </trkpt>
      <trkpt lat="49.41539" lon="0.18467">
        <ele>-4.1</ele>
        <time>2018-12-13T08:49:27.000Z</time>
      </trkpt>
      <trkpt lat="49.41544" lon="0.18455">
        <ele>-4.2</ele>
        <time>2018-12-13T08:49:36.000Z</time>
      </trkpt>
      <trkpt lat="49.41545" lon="0.1844">
        <ele>-4.4</ele>
        <time>2018-12-13T08:49:44.000Z</time>
      </trkpt>
      <trkpt lat="49.41544" lon="0.18426">
        <ele>-4.9</ele>
        <time>2018-12-13T08:49:52.000Z</time>
      </trkpt>
      <trkpt lat="49.41542" lon="0.18411">
        <ele>-5.3</ele>
        <time>2018-12-13T08:50:01.000Z</time>
      </trkpt>
      <trkpt lat="49.41539" lon="0.18396">
        <ele>-5.1</ele>
        <time>2018-12-13T08:50:11.000Z</time>
      </trkpt>
      <trkpt lat="49.41535" lon="0.18382">
        <ele>-5.5</ele>
        <time>2018-12-13T08:50:19.000Z</time>
      </trkpt>
      <trkpt lat="49.41532" lon="0.18369">
        <ele>-6.1</ele>
        <time>2018-12-13T08:50:27.000Z</time>
      </trkpt>
      <trkpt lat="49.41529" lon="0.18355">
        <ele>-6.2</ele>
        <time>2018-12-13T08:50:36.000Z</time>
      </trkpt>
      <trkpt lat="49.41525" lon="0.18341">
        <ele>-6.3</ele>
        <time>2018-12-13T08:50:44.000Z</time>
      </trkpt>
      <trkpt lat="49.41523" lon="0.18326">
        <ele>-6.4</ele>
        <time>2018-12-13T08:50:53.000Z</time>
      </trkpt>
      <trkpt lat="49.41519" lon="0.18312">
        <ele>-6.6</ele>
        <time>2018-12-13T08:51:01.000Z</time>
      </trkpt>
      <trkpt lat="49.41515" lon="0.18298">
        <ele>-6.5</ele>
        <time>2018-12-13T08:51:08.000Z</time>
      </trkpt>
      <trkpt lat="49.41511" lon="0.18284">
        <ele>-6.2</ele>
        <time>2018-12-13T08:51:16.000Z</time>
      </trkpt>
      <trkpt lat="49.41508" lon="0.18271">
        <ele>-6.4</ele>
        <time>2018-12-13T08:51:25.000Z</time>
      </trkpt>
      <trkpt lat="49.41504" lon="0.18257">
        <ele>-6.5</ele>
        <time>2018-12-13T08:51:33.000Z</time>
      </trkpt>
      <trkpt lat="49.415" lon="0.18244">
        <ele>-6.4</ele>
        <time>2018-12-13T08:51:41.000Z</time>
      </trkpt>
      <trkpt lat="49.41495" lon="0.18231">
        <ele>-6.5</ele>
        <time>2018-12-13T08:51:49.000Z</time>
      </trkpt>
      <trkpt lat="49.41491" lon="0.18218">
        <ele>-6.6</ele>
        <time>2018-12-13T08:51:57.000Z</time>
      </trkpt>
      <trkpt lat="49.41487" lon="0.18204">
        <ele>-6.4</ele>
        <time>2018-12-13T08:52:06.000Z</time>
      </trkpt>
      <trkpt lat="49.41483" lon="0.1819">
        <ele>-6.3</ele>
        <time>2018-12-13T08:52:14.000Z</time>
      </trkpt>
      <trkpt lat="49.4148" lon="0.18176">
        <ele>-6.5</ele>
        <time>2018-12-13T08:52:23.000Z</time>
      </trkpt>
      <trkpt lat="49.41477" lon="0.18162">
        <ele>-6.5</ele>
        <time>2018-12-13T08:52:31.000Z</time>
      </trkpt>
      <trkpt lat="49.41475" lon="0.18149">
        <ele>-6.1</ele>
        <time>2018-12-13T08:52:39.000Z</time>
      </trkpt>
      <trkpt lat="49.41472" lon="0.18135">
        <ele>-5.6</ele>
        <time>2018-12-13T08:52:48.000Z</time>
      </trkpt>
      <trkpt lat="49.41467" lon="0.18121">
        <ele>-5.9</ele>
        <time>2018-12-13T08:52:56.000Z</time>
      </trkpt>
      <trkpt lat="49.41463" lon="0.18107">
        <ele>-6.2</ele>
        <time>2018-12-13T08:53:04.000Z</time>
      </trkpt>
      <trkpt lat="49.41458" lon="0.18093">
        <ele>-6.1</ele>
        <time>2018-12-13T08:53:12.000Z</time>
      </trkpt>
      <trkpt lat="49.41455" lon="0.1808">
        <ele>-5.9</ele>
        <time>2018-12-13T08:53:20.000Z</time>
      </trkpt>
      <trkpt lat="49.41451" lon="0.18067">
        <ele>-5.1</ele>
        <time>2018-12-13T08:53:28.000Z</time>
      </trkpt>
      <trkpt lat="49.41447" lon="0.18054">
        <ele>-4.6</ele>
        <time>2018-12-13T08:53:37.000Z</time>
      </trkpt>
      <trkpt lat="49.41444" lon="0.18041">
        <ele>-4.8</ele>
        <time>2018-12-13T08:53:45.000Z</time>
      </trkpt>
      <trkpt lat="49.41439" lon="0.18027">
        <ele>-5.1</ele>
        <time>2018-12-13T08:53:53.000Z</time>
      </trkpt>
      <trkpt lat="49.41435" lon="0.18014">
        <ele>-5.2</ele>
        <time>2018-12-13T08:54:01.000Z</time>
      </trkpt>
      <trkpt lat="49.41431" lon="0.18">
        <ele>-5</ele>
        <time>2018-12-13T08:54:09.000Z</time>
      </trkpt>
      <trkpt lat="49.41426" lon="0.17988">
        <ele>-5</ele>
        <time>2018-12-13T08:54:17.000Z</time>
      </trkpt>
      <trkpt lat="49.41421" lon="0.17974">
        <ele>-5.1</ele>
        <time>2018-12-13T08:54:25.000Z</time>
      </trkpt>
      <trkpt lat="49.41416" lon="0.17962">
        <ele>-5.5</ele>
        <time>2018-12-13T08:54:33.000Z</time>
      </trkpt>
      <trkpt lat="49.41411" lon="0.1795">
        <ele>-5.6</ele>
        <time>2018-12-13T08:54:41.000Z</time>
      </trkpt>
      <trkpt lat="49.41406" lon="0.17937">
        <ele>-5.5</ele>
        <time>2018-12-13T08:54:49.000Z</time>
      </trkpt>
      <trkpt lat="49.41401" lon="0.17924">
        <ele>-5.5</ele>
        <time>2018-12-13T08:54:57.000Z</time>
      </trkpt>
      <trkpt lat="49.41396" lon="0.17912">
        <ele>-4.8</ele>
        <time>2018-12-13T08:55:05.000Z</time>
      </trkpt>
      <trkpt lat="49.4139" lon="0.17899">
        <ele>-5</ele>
        <time>2018-12-13T08:55:14.000Z</time>
      </trkpt>
      <trkpt lat="49.41385" lon="0.17888">
        <ele>-5.3</ele>
        <time>2018-12-13T08:55:21.000Z</time>
      </trkpt>
      <trkpt lat="49.4138" lon="0.17876">
        <ele>-5.4</ele>
        <time>2018-12-13T08:55:29.000Z</time>
      </trkpt>
      <trkpt lat="49.41376" lon="0.17864">
        <ele>-5.6</ele>
        <time>2018-12-13T08:55:37.000Z</time>
      </trkpt>
      <trkpt lat="49.41371" lon="0.1785">
        <ele>-5.8</ele>
        <time>2018-12-13T08:55:45.000Z</time>
      </trkpt>
      <trkpt lat="49.41367" lon="0.17837">
        <ele>-5.9</ele>
        <time>2018-12-13T08:55:53.000Z</time>
      </trkpt>
      <trkpt lat="49.41363" lon="0.17823">
        <ele>-5.8</ele>
        <time>2018-12-13T08:56:01.000Z</time>
      </trkpt>
      <trkpt lat="49.41359" lon="0.1781">
        <ele>-6.1</ele>
        <time>2018-12-13T08:56:09.000Z</time>
      </trkpt>
      <trkpt lat="49.41355" lon="0.17796">
        <ele>-6.2</ele>
        <time>2018-12-13T08:56:18.000Z</time>
      </trkpt>
      <trkpt lat="49.41351" lon="0.17782">
        <ele>-6.2</ele>
        <time>2018-12-13T08:56:26.000Z</time>
      </trkpt>
      <trkpt lat="49.41347" lon="0.17768">
        <ele>-6.2</ele>
        <time>2018-12-13T08:56:34.000Z</time>
      </trkpt>
      <trkpt lat="49.41342" lon="0.17755">
        <ele>-6.4</ele>
        <time>2018-12-13T08:56:43.000Z</time>
      </trkpt>
      <trkpt lat="49.41338" lon="0.1774">
        <ele>-6.6</ele>
        <time>2018-12-13T08:56:51.000Z</time>
      </trkpt>
      <trkpt lat="49.41334" lon="0.17728">
        <ele>-6.1</ele>
        <time>2018-12-13T08:56:58.000Z</time>
      </trkpt>
      <trkpt lat="49.41329" lon="0.17716">
        <ele>-5.8</ele>
        <time>2018-12-13T08:57:05.000Z</time>
      </trkpt>
      <trkpt lat="49.41325" lon="0.17704">
        <ele>-5.1</ele>
        <time>2018-12-13T08:57:13.000Z</time>
      </trkpt>
      <trkpt lat="49.41321" lon="0.1769">
        <ele>-4.7</ele>
        <time>2018-12-13T08:57:21.000Z</time>
      </trkpt>
      <trkpt lat="49.41317" lon="0.17676">
        <ele>-4.6</ele>
        <time>2018-12-13T08:57:29.000Z</time>
      </trkpt>
      <trkpt lat="49.41312" lon="0.17664">
        <ele>-4.8</ele>
        <time>2018-12-13T08:57:37.000Z</time>
      </trkpt>
      <trkpt lat="49.41307" lon="0.17652">
        <ele>-4.9</ele>
        <time>2018-12-13T08:57:44.000Z</time>
      </trkpt>
      <trkpt lat="49.41302" lon="0.17639">
        <ele>-4.5</ele>
        <time>2018-12-13T08:57:52.000Z</time>
      </trkpt>
      <trkpt lat="49.41297" lon="0.17627">
        <ele>-4.3</ele>
        <time>2018-12-13T08:57:59.000Z</time>
      </trkpt>
      <trkpt lat="49.41293" lon="0.17614">
        <ele>-3.9</ele>
        <time>2018-12-13T08:58:07.000Z</time>
      </trkpt>
      <trkpt lat="49.41289" lon="0.17601">
        <ele>-3.7</ele>
        <time>2018-12-13T08:58:15.000Z</time>
      </trkpt>
      <trkpt lat="49.41285" lon="0.17587">
        <ele>-4.1</ele>
        <time>2018-12-13T08:58:23.000Z</time>
      </trkpt>
      <trkpt lat="49.4128" lon="0.17576">
        <ele>-4.4</ele>
        <time>2018-12-13T08:58:30.000Z</time>
      </trkpt>
      <trkpt lat="49.41275" lon="0.17564">
        <ele>-4.6</ele>
        <time>2018-12-13T08:58:38.000Z</time>
      </trkpt>
      <trkpt lat="49.41271" lon="0.1755">
        <ele>-5</ele>
        <time>2018-12-13T08:58:46.000Z</time>
      </trkpt>
      <trkpt lat="49.41267" lon="0.17537">
        <ele>-5.4</ele>
        <time>2018-12-13T08:58:54.000Z</time>
      </trkpt>
      <trkpt lat="49.41264" lon="0.17522">
        <ele>-5.8</ele>
        <time>2018-12-13T08:59:03.000Z</time>
      </trkpt>
      <trkpt lat="49.4126" lon="0.17508">
        <ele>-5.7</ele>
        <time>2018-12-13T08:59:11.000Z</time>
      </trkpt>
      <trkpt lat="49.41256" lon="0.17494">
        <ele>-5.6</ele>
        <time>2018-12-13T08:59:19.000Z</time>
      </trkpt>
      <trkpt lat="49.41253" lon="0.17479">
        <ele>-5.7</ele>
        <time>2018-12-13T08:59:27.000Z</time>
      </trkpt>
      <trkpt lat="49.41251" lon="0.17465">
        <ele>-5.7</ele>
        <time>2018-12-13T08:59:35.000Z</time>
      </trkpt>
      <trkpt lat="49.41247" lon="0.1745">
        <ele>-5.7</ele>
        <time>2018-12-13T08:59:42.000Z</time>
      </trkpt>
      <trkpt lat="49.41244" lon="0.17437">
        <ele>-5.3</ele>
        <time>2018-12-13T08:59:50.000Z</time>
      </trkpt>
      <trkpt lat="49.41241" lon="0.17423">
        <ele>-5.3</ele>
        <time>2018-12-13T08:59:58.000Z</time>
      </trkpt>
      <trkpt lat="49.41237" lon="0.1741">
        <ele>-4.9</ele>
        <time>2018-12-13T09:00:05.000Z</time>
      </trkpt>
      <trkpt lat="49.41234" lon="0.17396">
        <ele>-4.8</ele>
        <time>2018-12-13T09:00:13.000Z</time>
      </trkpt>
      <trkpt lat="49.4123" lon="0.17383">
        <ele>-4.5</ele>
        <time>2018-12-13T09:00:21.000Z</time>
      </trkpt>
      <trkpt lat="49.41226" lon="0.1737">
        <ele>-4.6</ele>
        <time>2018-12-13T09:00:29.000Z</time>
      </trkpt>
      <trkpt lat="49.41221" lon="0.17357">
        <ele>-4.3</ele>
        <time>2018-12-13T09:00:37.000Z</time>
      </trkpt>
      <trkpt lat="49.41217" lon="0.17343">
        <ele>-4.3</ele>
        <time>2018-12-13T09:00:45.000Z</time>
      </trkpt>
      <trkpt lat="49.41213" lon="0.17329">
        <ele>-4.3</ele>
        <time>2018-12-13T09:00:53.000Z</time>
      </trkpt>
      <trkpt lat="49.4121" lon="0.17315">
        <ele>-4.7</ele>
        <time>2018-12-13T09:01:02.000Z</time>
      </trkpt>
      <trkpt lat="49.41207" lon="0.17301">
        <ele>-4.8</ele>
        <time>2018-12-13T09:01:10.000Z</time>
      </trkpt>
      <trkpt lat="49.41203" lon="0.17287">
        <ele>-4.9</ele>
        <time>2018-12-13T09:01:18.000Z</time>
      </trkpt>
      <trkpt lat="49.412" lon="0.17274">
        <ele>-4.7</ele>
        <time>2018-12-13T09:01:26.000Z</time>
      </trkpt>
      <trkpt lat="49.41195" lon="0.1726">
        <ele>-4.5</ele>
        <time>2018-12-13T09:01:33.000Z</time>
      </trkpt>
      <trkpt lat="49.41191" lon="0.17247">
        <ele>-4.4</ele>
        <time>2018-12-13T09:01:40.000Z</time>
      </trkpt>
      <trkpt lat="49.41188" lon="0.17232">
        <ele>-4.6</ele>
        <time>2018-12-13T09:01:50.000Z</time>
      </trkpt>
      <trkpt lat="49.41183" lon="0.17218">
        <ele>-4.8</ele>
        <time>2018-12-13T09:02:00.000Z</time>
      </trkpt>
      <trkpt lat="49.41181" lon="0.17205">
        <ele>-5</ele>
        <time>2018-12-13T09:02:08.000Z</time>
      </trkpt>
      <trkpt lat="49.41179" lon="0.17189">
        <ele>-5.2</ele>
        <time>2018-12-13T09:02:17.000Z</time>
      </trkpt>
      <trkpt lat="49.41177" lon="0.17175">
        <ele>-5.4</ele>
        <time>2018-12-13T09:02:25.000Z</time>
      </trkpt>
      <trkpt lat="49.41176" lon="0.17161">
        <ele>-5.3</ele>
        <time>2018-12-13T09:02:32.000Z</time>
      </trkpt>
      <trkpt lat="49.41174" lon="0.17147">
        <ele>-5.2</ele>
        <time>2018-12-13T09:02:39.000Z</time>
      </trkpt>
      <trkpt lat="49.41172" lon="0.17133">
        <ele>-5.1</ele>
        <time>2018-12-13T09:02:46.000Z</time>
      </trkpt>
      <trkpt lat="49.4117" lon="0.17119">
        <ele>-5.1</ele>
        <time>2018-12-13T09:02:53.000Z</time>
      </trkpt>
      <trkpt lat="49.41167" lon="0.17104">
        <ele>-5</ele>
        <time>2018-12-13T09:03:02.000Z</time>
      </trkpt>
      <trkpt lat="49.41165" lon="0.1709">
        <ele>-5</ele>
        <time>2018-12-13T09:03:08.000Z</time>
      </trkpt>
      <trkpt lat="49.41161" lon="0.17076">
        <ele>-4.5</ele>
        <time>2018-12-13T09:03:15.000Z</time>
      </trkpt>
      <trkpt lat="49.41159" lon="0.17062">
        <ele>-4.2</ele>
        <time>2018-12-13T09:03:22.000Z</time>
      </trkpt>
      <trkpt lat="49.41156" lon="0.17049">
        <ele>-4.1</ele>
        <time>2018-12-13T09:03:30.000Z</time>
      </trkpt>
      <trkpt lat="49.41153" lon="0.17035">
        <ele>-4</ele>
        <time>2018-12-13T09:03:38.000Z</time>
      </trkpt>
      <trkpt lat="49.4115" lon="0.1702">
        <ele>-3.9</ele>
        <time>2018-12-13T09:03:46.000Z</time>
      </trkpt>
      <trkpt lat="49.41148" lon="0.17005">
        <ele>-3.8</ele>
        <time>2018-12-13T09:03:54.000Z</time>
      </trkpt>
      <trkpt lat="49.41145" lon="0.16991">
        <ele>-3.8</ele>
        <time>2018-12-13T09:04:02.000Z</time>
      </trkpt>
      <trkpt lat="49.41143" lon="0.16978">
        <ele>-4</ele>
        <time>2018-12-13T09:04:10.000Z</time>
      </trkpt>
      <trkpt lat="49.41143" lon="0.16963">
        <ele>-3.9</ele>
        <time>2018-12-13T09:04:18.000Z</time>
      </trkpt>
      <trkpt lat="49.4114" lon="0.16948">
        <ele>-4</ele>
        <time>2018-12-13T09:04:27.000Z</time>
      </trkpt>
      <trkpt lat="49.41139" lon="0.16933">
        <ele>-4</ele>
        <time>2018-12-13T09:04:35.000Z</time>
      </trkpt>
      <trkpt lat="49.41147" lon="0.16927">
        <ele>-3.9</ele>
        <time>2018-12-13T09:04:44.000Z</time>
      </trkpt>
      <trkpt lat="49.41154" lon="0.16917">
        <ele>-3.7</ele>
        <time>2018-12-13T09:04:55.000Z</time>
      </trkpt>
      <trkpt lat="49.41151" lon="0.16903">
        <ele>-3.1</ele>
        <time>2018-12-13T09:05:05.000Z</time>
      </trkpt>
      <trkpt lat="49.41148" lon="0.1689">
        <ele>-2.9</ele>
        <time>2018-12-13T09:05:15.000Z</time>
      </trkpt>
      <trkpt lat="49.41146" lon="0.16876">
        <ele>-3.3</ele>
        <time>2018-12-13T09:05:26.000Z</time>
      </trkpt>
      <trkpt lat="49.41148" lon="0.16861">
        <ele>-3.7</ele>
        <time>2018-12-13T09:05:35.000Z</time>
      </trkpt>
      <trkpt lat="49.41146" lon="0.16846">
        <ele>-4.1</ele>
        <time>2018-12-13T09:05:44.000Z</time>
      </trkpt>
      <trkpt lat="49.41146" lon="0.16832">
        <ele>-4.2</ele>
        <time>2018-12-13T09:05:54.000Z</time>
      </trkpt>
      <trkpt lat="49.41145" lon="0.16817">
        <ele>-4.5</ele>
        <time>2018-12-13T09:06:03.000Z</time>
      </trkpt>
      <trkpt lat="49.41142" lon="0.16802">
        <ele>-4.9</ele>
        <time>2018-12-13T09:06:12.000Z</time>
      </trkpt>
      <trkpt lat="49.41139" lon="0.16789">
        <ele>-5</ele>
        <time>2018-12-13T09:06:20.000Z</time>
      </trkpt>
      <trkpt lat="49.41137" lon="0.16774">
        <ele>-5.1</ele>
        <time>2018-12-13T09:06:29.000Z</time>
      </trkpt>
      <trkpt lat="49.41134" lon="0.1676">
        <ele>-4.7</ele>
        <time>2018-12-13T09:06:36.000Z</time>
      </trkpt>
      <trkpt lat="49.41133" lon="0.16746">
        <ele>-4.4</ele>
        <time>2018-12-13T09:06:45.000Z</time>
      </trkpt>
      <trkpt lat="49.41131" lon="0.16732">
        <ele>-4.3</ele>
        <time>2018-12-13T09:06:52.000Z</time>
      </trkpt>
      <trkpt lat="49.41129" lon="0.16718">
        <ele>-4.4</ele>
        <time>2018-12-13T09:07:00.000Z</time>
      </trkpt>
      <trkpt lat="49.41127" lon="0.16704">
        <ele>-4.5</ele>
        <time>2018-12-13T09:07:08.000Z</time>
      </trkpt>
      <trkpt lat="49.41125" lon="0.1669">
        <ele>-5.1</ele>
        <time>2018-12-13T09:07:20.000Z</time>
      </trkpt>
      <trkpt lat="49.41124" lon="0.16674">
        <ele>-4.8</ele>
        <time>2018-12-13T09:07:29.000Z</time>
      </trkpt>
      <trkpt lat="49.41122" lon="0.1666">
        <ele>-4.5</ele>
        <time>2018-12-13T09:07:35.000Z</time>
      </trkpt>
      <trkpt lat="49.4112" lon="0.16647">
        <ele>-4.5</ele>
        <time>2018-12-13T09:07:42.000Z</time>
      </trkpt>
      <trkpt lat="49.41118" lon="0.16632">
        <ele>-4.3</ele>
        <time>2018-12-13T09:07:49.000Z</time>
      </trkpt>
      <trkpt lat="49.41116" lon="0.16618">
        <ele>-4.1</ele>
        <time>2018-12-13T09:07:57.000Z</time>
      </trkpt>
      <trkpt lat="49.41116" lon="0.16603">
        <ele>-3.9</ele>
        <time>2018-12-13T09:08:05.000Z</time>
      </trkpt>
      <trkpt lat="49.41114" lon="0.16588">
        <ele>-3.8</ele>
        <time>2018-12-13T09:08:13.000Z</time>
      </trkpt>
      <trkpt lat="49.41113" lon="0.16574">
        <ele>-4</ele>
        <time>2018-12-13T09:08:21.000Z</time>
      </trkpt>
      <trkpt lat="49.41112" lon="0.16559">
        <ele>-4.3</ele>
        <time>2018-12-13T09:08:29.000Z</time>
      </trkpt>
      <trkpt lat="49.41111" lon="0.16545">
        <ele>-4.5</ele>
        <time>2018-12-13T09:08:36.000Z</time>
      </trkpt>
      <trkpt lat="49.4111" lon="0.16529">
        <ele>-4.4</ele>
        <time>2018-12-13T09:08:44.000Z</time>
      </trkpt>
      <trkpt lat="49.41107" lon="0.16515">
        <ele>-4.5</ele>
        <time>2018-12-13T09:08:51.000Z</time>
      </trkpt>
      <trkpt lat="49.41105" lon="0.165">
        <ele>-4.4</ele>
        <time>2018-12-13T09:08:59.000Z</time>
      </trkpt>
      <trkpt lat="49.41103" lon="0.16486">
        <ele>-4.5</ele>
        <time>2018-12-13T09:09:07.000Z</time>
      </trkpt>
      <trkpt lat="49.41101" lon="0.16471">
        <ele>-4.5</ele>
        <time>2018-12-13T09:09:15.000Z</time>
      </trkpt>
      <trkpt lat="49.41097" lon="0.16458">
        <ele>-4.6</ele>
        <time>2018-12-13T09:09:22.000Z</time>
      </trkpt>
      <trkpt lat="49.41095" lon="0.16443">
        <ele>-4.7</ele>
        <time>2018-12-13T09:09:30.000Z</time>
      </trkpt>
      <trkpt lat="49.41093" lon="0.16428">
        <ele>-4.6</ele>
        <time>2018-12-13T09:09:38.000Z</time>
      </trkpt>
      <trkpt lat="49.4109" lon="0.16414">
        <ele>-4.4</ele>
        <time>2018-12-13T09:09:46.000Z</time>
      </trkpt>
      <trkpt lat="49.41088" lon="0.16399">
        <ele>-4.3</ele>
        <time>2018-12-13T09:09:55.000Z</time>
      </trkpt>
      <trkpt lat="49.41085" lon="0.16385">
        <ele>-4.4</ele>
        <time>2018-12-13T09:10:03.000Z</time>
      </trkpt>
      <trkpt lat="49.41083" lon="0.16372">
        <ele>-4.5</ele>
        <time>2018-12-13T09:10:11.000Z</time>
      </trkpt>
      <trkpt lat="49.41081" lon="0.16357">
        <ele>-3.7</ele>
        <time>2018-12-13T09:10:20.000Z</time>
      </trkpt>
      <trkpt lat="49.4108" lon="0.16342">
        <ele>-3.5</ele>
        <time>2018-12-13T09:10:28.000Z</time>
      </trkpt>
      <trkpt lat="49.41081" lon="0.16328">
        <ele>-3.5</ele>
        <time>2018-12-13T09:10:37.000Z</time>
      </trkpt>
      <trkpt lat="49.41076" lon="0.16314">
        <ele>-3.8</ele>
        <time>2018-12-13T09:10:46.000Z</time>
      </trkpt>
      <trkpt lat="49.41069" lon="0.16304">
        <ele>-3.5</ele>
        <time>2018-12-13T09:10:54.000Z</time>
      </trkpt>
      <trkpt lat="49.41064" lon="0.16293">
        <ele>-6.3</ele>
        <time>2018-12-13T09:11:04.000Z</time>
      </trkpt>
      <trkpt lat="49.41061" lon="0.16278">
        <ele>-2.4</ele>
        <time>2018-12-13T09:11:15.000Z</time>
      </trkpt>
      <trkpt lat="49.41057" lon="0.16265">
        <ele>-5</ele>
        <time>2018-12-13T09:11:26.000Z</time>
      </trkpt>
      <trkpt lat="49.41052" lon="0.16252">
        <ele>-3.7</ele>
        <time>2018-12-13T09:11:39.000Z</time>
      </trkpt>
      <trkpt lat="49.41049" lon="0.16238">
        <ele>-2.6</ele>
        <time>2018-12-13T09:11:51.000Z</time>
      </trkpt>
      <trkpt lat="49.41051" lon="0.16225">
        <ele>-1.7</ele>
        <time>2018-12-13T09:11:59.000Z</time>
      </trkpt>
      <trkpt lat="49.41053" lon="0.16211">
        <ele>-0.9</ele>
        <time>2018-12-13T09:12:08.000Z</time>
      </trkpt>
      <trkpt lat="49.41055" lon="0.16198">
        <ele>-1.5</ele>
        <time>2018-12-13T09:12:17.000Z</time>
      </trkpt>
      <trkpt lat="49.41058" lon="0.16184">
        <ele>-2.1</ele>
        <time>2018-12-13T09:12:26.000Z</time>
      </trkpt>
      <trkpt lat="49.41058" lon="0.16169">
        <ele>-2.4</ele>
        <time>2018-12-13T09:12:36.000Z</time>
      </trkpt>
      <trkpt lat="49.41055" lon="0.16156">
        <ele>-3.4</ele>
        <time>2018-12-13T09:12:46.000Z</time>
      </trkpt>
      <trkpt lat="49.41049" lon="0.16144">
        <ele>-3.9</ele>
        <time>2018-12-13T09:12:54.000Z</time>
      </trkpt>
      <trkpt lat="49.41044" lon="0.16133">
        <ele>-4</ele>
        <time>2018-12-13T09:13:02.000Z</time>
      </trkpt>
      <trkpt lat="49.41039" lon="0.1612">
        <ele>-4.2</ele>
        <time>2018-12-13T09:13:11.000Z</time>
      </trkpt>
      <trkpt lat="49.41039" lon="0.16106">
        <ele>-4.4</ele>
        <time>2018-12-13T09:13:22.000Z</time>
      </trkpt>
      <trkpt lat="49.4104" lon="0.16091">
        <ele>-4.6</ele>
        <time>2018-12-13T09:13:33.000Z</time>
      </trkpt>
      <trkpt lat="49.41041" lon="0.16076">
        <ele>-4.6</ele>
        <time>2018-12-13T09:13:42.000Z</time>
      </trkpt>
      <trkpt lat="49.4104" lon="0.1606">
        <ele>-4.5</ele>
        <time>2018-12-13T09:13:50.000Z</time>
      </trkpt>
      <trkpt lat="49.41039" lon="0.16046">
        <ele>-4.8</ele>
        <time>2018-12-13T09:13:57.000Z</time>
      </trkpt>
      <trkpt lat="49.41035" lon="0.16032">
        <ele>-5.1</ele>
        <time>2018-12-13T09:14:03.000Z</time>
      </trkpt>
      <trkpt lat="49.41034" lon="0.16018">
        <ele>-5.4</ele>
        <time>2018-12-13T09:14:11.000Z</time>
      </trkpt>
      <trkpt lat="49.4103" lon="0.16004">
        <ele>-5.4</ele>
        <time>2018-12-13T09:14:19.000Z</time>
      </trkpt>
      <trkpt lat="49.41029" lon="0.1599">
        <ele>-5.7</ele>
        <time>2018-12-13T09:14:27.000Z</time>
      </trkpt>
      <trkpt lat="49.41026" lon="0.15975">
        <ele>-5.7</ele>
        <time>2018-12-13T09:14:35.000Z</time>
      </trkpt>
      <trkpt lat="49.41023" lon="0.1596">
        <ele>-5.9</ele>
        <time>2018-12-13T09:14:43.000Z</time>
      </trkpt>
      <trkpt lat="49.4102" lon="0.15946">
        <ele>-5.5</ele>
        <time>2018-12-13T09:14:50.000Z</time>
      </trkpt>
      <trkpt lat="49.41017" lon="0.15931">
        <ele>-5.1</ele>
        <time>2018-12-13T09:14:58.000Z</time>
      </trkpt>
      <trkpt lat="49.41014" lon="0.15916">
        <ele>-4.9</ele>
        <time>2018-12-13T09:15:06.000Z</time>
      </trkpt>
      <trkpt lat="49.41011" lon="0.15903">
        <ele>-5</ele>
        <time>2018-12-13T09:15:14.000Z</time>
      </trkpt>
      <trkpt lat="49.41008" lon="0.1589">
        <ele>-4.8</ele>
        <time>2018-12-13T09:15:20.000Z</time>
      </trkpt>
      <trkpt lat="49.41006" lon="0.15875">
        <ele>-4.7</ele>
        <time>2018-12-13T09:15:28.000Z</time>
      </trkpt>
      <trkpt lat="49.41004" lon="0.1586">
        <ele>-4.6</ele>
        <time>2018-12-13T09:15:36.000Z</time>
      </trkpt>
      <trkpt lat="49.41003" lon="0.15845">
        <ele>-4.9</ele>
        <time>2018-12-13T09:15:44.000Z</time>
      </trkpt>
      <trkpt lat="49.41003" lon="0.1583">
        <ele>-5</ele>
        <time>2018-12-13T09:15:52.000Z</time>
      </trkpt>
      <trkpt lat="49.41001" lon="0.15815">
        <ele>-5.1</ele>
        <time>2018-12-13T09:16:00.000Z</time>
      </trkpt>
      <trkpt lat="49.40999" lon="0.15799">
        <ele>-5.1</ele>
        <time>2018-12-13T09:16:08.000Z</time>
      </trkpt>
      <trkpt lat="49.40996" lon="0.15784">
        <ele>-5.1</ele>
        <time>2018-12-13T09:16:16.000Z</time>
      </trkpt>
      <trkpt lat="49.40993" lon="0.15769">
        <ele>-5.5</ele>
        <time>2018-12-13T09:16:23.000Z</time>
      </trkpt>
      <trkpt lat="49.4099" lon="0.15756">
        <ele>-5.7</ele>
        <time>2018-12-13T09:16:32.000Z</time>
      </trkpt>
      <trkpt lat="49.40985" lon="0.15744">
        <ele>-6</ele>
        <time>2018-12-13T09:16:48.000Z</time>
      </trkpt>
      <trkpt lat="49.40983" lon="0.1573">
        <ele>-5.9</ele>
        <time>2018-12-13T09:16:57.000Z</time>
      </trkpt>
      <trkpt lat="49.40978" lon="0.15716">
        <ele>-5.7</ele>
        <time>2018-12-13T09:17:04.000Z</time>
      </trkpt>
      <trkpt lat="49.40975" lon="0.15701">
        <ele>-5.5</ele>
        <time>2018-12-13T09:17:12.000Z</time>
      </trkpt>
      <trkpt lat="49.40971" lon="0.15688">
        <ele>-5.5</ele>
        <time>2018-12-13T09:17:19.000Z</time>
      </trkpt>
      <trkpt lat="49.40969" lon="0.15673">
        <ele>-5.1</ele>
        <time>2018-12-13T09:17:27.000Z</time>
      </trkpt>
      <trkpt lat="49.40965" lon="0.15659">
        <ele>-5</ele>
        <time>2018-12-13T09:17:34.000Z</time>
      </trkpt>
      <trkpt lat="49.4096" lon="0.15647">
        <ele>-5.1</ele>
        <time>2018-12-13T09:17:41.000Z</time>
      </trkpt>
      <trkpt lat="49.40957" lon="0.15631">
        <ele>-5.2</ele>
        <time>2018-12-13T09:17:49.000Z</time>
      </trkpt>
      <trkpt lat="49.40954" lon="0.15617">
        <ele>-5.5</ele>
        <time>2018-12-13T09:17:57.000Z</time>
      </trkpt>
      <trkpt lat="49.4095" lon="0.15604">
        <ele>-5.8</ele>
        <time>2018-12-13T09:18:05.000Z</time>
      </trkpt>
      <trkpt lat="49.40946" lon="0.15589">
        <ele>-5.9</ele>
        <time>2018-12-13T09:18:13.000Z</time>
      </trkpt>
      <trkpt lat="49.40943" lon="0.15575">
        <ele>-5.8</ele>
        <time>2018-12-13T09:18:21.000Z</time>
      </trkpt>
      <trkpt lat="49.40938" lon="0.15562">
        <ele>-5.5</ele>
        <time>2018-12-13T09:18:29.000Z</time>
      </trkpt>
      <trkpt lat="49.40933" lon="0.1555">
        <ele>-5.3</ele>
        <time>2018-12-13T09:18:37.000Z</time>
      </trkpt>
      <trkpt lat="49.40928" lon="0.15538">
        <ele>-5.4</ele>
        <time>2018-12-13T09:18:44.000Z</time>
      </trkpt>
      <trkpt lat="49.40922" lon="0.15526">
        <ele>-5.3</ele>
        <time>2018-12-13T09:18:51.000Z</time>
      </trkpt>
      <trkpt lat="49.40917" lon="0.15515">
        <ele>-5.1</ele>
        <time>2018-12-13T09:18:59.000Z</time>
      </trkpt>
      <trkpt lat="49.40911" lon="0.15503">
        <ele>-4.9</ele>
        <time>2018-12-13T09:19:07.000Z</time>
      </trkpt>
      <trkpt lat="49.40905" lon="0.15492">
        <ele>-4.7</ele>
        <time>2018-12-13T09:19:15.000Z</time>
      </trkpt>
      <trkpt lat="49.40899" lon="0.15482">
        <ele>-4.3</ele>
        <time>2018-12-13T09:19:22.000Z</time>
      </trkpt>
      <trkpt lat="49.40893" lon="0.1547">
        <ele>-4.3</ele>
        <time>2018-12-13T09:19:30.000Z</time>
      </trkpt>
      <trkpt lat="49.4089" lon="0.15456">
        <ele>-4.5</ele>
        <time>2018-12-13T09:19:38.000Z</time>
      </trkpt>
      <trkpt lat="49.40886" lon="0.15443">
        <ele>-4.6</ele>
        <time>2018-12-13T09:19:46.000Z</time>
      </trkpt>
      <trkpt lat="49.4088" lon="0.1543">
        <ele>-4.9</ele>
        <time>2018-12-13T09:19:54.000Z</time>
      </trkpt>
      <trkpt lat="49.40876" lon="0.15417">
        <ele>-4.8</ele>
        <time>2018-12-13T09:20:02.000Z</time>
      </trkpt>
      <trkpt lat="49.40871" lon="0.15406">
        <ele>-4.7</ele>
        <time>2018-12-13T09:20:09.000Z</time>
      </trkpt>
      <trkpt lat="49.40866" lon="0.15394">
        <ele>-4.9</ele>
        <time>2018-12-13T09:20:17.000Z</time>
      </trkpt>
      <trkpt lat="49.40863" lon="0.15381">
        <ele>-5.3</ele>
        <time>2018-12-13T09:20:25.000Z</time>
      </trkpt>
      <trkpt lat="49.40857" lon="0.15369">
        <ele>-5.5</ele>
        <time>2018-12-13T09:20:33.000Z</time>
      </trkpt>
      <trkpt lat="49.40853" lon="0.15357">
        <ele>-5.3</ele>
        <time>2018-12-13T09:20:41.000Z</time>
      </trkpt>
      <trkpt lat="49.40849" lon="0.15343">
        <ele>-5.6</ele>
        <time>2018-12-13T09:20:50.000Z</time>
      </trkpt>
      <trkpt lat="49.40843" lon="0.15332">
        <ele>-6</ele>
        <time>2018-12-13T09:20:58.000Z</time>
      </trkpt>
      <trkpt lat="49.40837" lon="0.15321">
        <ele>-6</ele>
        <time>2018-12-13T09:21:05.000Z</time>
      </trkpt>
      <trkpt lat="49.40831" lon="0.1531">
        <ele>-5.8</ele>
        <time>2018-12-13T09:21:14.000Z</time>
      </trkpt>
      <trkpt lat="49.40826" lon="0.15297">
        <ele>-5.2</ele>
        <time>2018-12-13T09:21:22.000Z</time>
      </trkpt>
      <trkpt lat="49.40822" lon="0.15283">
        <ele>-4.8</ele>
        <time>2018-12-13T09:21:31.000Z</time>
      </trkpt>
      <trkpt lat="49.40817" lon="0.1527">
        <ele>-4.4</ele>
        <time>2018-12-13T09:21:39.000Z</time>
      </trkpt>
      <trkpt lat="49.40813" lon="0.15257">
        <ele>-4.2</ele>
        <time>2018-12-13T09:21:47.000Z</time>
      </trkpt>
      <trkpt lat="49.40809" lon="0.15243">
        <ele>-4.1</ele>
        <time>2018-12-13T09:21:55.000Z</time>
      </trkpt>
      <trkpt lat="49.40805" lon="0.1523">
        <ele>-4.3</ele>
        <time>2018-12-13T09:22:02.000Z</time>
      </trkpt>
      <trkpt lat="49.40801" lon="0.15217">
        <ele>-4.6</ele>
        <time>2018-12-13T09:22:10.000Z</time>
      </trkpt>
      <trkpt lat="49.40798" lon="0.15203">
        <ele>-4.8</ele>
        <time>2018-12-13T09:22:18.000Z</time>
      </trkpt>
      <trkpt lat="49.408" lon="0.15189">
        <ele>-5.9</ele>
        <time>2018-12-13T09:22:26.000Z</time>
      </trkpt>
      <trkpt lat="49.40797" lon="0.15174">
        <ele>-4.5</ele>
        <time>2018-12-13T09:22:33.000Z</time>
      </trkpt>
      <trkpt lat="49.40794" lon="0.15159">
        <ele>-6.1</ele>
        <time>2018-12-13T09:22:40.000Z</time>
      </trkpt>
      <trkpt lat="49.40791" lon="0.15145">
        <ele>-6.4</ele>
        <time>2018-12-13T09:22:49.000Z</time>
      </trkpt>
      <trkpt lat="49.40787" lon="0.15132">
        <ele>-6.3</ele>
        <time>2018-12-13T09:22:58.000Z</time>
      </trkpt>
      <trkpt lat="49.40783" lon="0.1512">
        <ele>-5.7</ele>
        <time>2018-12-13T09:23:06.000Z</time>
      </trkpt>
      <trkpt lat="49.40778" lon="0.15107">
        <ele>-5.3</ele>
        <time>2018-12-13T09:23:14.000Z</time>
      </trkpt>
      <trkpt lat="49.40775" lon="0.15094">
        <ele>-5.2</ele>
        <time>2018-12-13T09:23:22.000Z</time>
      </trkpt>
      <trkpt lat="49.40771" lon="0.15081">
        <ele>-5.1</ele>
        <time>2018-12-13T09:23:30.000Z</time>
      </trkpt>
      <trkpt lat="49.40766" lon="0.15067">
        <ele>-4.6</ele>
        <time>2018-12-13T09:23:38.000Z</time>
      </trkpt>
      <trkpt lat="49.40762" lon="0.15053">
        <ele>-4.5</ele>
        <time>2018-12-13T09:23:46.000Z</time>
      </trkpt>
      <trkpt lat="49.40755" lon="0.15045">
        <ele>-4.8</ele>
        <time>2018-12-13T09:23:56.000Z</time>
      </trkpt>
      <trkpt lat="49.40751" lon="0.15032">
        <ele>-4.6</ele>
        <time>2018-12-13T09:24:04.000Z</time>
      </trkpt>
      <trkpt lat="49.40747" lon="0.15019">
        <ele>-4.6</ele>
        <time>2018-12-13T09:24:12.000Z</time>
      </trkpt>
      <trkpt lat="49.40742" lon="0.15005">
        <ele>-4.3</ele>
        <time>2018-12-13T09:24:20.000Z</time>
      </trkpt>
      <trkpt lat="49.40738" lon="0.14991">
        <ele>-3.4</ele>
        <time>2018-12-13T09:24:29.000Z</time>
      </trkpt>
      <trkpt lat="49.40733" lon="0.14978">
        <ele>-3.1</ele>
        <time>2018-12-13T09:24:39.000Z</time>
      </trkpt>
      <trkpt lat="49.40731" lon="0.14965">
        <ele>-3</ele>
        <time>2018-12-13T09:24:48.000Z</time>
      </trkpt>
      <trkpt lat="49.40725" lon="0.14952">
        <ele>-2.5</ele>
        <time>2018-12-13T09:24:57.000Z</time>
      </trkpt>
      <trkpt lat="49.40719" lon="0.14941">
        <ele>-2.7</ele>
        <time>2018-12-13T09:25:06.000Z</time>
      </trkpt>
      <trkpt lat="49.40713" lon="0.14928">
        <ele>-2.2</ele>
        <time>2018-12-13T09:25:15.000Z</time>
      </trkpt>
      <trkpt lat="49.40709" lon="0.14915">
        <ele>-2.4</ele>
        <time>2018-12-13T09:25:24.000Z</time>
      </trkpt>
      <trkpt lat="49.40705" lon="0.14901">
        <ele>-3</ele>
        <time>2018-12-13T09:25:33.000Z</time>
      </trkpt>
      <trkpt lat="49.40702" lon="0.14888">
        <ele>-3.6</ele>
        <time>2018-12-13T09:25:42.000Z</time>
      </trkpt>
      <trkpt lat="49.407" lon="0.14874">
        <ele>-4.3</ele>
        <time>2018-12-13T09:25:50.000Z</time>
      </trkpt>
      <trkpt lat="49.40696" lon="0.14861">
        <ele>-4</ele>
        <time>2018-12-13T09:26:00.000Z</time>
      </trkpt>
      <trkpt lat="49.40691" lon="0.14848">
        <ele>-3.8</ele>
        <time>2018-12-13T09:26:12.000Z</time>
      </trkpt>
      <trkpt lat="49.40689" lon="0.14834">
        <ele>-3.6</ele>
        <time>2018-12-13T09:26:23.000Z</time>
      </trkpt>
      <trkpt lat="49.40689" lon="0.1482">
        <ele>-3.9</ele>
        <time>2018-12-13T09:26:32.000Z</time>
      </trkpt>
      <trkpt lat="49.40686" lon="0.14807">
        <ele>-4.3</ele>
        <time>2018-12-13T09:26:40.000Z</time>
      </trkpt>
      <trkpt lat="49.40683" lon="0.14793">
        <ele>-4.4</ele>
        <time>2018-12-13T09:26:48.000Z</time>
      </trkpt>
      <trkpt lat="49.4068" lon="0.1478">
        <ele>-4.5</ele>
        <time>2018-12-13T09:26:55.000Z</time>
      </trkpt>
      <trkpt lat="49.40677" lon="0.14765">
        <ele>-4.5</ele>
        <time>2018-12-13T09:27:04.000Z</time>
      </trkpt>
      <trkpt lat="49.40673" lon="0.14751">
        <ele>-4.5</ele>
        <time>2018-12-13T09:27:13.000Z</time>
      </trkpt>
      <trkpt lat="49.40669" lon="0.14738">
        <ele>-4.6</ele>
        <time>2018-12-13T09:27:20.000Z</time>
      </trkpt>
      <trkpt lat="49.40666" lon="0.14725">
        <ele>-4.6</ele>
        <time>2018-12-13T09:27:27.000Z</time>
      </trkpt>
      <trkpt lat="49.40662" lon="0.14711">
        <ele>-4.1</ele>
        <time>2018-12-13T09:27:37.000Z</time>
      </trkpt>
      <trkpt lat="49.4066" lon="0.14696">
        <ele>-4.1</ele>
        <time>2018-12-13T09:27:46.000Z</time>
      </trkpt>
      <trkpt lat="49.40657" lon="0.14682">
        <ele>-3.9</ele>
        <time>2018-12-13T09:27:55.000Z</time>
      </trkpt>
      <trkpt lat="49.40657" lon="0.14668">
        <ele>-3.5</ele>
        <time>2018-12-13T09:28:04.000Z</time>
      </trkpt>
      <trkpt lat="49.40657" lon="0.14654">
        <ele>-3.7</ele>
        <time>2018-12-13T09:28:15.000Z</time>
      </trkpt>
      <trkpt lat="49.40654" lon="0.14639">
        <ele>-3.7</ele>
        <time>2018-12-13T09:28:24.000Z</time>
      </trkpt>
      <trkpt lat="49.4065" lon="0.14626">
        <ele>-3.9</ele>
        <time>2018-12-13T09:28:32.000Z</time>
      </trkpt>
      <trkpt lat="49.40646" lon="0.14613">
        <ele>-3.8</ele>
        <time>2018-12-13T09:28:40.000Z</time>
      </trkpt>
      <trkpt lat="49.40644" lon="0.14599">
        <ele>-3.6</ele>
        <time>2018-12-13T09:28:48.000Z</time>
      </trkpt>
      <trkpt lat="49.4064" lon="0.14585">
        <ele>-3.5</ele>
        <time>2018-12-13T09:28:56.000Z</time>
      </trkpt>
      <trkpt lat="49.40637" lon="0.14572">
        <ele>-3.8</ele>
        <time>2018-12-13T09:29:04.000Z</time>
      </trkpt>
      <trkpt lat="49.40634" lon="0.14558">
        <ele>-4.1</ele>
        <time>2018-12-13T09:29:11.000Z</time>
      </trkpt>
      <trkpt lat="49.40631" lon="0.14544">
        <ele>-4.6</ele>
        <time>2018-12-13T09:29:19.000Z</time>
      </trkpt>
      <trkpt lat="49.40626" lon="0.1453">
        <ele>-5</ele>
        <time>2018-12-13T09:29:27.000Z</time>
      </trkpt>
      <trkpt lat="49.40622" lon="0.14517">
        <ele>-5.2</ele>
        <time>2018-12-13T09:29:35.000Z</time>
      </trkpt>
      <trkpt lat="49.40619" lon="0.14504">
        <ele>-4.8</ele>
        <time>2018-12-13T09:29:42.000Z</time>
      </trkpt>
      <trkpt lat="49.40619" lon="0.14489">
        <ele>-4.6</ele>
        <time>2018-12-13T09:29:51.000Z</time>
      </trkpt>
      <trkpt lat="49.40615" lon="0.14475">
        <ele>-4</ele>
        <time>2018-12-13T09:29:59.000Z</time>
      </trkpt>
      <trkpt lat="49.40613" lon="0.1446">
        <ele>-3.8</ele>
        <time>2018-12-13T09:30:07.000Z</time>
      </trkpt>
      <trkpt lat="49.40611" lon="0.14446">
        <ele>-3.8</ele>
        <time>2018-12-13T09:30:15.000Z</time>
      </trkpt>
      <trkpt lat="49.40608" lon="0.14432">
        <ele>-4</ele>
        <time>2018-12-13T09:30:23.000Z</time>
      </trkpt>
      <trkpt lat="49.40607" lon="0.14418">
        <ele>-3.9</ele>
        <time>2018-12-13T09:30:31.000Z</time>
      </trkpt>
      <trkpt lat="49.40605" lon="0.14404">
        <ele>-4</ele>
        <time>2018-12-13T09:30:39.000Z</time>
      </trkpt>
      <trkpt lat="49.40602" lon="0.14389">
        <ele>-4</ele>
        <time>2018-12-13T09:30:48.000Z</time>
      </trkpt>
      <trkpt lat="49.406" lon="0.14375">
        <ele>-4.2</ele>
        <time>2018-12-13T09:30:57.000Z</time>
      </trkpt>
      <trkpt lat="49.40599" lon="0.14361">
        <ele>-4.2</ele>
        <time>2018-12-13T09:31:06.000Z</time>
      </trkpt>
      <trkpt lat="49.40596" lon="0.14347">
        <ele>-3.8</ele>
        <time>2018-12-13T09:31:15.000Z</time>
      </trkpt>
      <trkpt lat="49.40594" lon="0.14333">
        <ele>-3.7</ele>
        <time>2018-12-13T09:31:24.000Z</time>
      </trkpt>
      <trkpt lat="49.40591" lon="0.14318">
        <ele>-3.7</ele>
        <time>2018-12-13T09:31:34.000Z</time>
      </trkpt>
      <trkpt lat="49.4059" lon="0.14304">
        <ele>-3.7</ele>
        <time>2018-12-13T09:31:43.000Z</time>
      </trkpt>
      <trkpt lat="49.40587" lon="0.14289">
        <ele>-4</ele>
        <time>2018-12-13T09:31:53.000Z</time>
      </trkpt>
      <trkpt lat="49.40584" lon="0.14275">
        <ele>-3.9</ele>
        <time>2018-12-13T09:32:03.000Z</time>
      </trkpt>
      <trkpt lat="49.40582" lon="0.14261">
        <ele>-3.8</ele>
        <time>2018-12-13T09:32:12.000Z</time>
      </trkpt>
      <trkpt lat="49.4058" lon="0.14247">
        <ele>-2.7</ele>
        <time>2018-12-13T09:32:20.000Z</time>
      </trkpt>
      <trkpt lat="49.40577" lon="0.14233">
        <ele>-2.4</ele>
        <time>2018-12-13T09:32:29.000Z</time>
      </trkpt>
      <trkpt lat="49.40576" lon="0.14217">
        <ele>-2.5</ele>
        <time>2018-12-13T09:32:39.000Z</time>
      </trkpt>
      <trkpt lat="49.40576" lon="0.14203">
        <ele>-2.5</ele>
        <time>2018-12-13T09:32:50.000Z</time>
      </trkpt>
      <trkpt lat="49.40574" lon="0.14188">
        <ele>-2.1</ele>
        <time>2018-12-13T09:33:00.000Z</time>
      </trkpt>
      <trkpt lat="49.40573" lon="0.14173">
        <ele>-2.2</ele>
        <time>2018-12-13T09:33:11.000Z</time>
      </trkpt>
      <trkpt lat="49.40573" lon="0.14159">
        <ele>-2.7</ele>
        <time>2018-12-13T09:33:33.000Z</time>
      </trkpt>
      <trkpt lat="49.40569" lon="0.14146">
        <ele>-3.4</ele>
        <time>2018-12-13T09:38:20.000Z</time>
      </trkpt>
      <trkpt lat="49.4056" lon="0.14141">
        <ele>-1.5</ele>
        <time>2018-12-13T09:38:56.000Z</time>
      </trkpt>
      <trkpt lat="49.40551" lon="0.14145">
        <ele>2.8</ele>
        <time>2018-12-13T09:39:29.000Z</time>
      </trkpt>
      <trkpt lat="49.40542" lon="0.14139">
        <ele>3.2</ele>
        <time>2018-12-13T09:40:58.000Z</time>
      </trkpt>
      <trkpt lat="49.40533" lon="0.14134">
        <ele>3.5</ele>
        <time>2018-12-13T09:41:08.000Z</time>
      </trkpt>
      <trkpt lat="49.40524" lon="0.14131">
        <ele>4</ele>
        <time>2018-12-13T09:41:17.000Z</time>
      </trkpt>
      <trkpt lat="49.40514" lon="0.14128">
        <ele>4.4</ele>
        <time>2018-12-13T09:41:26.000Z</time>
      </trkpt>
      <trkpt lat="49.40505" lon="0.14125">
        <ele>5.9</ele>
        <time>2018-12-13T09:41:35.000Z</time>
      </trkpt>
      <trkpt lat="49.40496" lon="0.14119">
        <ele>7</ele>
        <time>2018-12-13T09:41:45.000Z</time>
      </trkpt>
      <trkpt lat="49.40488" lon="0.14112">
        <ele>8.2</ele>
        <time>2018-12-13T09:41:53.000Z</time>
      </trkpt>
      <trkpt lat="49.4048" lon="0.14104">
        <ele>9.5</ele>
        <time>2018-12-13T09:42:02.000Z</time>
      </trkpt>
      <trkpt lat="49.40472" lon="0.14099">
        <ele>10.7</ele>
        <time>2018-12-13T09:42:20.000Z</time>
      </trkpt>
      <trkpt lat="49.40463" lon="0.14102">
        <ele>11.3</ele>
        <time>2018-12-13T09:43:36.000Z</time>
      </trkpt>
      <trkpt lat="49.40471" lon="0.14096">
        <ele>10.7</ele>
        <time>2018-12-13T09:49:20.000Z</time>
      </trkpt>
      <trkpt lat="49.40462" lon="0.14097">
        <ele>9.4</ele>
        <time>2018-12-13T09:53:56.000Z</time>
      </trkpt>
      <trkpt lat="49.40454" lon="0.14104">
        <ele>9.8</ele>
        <time>2018-12-13T09:54:37.000Z</time>
      </trkpt>
      <trkpt lat="49.40447" lon="0.14114">
        <ele>9.8</ele>
        <time>2018-12-13T09:54:46.000Z</time>
      </trkpt>
      <trkpt lat="49.4044" lon="0.14123">
        <ele>9.9</ele>
        <time>2018-12-13T09:54:56.000Z</time>
      </trkpt>
      <trkpt lat="49.40433" lon="0.14132">
        <ele>10.6</ele>
        <time>2018-12-13T09:55:05.000Z</time>
      </trkpt>
      <trkpt lat="49.40428" lon="0.14145">
        <ele>11.7</ele>
        <time>2018-12-13T09:55:15.000Z</time>
      </trkpt>
      <trkpt lat="49.40423" lon="0.14158">
        <ele>12.7</ele>
        <time>2018-12-13T09:55:26.000Z</time>
      </trkpt>
      <trkpt lat="49.40417" lon="0.14169">
        <ele>13.1</ele>
        <time>2018-12-13T09:55:35.000Z</time>
      </trkpt>
      <trkpt lat="49.40413" lon="0.14181">
        <ele>14.3</ele>
        <time>2018-12-13T09:55:42.000Z</time>
      </trkpt>
      <trkpt lat="49.40408" lon="0.14195">
        <ele>15</ele>
        <time>2018-12-13T09:55:51.000Z</time>
      </trkpt>
      <trkpt lat="49.40403" lon="0.14209">
        <ele>15.8</ele>
        <time>2018-12-13T09:55:59.000Z</time>
      </trkpt>
      <trkpt lat="49.40398" lon="0.14223">
        <ele>16.6</ele>
        <time>2018-12-13T09:56:08.000Z</time>
      </trkpt>
      <trkpt lat="49.40393" lon="0.14235">
        <ele>17</ele>
        <time>2018-12-13T09:56:16.000Z</time>
      </trkpt>
      <trkpt lat="49.40387" lon="0.14246">
        <ele>17.8</ele>
        <time>2018-12-13T09:56:25.000Z</time>
      </trkpt>
      <trkpt lat="49.40381" lon="0.14258">
        <ele>18</ele>
        <time>2018-12-13T09:56:33.000Z</time>
      </trkpt>
      <trkpt lat="49.40376" lon="0.1427">
        <ele>18.1</ele>
        <time>2018-12-13T09:56:42.000Z</time>
      </trkpt>
      <trkpt lat="49.40371" lon="0.14282">
        <ele>18</ele>
        <time>2018-12-13T09:56:49.000Z</time>
      </trkpt>
      <trkpt lat="49.40365" lon="0.14294">
        <ele>18.6</ele>
        <time>2018-12-13T09:56:57.000Z</time>
      </trkpt>
      <trkpt lat="49.40361" lon="0.14307">
        <ele>19.1</ele>
        <time>2018-12-13T09:57:05.000Z</time>
      </trkpt>
      <trkpt lat="49.40357" lon="0.1432">
        <ele>19.3</ele>
        <time>2018-12-13T09:57:12.000Z</time>
      </trkpt>
      <trkpt lat="49.40351" lon="0.14331">
        <ele>19.7</ele>
        <time>2018-12-13T09:57:20.000Z</time>
      </trkpt>
      <trkpt lat="49.4035" lon="0.14345">
        <ele>19.9</ele>
        <time>2018-12-13T09:57:27.000Z</time>
      </trkpt>
      <trkpt lat="49.40346" lon="0.14359">
        <ele>20.1</ele>
        <time>2018-12-13T09:57:34.000Z</time>
      </trkpt>
      <trkpt lat="49.40341" lon="0.14372">
        <ele>20.2</ele>
        <time>2018-12-13T09:57:43.000Z</time>
      </trkpt>
      <trkpt lat="49.40336" lon="0.14384">
        <ele>20.5</ele>
        <time>2018-12-13T09:57:51.000Z</time>
      </trkpt>
      <trkpt lat="49.4033" lon="0.14396">
        <ele>20.4</ele>
        <time>2018-12-13T09:57:58.000Z</time>
      </trkpt>
      <trkpt lat="49.40326" lon="0.1441">
        <ele>21.2</ele>
        <time>2018-12-13T09:58:07.000Z</time>
      </trkpt>
      <trkpt lat="49.40323" lon="0.14424">
        <ele>21.7</ele>
        <time>2018-12-13T09:58:15.000Z</time>
      </trkpt>
      <trkpt lat="49.40316" lon="0.14435">
        <ele>22.1</ele>
        <time>2018-12-13T09:58:22.000Z</time>
      </trkpt>
      <trkpt lat="49.4031" lon="0.14444">
        <ele>22.7</ele>
        <time>2018-12-13T09:58:30.000Z</time>
      </trkpt>
      <trkpt lat="49.40303" lon="0.14457">
        <ele>22</ele>
        <time>2018-12-13T09:58:38.000Z</time>
      </trkpt>
      <trkpt lat="49.40295" lon="0.1447">
        <ele>23.7</ele>
        <time>2018-12-13T09:58:48.000Z</time>
      </trkpt>
      <trkpt lat="49.4029" lon="0.14482">
        <ele>24.1</ele>
        <time>2018-12-13T09:58:56.000Z</time>
      </trkpt>
      <trkpt lat="49.40285" lon="0.14495">
        <ele>24.1</ele>
        <time>2018-12-13T09:59:04.000Z</time>
      </trkpt>
      <trkpt lat="49.4028" lon="0.14506">
        <ele>24.3</ele>
        <time>2018-12-13T09:59:11.000Z</time>
      </trkpt>
      <trkpt lat="49.40274" lon="0.14518">
        <ele>24.2</ele>
        <time>2018-12-13T09:59:19.000Z</time>
      </trkpt>
      <trkpt lat="49.40266" lon="0.14524">
        <ele>24.4</ele>
        <time>2018-12-13T09:59:26.000Z</time>
      </trkpt>
      <trkpt lat="49.40256" lon="0.14528">
        <ele>24.4</ele>
        <time>2018-12-13T09:59:34.000Z</time>
      </trkpt>
      <trkpt lat="49.40247" lon="0.14529">
        <ele>24.5</ele>
        <time>2018-12-13T09:59:43.000Z</time>
      </trkpt>
      <trkpt lat="49.40237" lon="0.14528">
        <ele>24.9</ele>
        <time>2018-12-13T09:59:51.000Z</time>
      </trkpt>
      <trkpt lat="49.40228" lon="0.14523">
        <ele>25.7</ele>
        <time>2018-12-13T10:00:00.000Z</time>
      </trkpt>
      <trkpt lat="49.40218" lon="0.14523">
        <ele>26.4</ele>
        <time>2018-12-13T10:00:07.000Z</time>
      </trkpt>
      <trkpt lat="49.40209" lon="0.14521">
        <ele>27.2</ele>
        <time>2018-12-13T10:00:14.000Z</time>
      </trkpt>
      <trkpt lat="49.40199" lon="0.14522">
        <ele>28</ele>
        <time>2018-12-13T10:00:21.000Z</time>
      </trkpt>
      <trkpt lat="49.40189" lon="0.14521">
        <ele>28.8</ele>
        <time>2018-12-13T10:00:28.000Z</time>
      </trkpt>
      <trkpt lat="49.4018" lon="0.14518">
        <ele>28.8</ele>
        <time>2018-12-13T10:00:35.000Z</time>
      </trkpt>
      <trkpt lat="49.40172" lon="0.14512">
        <ele>29.5</ele>
        <time>2018-12-13T10:00:43.000Z</time>
      </trkpt>
      <trkpt lat="49.40163" lon="0.14504">
        <ele>30.1</ele>
        <time>2018-12-13T10:00:51.000Z</time>
      </trkpt>
      <trkpt lat="49.40156" lon="0.14495">
        <ele>30.1</ele>
        <time>2018-12-13T10:00:58.000Z</time>
      </trkpt>
      <trkpt lat="49.40148" lon="0.14489">
        <ele>30.2</ele>
        <time>2018-12-13T10:01:07.000Z</time>
      </trkpt>
      <trkpt lat="49.40139" lon="0.14483">
        <ele>30.4</ele>
        <time>2018-12-13T10:01:14.000Z</time>
      </trkpt>
      <trkpt lat="49.4013" lon="0.14476">
        <ele>31.1</ele>
        <time>2018-12-13T10:01:22.000Z</time>
      </trkpt>
      <trkpt lat="49.40121" lon="0.14472">
        <ele>31.5</ele>
        <time>2018-12-13T10:01:28.000Z</time>
      </trkpt>
      <trkpt lat="49.40112" lon="0.14469">
        <ele>32.2</ele>
        <time>2018-12-13T10:01:36.000Z</time>
      </trkpt>
      <trkpt lat="49.40104" lon="0.14466">
        <ele>32.9</ele>
        <time>2018-12-13T10:01:44.000Z</time>
      </trkpt>
      <trkpt lat="49.40095" lon="0.14465">
        <ele>33.5</ele>
        <time>2018-12-13T10:01:53.000Z</time>
      </trkpt>
      <trkpt lat="49.40084" lon="0.14468">
        <ele>34</ele>
        <time>2018-12-13T10:01:59.000Z</time>
      </trkpt>
      <trkpt lat="49.40074" lon="0.14469">
        <ele>34.7</ele>
        <time>2018-12-13T10:02:06.000Z</time>
      </trkpt>
      <trkpt lat="49.40065" lon="0.14473">
        <ele>35.5</ele>
        <time>2018-12-13T10:02:15.000Z</time>
      </trkpt>
      <trkpt lat="49.40054" lon="0.14474">
        <ele>36.1</ele>
        <time>2018-12-13T10:02:23.000Z</time>
      </trkpt>
      <trkpt lat="49.40045" lon="0.14476">
        <ele>36.4</ele>
        <time>2018-12-13T10:02:31.000Z</time>
      </trkpt>
      <trkpt lat="49.40036" lon="0.14472">
        <ele>36.9</ele>
        <time>2018-12-13T10:02:39.000Z</time>
      </trkpt>
      <trkpt lat="49.40033" lon="0.14459">
        <ele>38</ele>
        <time>2018-12-13T10:02:50.000Z</time>
      </trkpt>
      <trkpt lat="49.40036" lon="0.14445">
        <ele>38.3</ele>
        <time>2018-12-13T10:02:59.000Z</time>
      </trkpt>
      <trkpt lat="49.40035" lon="0.14431">
        <ele>39.1</ele>
        <time>2018-12-13T10:03:07.000Z</time>
      </trkpt>
      <trkpt lat="49.40037" lon="0.14417">
        <ele>39.8</ele>
        <time>2018-12-13T10:03:15.000Z</time>
      </trkpt>
      <trkpt lat="49.4004" lon="0.14404">
        <ele>40.7</ele>
        <time>2018-12-13T10:03:23.000Z</time>
      </trkpt>
      <trkpt lat="49.40044" lon="0.14391">
        <ele>40.8</ele>
        <time>2018-12-13T10:03:31.000Z</time>
      </trkpt>
      <trkpt lat="49.40048" lon="0.14377">
        <ele>41.3</ele>
        <time>2018-12-13T10:03:39.000Z</time>
      </trkpt>
      <trkpt lat="49.40052" lon="0.14363">
        <ele>41.9</ele>
        <time>2018-12-13T10:03:47.000Z</time>
      </trkpt>
      <trkpt lat="49.40055" lon="0.1435">
        <ele>42.4</ele>
        <time>2018-12-13T10:03:54.000Z</time>
      </trkpt>
      <trkpt lat="49.40057" lon="0.14336">
        <ele>43.5</ele>
        <time>2018-12-13T10:04:02.000Z</time>
      </trkpt>
      <trkpt lat="49.40054" lon="0.14322">
        <ele>44.7</ele>
        <time>2018-12-13T10:04:11.000Z</time>
      </trkpt>
      <trkpt lat="49.4005" lon="0.1431">
        <ele>45.5</ele>
        <time>2018-12-13T10:04:20.000Z</time>
      </trkpt>
      <trkpt lat="49.40045" lon="0.14297">
        <ele>47.1</ele>
        <time>2018-12-13T10:04:29.000Z</time>
      </trkpt>
      <trkpt lat="49.40039" lon="0.14287">
        <ele>48.2</ele>
        <time>2018-12-13T10:04:37.000Z</time>
      </trkpt>
      <trkpt lat="49.40034" lon="0.14274">
        <ele>49.6</ele>
        <time>2018-12-13T10:04:46.000Z</time>
      </trkpt>
      <trkpt lat="49.40029" lon="0.14262">
        <ele>50.7</ele>
        <time>2018-12-13T10:04:55.000Z</time>
      </trkpt>
      <trkpt lat="49.40023" lon="0.14251">
        <ele>51.8</ele>
        <time>2018-12-13T10:05:03.000Z</time>
      </trkpt>
      <trkpt lat="49.40017" lon="0.14239">
        <ele>52.9</ele>
        <time>2018-12-13T10:05:12.000Z</time>
      </trkpt>
      <trkpt lat="49.40012" lon="0.14227">
        <ele>54.8</ele>
        <time>2018-12-13T10:05:20.000Z</time>
      </trkpt>
      <trkpt lat="49.40009" lon="0.14214">
        <ele>56.1</ele>
        <time>2018-12-13T10:05:29.000Z</time>
      </trkpt>
      <trkpt lat="49.40005" lon="0.142">
        <ele>57.8</ele>
        <time>2018-12-13T10:05:40.000Z</time>
      </trkpt>
      <trkpt lat="49.40003" lon="0.14186">
        <ele>59.4</ele>
        <time>2018-12-13T10:05:50.000Z</time>
      </trkpt>
      <trkpt lat="49.39998" lon="0.14173">
        <ele>60.7</ele>
        <time>2018-12-13T10:06:01.000Z</time>
      </trkpt>
      <trkpt lat="49.39996" lon="0.14158">
        <ele>61.6</ele>
        <time>2018-12-13T10:06:11.000Z</time>
      </trkpt>
      <trkpt lat="49.39995" lon="0.14144">
        <ele>62.8</ele>
        <time>2018-12-13T10:06:20.000Z</time>
      </trkpt>
      <trkpt lat="49.39993" lon="0.14129">
        <ele>63.2</ele>
        <time>2018-12-13T10:06:27.000Z</time>
      </trkpt>
      <trkpt lat="49.39993" lon="0.14115">
        <ele>64.4</ele>
        <time>2018-12-13T10:06:37.000Z</time>
      </trkpt>
      <trkpt lat="49.3999" lon="0.141">
        <ele>65.2</ele>
        <time>2018-12-13T10:06:44.000Z</time>
      </trkpt>
      <trkpt lat="49.39987" lon="0.14086">
        <ele>66.3</ele>
        <time>2018-12-13T10:06:52.000Z</time>
      </trkpt>
      <trkpt lat="49.39982" lon="0.14074">
        <ele>67.2</ele>
        <time>2018-12-13T10:07:03.000Z</time>
      </trkpt>
      <trkpt lat="49.39974" lon="0.14064">
        <ele>69</ele>
        <time>2018-12-13T10:07:12.000Z</time>
      </trkpt>
      <trkpt lat="49.39965" lon="0.14058">
        <ele>70.6</ele>
        <time>2018-12-13T10:07:21.000Z</time>
      </trkpt>
      <trkpt lat="49.39956" lon="0.14061">
        <ele>72.3</ele>
        <time>2018-12-13T10:07:33.000Z</time>
      </trkpt>
      <trkpt lat="49.39947" lon="0.14065">
        <ele>74.4</ele>
        <time>2018-12-13T10:07:41.000Z</time>
      </trkpt>
      <trkpt lat="49.39937" lon="0.14065">
        <ele>76.6</ele>
        <time>2018-12-13T10:07:53.000Z</time>
      </trkpt>
      <trkpt lat="49.39927" lon="0.14065">
        <ele>78.1</ele>
        <time>2018-12-13T10:08:01.000Z</time>
      </trkpt>
      <trkpt lat="49.39918" lon="0.14063">
        <ele>78.9</ele>
        <time>2018-12-13T10:08:10.000Z</time>
      </trkpt>
      <trkpt lat="49.39909" lon="0.14062">
        <ele>80.9</ele>
        <time>2018-12-13T10:08:18.000Z</time>
      </trkpt>
      <trkpt lat="49.39899" lon="0.14062">
        <ele>81.7</ele>
        <time>2018-12-13T10:08:28.000Z</time>
      </trkpt>
      <trkpt lat="49.39889" lon="0.14065">
        <ele>83.7</ele>
        <time>2018-12-13T10:08:39.000Z</time>
      </trkpt>
      <trkpt lat="49.39879" lon="0.14068">
        <ele>85.9</ele>
        <time>2018-12-13T10:08:48.000Z</time>
      </trkpt>
      <trkpt lat="49.39871" lon="0.14072">
        <ele>87.2</ele>
        <time>2018-12-13T10:08:57.000Z</time>
      </trkpt>
      <trkpt lat="49.39862" lon="0.14074">
        <ele>87.9</ele>
        <time>2018-12-13T10:09:04.000Z</time>
      </trkpt>
      <trkpt lat="49.39852" lon="0.14077">
        <ele>88.1</ele>
        <time>2018-12-13T10:09:13.000Z</time>
      </trkpt>
      <trkpt lat="49.39843" lon="0.14074">
        <ele>88.7</ele>
        <time>2018-12-13T10:09:21.000Z</time>
      </trkpt>
      <trkpt lat="49.39834" lon="0.14073">
        <ele>89.5</ele>
        <time>2018-12-13T10:09:28.000Z</time>
      </trkpt>
      <trkpt lat="49.39824" lon="0.1407">
        <ele>89.9</ele>
        <time>2018-12-13T10:09:38.000Z</time>
      </trkpt>
      <trkpt lat="49.39816" lon="0.14065">
        <ele>91.2</ele>
        <time>2018-12-13T10:09:47.000Z</time>
      </trkpt>
      <trkpt lat="49.39806" lon="0.14061">
        <ele>92.4</ele>
        <time>2018-12-13T10:09:56.000Z</time>
      </trkpt>
      <trkpt lat="49.39798" lon="0.14054">
        <ele>93.4</ele>
        <time>2018-12-13T10:10:03.000Z</time>
      </trkpt>
      <trkpt lat="49.39788" lon="0.14049">
        <ele>94</ele>
        <time>2018-12-13T10:10:10.000Z</time>
      </trkpt>
      <trkpt lat="49.3978" lon="0.14044">
        <ele>94.6</ele>
        <time>2018-12-13T10:10:17.000Z</time>
      </trkpt>
      <trkpt lat="49.39771" lon="0.14038">
        <ele>95.2</ele>
        <time>2018-12-13T10:10:24.000Z</time>
      </trkpt>
      <trkpt lat="49.39763" lon="0.1403">
        <ele>95.7</ele>
        <time>2018-12-13T10:10:32.000Z</time>
      </trkpt>
      <trkpt lat="49.39754" lon="0.14025">
        <ele>96.2</ele>
        <time>2018-12-13T10:10:41.000Z</time>
      </trkpt>
      <trkpt lat="49.39744" lon="0.14019">
        <ele>97.2</ele>
        <time>2018-12-13T10:10:50.000Z</time>
      </trkpt>
      <trkpt lat="49.39735" lon="0.14014">
        <ele>97.6</ele>
        <time>2018-12-13T10:10:58.000Z</time>
      </trkpt>
      <trkpt lat="49.39727" lon="0.14007">
        <ele>98.1</ele>
        <time>2018-12-13T10:11:07.000Z</time>
      </trkpt>
      <trkpt lat="49.39718" lon="0.14001">
        <ele>98.5</ele>
        <time>2018-12-13T10:11:15.000Z</time>
      </trkpt>
      <trkpt lat="49.3971" lon="0.13996">
        <ele>99.3</ele>
        <time>2018-12-13T10:11:50.000Z</time>
      </trkpt>
      <trkpt lat="49.39701" lon="0.13995">
        <ele>99.2</ele>
        <time>2018-12-13T10:13:20.000Z</time>
      </trkpt>
      <trkpt lat="49.39692" lon="0.13992">
        <ele>99.3</ele>
        <time>2018-12-13T10:13:28.000Z</time>
      </trkpt>
      <trkpt lat="49.39683" lon="0.13989">
        <ele>99.5</ele>
        <time>2018-12-13T10:13:38.000Z</time>
      </trkpt>
      <trkpt lat="49.39673" lon="0.13984">
        <ele>100.2</ele>
        <time>2018-12-13T10:13:47.000Z</time>
      </trkpt>
      <trkpt lat="49.39663" lon="0.13981">
        <ele>100.6</ele>
        <time>2018-12-13T10:13:55.000Z</time>
      </trkpt>
      <trkpt lat="49.39654" lon="0.13978">
        <ele>101</ele>
        <time>2018-12-13T10:14:03.000Z</time>
      </trkpt>
      <trkpt lat="49.39644" lon="0.13976">
        <ele>101.2</ele>
        <time>2018-12-13T10:14:12.000Z</time>
      </trkpt>
      <trkpt lat="49.39634" lon="0.13974">
        <ele>101.5</ele>
        <time>2018-12-13T10:14:20.000Z</time>
      </trkpt>
      <trkpt lat="49.39624" lon="0.1397">
        <ele>101.5</ele>
        <time>2018-12-13T10:14:28.000Z</time>
      </trkpt>
      <trkpt lat="49.39615" lon="0.13966">
        <ele>101.7</ele>
        <time>2018-12-13T10:14:35.000Z</time>
      </trkpt>
      <trkpt lat="49.39606" lon="0.13965">
        <ele>102.2</ele>
        <time>2018-12-13T10:14:42.000Z</time>
      </trkpt>
      <trkpt lat="49.39597" lon="0.13962">
        <ele>102.3</ele>
        <time>2018-12-13T10:14:50.000Z</time>
      </trkpt>
      <trkpt lat="49.39587" lon="0.1396">
        <ele>103</ele>
        <time>2018-12-13T10:14:58.000Z</time>
      </trkpt>
      <trkpt lat="49.39578" lon="0.13957">
        <ele>103.1</ele>
        <time>2018-12-13T10:15:07.000Z</time>
      </trkpt>
      <trkpt lat="49.39569" lon="0.13952">
        <ele>103.5</ele>
        <time>2018-12-13T10:15:17.000Z</time>
      </trkpt>
      <trkpt lat="49.3956" lon="0.13951">
        <ele>103.8</ele>
        <time>2018-12-13T10:15:25.000Z</time>
      </trkpt>
      <trkpt lat="49.3955" lon="0.13951">
        <ele>104</ele>
        <time>2018-12-13T10:15:33.000Z</time>
      </trkpt>
      <trkpt lat="49.39541" lon="0.1395">
        <ele>104.5</ele>
        <time>2018-12-13T10:15:40.000Z</time>
      </trkpt>
      <trkpt lat="49.39532" lon="0.13947">
        <ele>104.6</ele>
        <time>2018-12-13T10:15:48.000Z</time>
      </trkpt>
      <trkpt lat="49.39523" lon="0.13943">
        <ele>105</ele>
        <time>2018-12-13T10:15:55.000Z</time>
      </trkpt>
      <trkpt lat="49.39513" lon="0.13943">
        <ele>105.1</ele>
        <time>2018-12-13T10:16:02.000Z</time>
      </trkpt>
      <trkpt lat="49.39504" lon="0.13943">
        <ele>104.1</ele>
        <time>2018-12-13T10:16:09.000Z</time>
      </trkpt>
      <trkpt lat="49.39494" lon="0.13941">
        <ele>105.9</ele>
        <time>2018-12-13T10:16:16.000Z</time>
      </trkpt>
      <trkpt lat="49.39485" lon="0.13938">
        <ele>105</ele>
        <time>2018-12-13T10:16:23.000Z</time>
      </trkpt>
      <trkpt lat="49.39474" lon="0.13937">
        <ele>105.2</ele>
        <time>2018-12-13T10:16:34.000Z</time>
      </trkpt>
      <trkpt lat="49.39465" lon="0.13936">
        <ele>106.3</ele>
        <time>2018-12-13T10:16:41.000Z</time>
      </trkpt>
      <trkpt lat="49.39455" lon="0.13932">
        <ele>107.7</ele>
        <time>2018-12-13T10:16:52.000Z</time>
      </trkpt>
      <trkpt lat="49.39445" lon="0.1393">
        <ele>108.5</ele>
        <time>2018-12-13T10:17:00.000Z</time>
      </trkpt>
      <trkpt lat="49.39435" lon="0.13928">
        <ele>108.7</ele>
        <time>2018-12-13T10:17:07.000Z</time>
      </trkpt>
      <trkpt lat="49.39426" lon="0.13927">
        <ele>109</ele>
        <time>2018-12-13T10:17:15.000Z</time>
      </trkpt>
      <trkpt lat="49.39416" lon="0.13925">
        <ele>109.2</ele>
        <time>2018-12-13T10:17:24.000Z</time>
      </trkpt>
      <trkpt lat="49.39407" lon="0.13923">
        <ele>109.2</ele>
        <time>2018-12-13T10:17:32.000Z</time>
      </trkpt>
      <trkpt lat="49.39397" lon="0.13924">
        <ele>109.2</ele>
        <time>2018-12-13T10:17:39.000Z</time>
      </trkpt>
      <trkpt lat="49.39387" lon="0.13922">
        <ele>109</ele>
        <time>2018-12-13T10:17:46.000Z</time>
      </trkpt>
      <trkpt lat="49.39378" lon="0.13921">
        <ele>108.6</ele>
        <time>2018-12-13T10:17:54.000Z</time>
      </trkpt>
      <trkpt lat="49.39368" lon="0.13919">
        <ele>109.2</ele>
        <time>2018-12-13T10:18:02.000Z</time>
      </trkpt>
      <trkpt lat="49.39358" lon="0.1392">
        <ele>108.7</ele>
        <time>2018-12-13T10:18:11.000Z</time>
      </trkpt>
      <trkpt lat="49.39347" lon="0.1392">
        <ele>109.1</ele>
        <time>2018-12-13T10:18:18.000Z</time>
      </trkpt>
      <trkpt lat="49.39338" lon="0.1392">
        <ele>109.2</ele>
        <time>2018-12-13T10:18:24.000Z</time>
      </trkpt>
      <trkpt lat="49.39328" lon="0.13921">
        <ele>109.8</ele>
        <time>2018-12-13T10:18:31.000Z</time>
      </trkpt>
      <trkpt lat="49.39329" lon="0.13935">
        <ele>109.7</ele>
        <time>2018-12-13T10:18:48.000Z</time>
      </trkpt>
      <trkpt lat="49.39338" lon="0.13941">
        <ele>109.3</ele>
        <time>2018-12-13T10:18:59.000Z</time>
      </trkpt>
      <trkpt lat="49.39347" lon="0.13949">
        <ele>109.1</ele>
        <time>2018-12-13T10:19:08.000Z</time>
      </trkpt>
      <trkpt lat="49.39353" lon="0.1396">
        <ele>109</ele>
        <time>2018-12-13T10:19:14.000Z</time>
      </trkpt>
      <trkpt lat="49.39359" lon="0.13972">
        <ele>109.2</ele>
        <time>2018-12-13T10:19:22.000Z</time>
      </trkpt>
      <trkpt lat="49.39365" lon="0.13984">
        <ele>109.2</ele>
        <time>2018-12-13T10:19:29.000Z</time>
      </trkpt>
      <trkpt lat="49.3937" lon="0.13997">
        <ele>109.2</ele>
        <time>2018-12-13T10:19:38.000Z</time>
      </trkpt>
      <trkpt lat="49.39377" lon="0.14007">
        <ele>109.2</ele>
        <time>2018-12-13T10:19:45.000Z</time>
      </trkpt>
      <trkpt lat="49.39381" lon="0.1402">
        <ele>109.3</ele>
        <time>2018-12-13T10:19:56.000Z</time>
      </trkpt>
      <trkpt lat="49.39385" lon="0.14034">
        <ele>109.2</ele>
        <time>2018-12-13T10:20:06.000Z</time>
      </trkpt>
      <trkpt lat="49.39389" lon="0.14046">
        <ele>109.4</ele>
        <time>2018-12-13T10:20:14.000Z</time>
      </trkpt>
      <trkpt lat="49.39395" lon="0.14058">
        <ele>109.7</ele>
        <time>2018-12-13T10:20:22.000Z</time>
      </trkpt>
      <trkpt lat="49.39401" lon="0.14069">
        <ele>109.7</ele>
        <time>2018-12-13T10:20:29.000Z</time>
      </trkpt>
      <trkpt lat="49.39406" lon="0.14083">
        <ele>109.5</ele>
        <time>2018-12-13T10:20:37.000Z</time>
      </trkpt>
      <trkpt lat="49.39408" lon="0.14097">
        <ele>109.7</ele>
        <time>2018-12-13T10:20:46.000Z</time>
      </trkpt>
      <trkpt lat="49.39414" lon="0.14109">
        <ele>109.7</ele>
        <time>2018-12-13T10:20:54.000Z</time>
      </trkpt>
      <trkpt lat="49.39419" lon="0.14123">
        <ele>109.8</ele>
        <time>2018-12-13T10:21:03.000Z</time>
      </trkpt>
      <trkpt lat="49.39424" lon="0.14134">
        <ele>109.6</ele>
        <time>2018-12-13T10:21:10.000Z</time>
      </trkpt>
      <trkpt lat="49.39429" lon="0.14146">
        <ele>109.6</ele>
        <time>2018-12-13T10:21:17.000Z</time>
      </trkpt>
      <trkpt lat="49.39434" lon="0.14159">
        <ele>109.6</ele>
        <time>2018-12-13T10:21:25.000Z</time>
      </trkpt>
      <trkpt lat="49.39437" lon="0.14173">
        <ele>109.4</ele>
        <time>2018-12-13T10:21:33.000Z</time>
      </trkpt>
      <trkpt lat="49.39442" lon="0.14186">
        <ele>109.2</ele>
        <time>2018-12-13T10:21:41.000Z</time>
      </trkpt>
      <trkpt lat="49.39446" lon="0.14199">
        <ele>109.2</ele>
        <time>2018-12-13T10:21:49.000Z</time>
      </trkpt>
      <trkpt lat="49.39448" lon="0.14212">
        <ele>108.9</ele>
        <time>2018-12-13T10:21:57.000Z</time>
      </trkpt>
      <trkpt lat="49.39452" lon="0.14225">
        <ele>109</ele>
        <time>2018-12-13T10:22:06.000Z</time>
      </trkpt>
      <trkpt lat="49.39458" lon="0.14238">
        <ele>108.8</ele>
        <time>2018-12-13T10:22:15.000Z</time>
      </trkpt>
      <trkpt lat="49.39464" lon="0.14251">
        <ele>108.5</ele>
        <time>2018-12-13T10:22:23.000Z</time>
      </trkpt>
      <trkpt lat="49.39471" lon="0.14261">
        <ele>108.3</ele>
        <time>2018-12-13T10:22:30.000Z</time>
      </trkpt>
      <trkpt lat="49.39478" lon="0.14272">
        <ele>108</ele>
        <time>2018-12-13T10:22:37.000Z</time>
      </trkpt>
      <trkpt lat="49.39485" lon="0.14283">
        <ele>107.6</ele>
        <time>2018-12-13T10:22:44.000Z</time>
      </trkpt>
      <trkpt lat="49.39491" lon="0.14294">
        <ele>107.4</ele>
        <time>2018-12-13T10:22:52.000Z</time>
      </trkpt>
      <trkpt lat="49.39499" lon="0.14305">
        <ele>107.1</ele>
        <time>2018-12-13T10:22:59.000Z</time>
      </trkpt>
      <trkpt lat="49.39505" lon="0.14316">
        <ele>106.6</ele>
        <time>2018-12-13T10:23:06.000Z</time>
      </trkpt>
      <trkpt lat="49.39511" lon="0.14327">
        <ele>106.2</ele>
        <time>2018-12-13T10:23:15.000Z</time>
      </trkpt>
      <trkpt lat="49.39517" lon="0.14339">
        <ele>105.9</ele>
        <time>2018-12-13T10:23:22.000Z</time>
      </trkpt>
      <trkpt lat="49.39522" lon="0.14352">
        <ele>105.8</ele>
        <time>2018-12-13T10:23:30.000Z</time>
      </trkpt>
      <trkpt lat="49.3953" lon="0.14363">
        <ele>105.4</ele>
        <time>2018-12-13T10:23:38.000Z</time>
      </trkpt>
      <trkpt lat="49.39538" lon="0.14374">
        <ele>104.9</ele>
        <time>2018-12-13T10:23:46.000Z</time>
      </trkpt>
      <trkpt lat="49.39544" lon="0.14385">
        <ele>104.4</ele>
        <time>2018-12-13T10:23:53.000Z</time>
      </trkpt>
      <trkpt lat="49.39551" lon="0.14395">
        <ele>104.1</ele>
        <time>2018-12-13T10:24:02.000Z</time>
      </trkpt>
      <trkpt lat="49.39557" lon="0.14405">
        <ele>103.6</ele>
        <time>2018-12-13T10:24:11.000Z</time>
      </trkpt>
      <trkpt lat="49.39564" lon="0.14416">
        <ele>103.1</ele>
        <time>2018-12-13T10:24:18.000Z</time>
      </trkpt>
      <trkpt lat="49.3957" lon="0.14428">
        <ele>102.2</ele>
        <time>2018-12-13T10:24:26.000Z</time>
      </trkpt>
      <trkpt lat="49.39581" lon="0.14434">
        <ele>101.5</ele>
        <time>2018-12-13T10:24:33.000Z</time>
      </trkpt>
      <trkpt lat="49.39589" lon="0.1444">
        <ele>101</ele>
        <time>2018-12-13T10:24:39.000Z</time>
      </trkpt>
      <trkpt lat="49.39598" lon="0.14448">
        <ele>100.6</ele>
        <time>2018-12-13T10:24:45.000Z</time>
      </trkpt>
      <trkpt lat="49.39606" lon="0.14457">
        <ele>99.8</ele>
        <time>2018-12-13T10:24:53.000Z</time>
      </trkpt>
      <trkpt lat="49.39615" lon="0.14465">
        <ele>98.8</ele>
        <time>2018-12-13T10:25:03.000Z</time>
      </trkpt>
      <trkpt lat="49.39622" lon="0.14474">
        <ele>97.8</ele>
        <time>2018-12-13T10:25:11.000Z</time>
      </trkpt>
      <trkpt lat="49.39628" lon="0.14486">
        <ele>97.1</ele>
        <time>2018-12-13T10:25:19.000Z</time>
      </trkpt>
      <trkpt lat="49.39635" lon="0.14497">
        <ele>95.8</ele>
        <time>2018-12-13T10:25:26.000Z</time>
      </trkpt>
      <trkpt lat="49.3964" lon="0.14509">
        <ele>94.4</ele>
        <time>2018-12-13T10:25:34.000Z</time>
      </trkpt>
      <trkpt lat="49.39646" lon="0.14519">
        <ele>93.3</ele>
        <time>2018-12-13T10:25:41.000Z</time>
      </trkpt>
      <trkpt lat="49.39652" lon="0.14532">
        <ele>91.5</ele>
        <time>2018-12-13T10:25:52.000Z</time>
      </trkpt>
      <trkpt lat="49.39659" lon="0.14541">
        <ele>90.2</ele>
        <time>2018-12-13T10:26:02.000Z</time>
      </trkpt>
      <trkpt lat="49.39667" lon="0.14552">
        <ele>89</ele>
        <time>2018-12-13T10:26:10.000Z</time>
      </trkpt>
      <trkpt lat="49.39675" lon="0.14558">
        <ele>87.8</ele>
        <time>2018-12-13T10:26:17.000Z</time>
      </trkpt>
      <trkpt lat="49.39684" lon="0.14566">
        <ele>86.7</ele>
        <time>2018-12-13T10:26:25.000Z</time>
      </trkpt>
      <trkpt lat="49.39693" lon="0.14573">
        <ele>85.1</ele>
        <time>2018-12-13T10:26:36.000Z</time>
      </trkpt>
      <trkpt lat="49.39701" lon="0.14582">
        <ele>83</ele>
        <time>2018-12-13T10:26:46.000Z</time>
      </trkpt>
      <trkpt lat="49.39708" lon="0.14592">
        <ele>81.2</ele>
        <time>2018-12-13T10:26:56.000Z</time>
      </trkpt>
      <trkpt lat="49.39716" lon="0.14601">
        <ele>79.5</ele>
        <time>2018-12-13T10:27:05.000Z</time>
      </trkpt>
      <trkpt lat="49.39723" lon="0.14611">
        <ele>78</ele>
        <time>2018-12-13T10:27:14.000Z</time>
      </trkpt>
      <trkpt lat="49.39731" lon="0.1462">
        <ele>76.6</ele>
        <time>2018-12-13T10:27:23.000Z</time>
      </trkpt>
      <trkpt lat="49.39738" lon="0.1463">
        <ele>75.4</ele>
        <time>2018-12-13T10:27:32.000Z</time>
      </trkpt>
      <trkpt lat="49.39746" lon="0.14639">
        <ele>73.9</ele>
        <time>2018-12-13T10:27:41.000Z</time>
      </trkpt>
      <trkpt lat="49.39753" lon="0.1465">
        <ele>72.3</ele>
        <time>2018-12-13T10:27:50.000Z</time>
      </trkpt>
      <trkpt lat="49.39761" lon="0.14659">
        <ele>70.6</ele>
        <time>2018-12-13T10:28:00.000Z</time>
      </trkpt>
      <trkpt lat="49.39766" lon="0.1467">
        <ele>69.1</ele>
        <time>2018-12-13T10:28:09.000Z</time>
      </trkpt>
      <trkpt lat="49.39774" lon="0.14677">
        <ele>68.5</ele>
        <time>2018-12-13T10:28:13.000Z</time>
      </trkpt>
      <trkpt lat="49.39782" lon="0.14688">
        <ele>67.4</ele>
        <time>2018-12-13T10:28:20.000Z</time>
      </trkpt>
      <trkpt lat="49.39788" lon="0.14699">
        <ele>65.8</ele>
        <time>2018-12-13T10:28:30.000Z</time>
      </trkpt>
      <trkpt lat="49.39795" lon="0.1471">
        <ele>64.6</ele>
        <time>2018-12-13T10:28:38.000Z</time>
      </trkpt>
      <trkpt lat="49.39804" lon="0.14717">
        <ele>63.8</ele>
        <time>2018-12-13T10:28:43.000Z</time>
      </trkpt>
      <trkpt lat="49.39811" lon="0.14725">
        <ele>62.5</ele>
        <time>2018-12-13T10:28:51.000Z</time>
      </trkpt>
      <trkpt lat="49.39818" lon="0.14736">
        <ele>61.5</ele>
        <time>2018-12-13T10:28:58.000Z</time>
      </trkpt>
      <trkpt lat="49.39825" lon="0.14744">
        <ele>60.3</ele>
        <time>2018-12-13T10:29:07.000Z</time>
      </trkpt>
      <trkpt lat="49.39834" lon="0.14751">
        <ele>59.4</ele>
        <time>2018-12-13T10:29:14.000Z</time>
      </trkpt>
      <trkpt lat="49.39842" lon="0.14759">
        <ele>58.5</ele>
        <time>2018-12-13T10:29:20.000Z</time>
      </trkpt>
      <trkpt lat="49.39849" lon="0.14769">
        <ele>57.6</ele>
        <time>2018-12-13T10:29:27.000Z</time>
      </trkpt>
      <trkpt lat="49.39857" lon="0.14779">
        <ele>56.5</ele>
        <time>2018-12-13T10:29:35.000Z</time>
      </trkpt>
      <trkpt lat="49.39864" lon="0.14788">
        <ele>54.8</ele>
        <time>2018-12-13T10:29:45.000Z</time>
      </trkpt>
      <trkpt lat="49.39872" lon="0.14797">
        <ele>53.7</ele>
        <time>2018-12-13T10:29:52.000Z</time>
      </trkpt>
      <trkpt lat="49.39879" lon="0.14807">
        <ele>52.3</ele>
        <time>2018-12-13T10:30:01.000Z</time>
      </trkpt>
      <trkpt lat="49.39887" lon="0.14815">
        <ele>51</ele>
        <time>2018-12-13T10:30:08.000Z</time>
      </trkpt>
      <trkpt lat="49.39894" lon="0.14828">
        <ele>49.6</ele>
        <time>2018-12-13T10:30:16.000Z</time>
      </trkpt>
      <trkpt lat="49.39902" lon="0.14836">
        <ele>48.4</ele>
        <time>2018-12-13T10:30:22.000Z</time>
      </trkpt>
      <trkpt lat="49.3991" lon="0.14845">
        <ele>47.4</ele>
        <time>2018-12-13T10:30:28.000Z</time>
      </trkpt>
      <trkpt lat="49.39917" lon="0.14852">
        <ele>46.5</ele>
        <time>2018-12-13T10:30:36.000Z</time>
      </trkpt>
      <trkpt lat="49.39924" lon="0.14861">
        <ele>44.9</ele>
        <time>2018-12-13T10:32:12.000Z</time>
      </trkpt>
      <trkpt lat="49.39928" lon="0.14874">
        <ele>43.6</ele>
        <time>2018-12-13T10:32:24.000Z</time>
      </trkpt>
      <trkpt lat="49.39936" lon="0.14884">
        <ele>42.4</ele>
        <time>2018-12-13T10:32:33.000Z</time>
      </trkpt>
      <trkpt lat="49.39941" lon="0.14896">
        <ele>41.7</ele>
        <time>2018-12-13T10:32:40.000Z</time>
      </trkpt>
      <trkpt lat="49.39944" lon="0.1491">
        <ele>40.7</ele>
        <time>2018-12-13T10:32:50.000Z</time>
      </trkpt>
      <trkpt lat="49.39949" lon="0.14921">
        <ele>39.8</ele>
        <time>2018-12-13T10:32:58.000Z</time>
      </trkpt>
      <trkpt lat="49.39955" lon="0.14933">
        <ele>39.1</ele>
        <time>2018-12-13T10:33:05.000Z</time>
      </trkpt>
      <trkpt lat="49.39959" lon="0.14946">
        <ele>38.2</ele>
        <time>2018-12-13T10:33:14.000Z</time>
      </trkpt>
      <trkpt lat="49.39963" lon="0.14961">
        <ele>37.5</ele>
        <time>2018-12-13T10:33:23.000Z</time>
      </trkpt>
      <trkpt lat="49.39971" lon="0.14972">
        <ele>36.8</ele>
        <time>2018-12-13T10:33:29.000Z</time>
      </trkpt>
      <trkpt lat="49.39976" lon="0.14985">
        <ele>35.7</ele>
        <time>2018-12-13T10:33:39.000Z</time>
      </trkpt>
      <trkpt lat="49.39982" lon="0.14995">
        <ele>34.6</ele>
        <time>2018-12-13T10:33:47.000Z</time>
      </trkpt>
      <trkpt lat="49.39987" lon="0.15007">
        <ele>33.5</ele>
        <time>2018-12-13T10:33:56.000Z</time>
      </trkpt>
      <trkpt lat="49.39989" lon="0.15021">
        <ele>32.6</ele>
        <time>2018-12-13T10:34:03.000Z</time>
      </trkpt>
      <trkpt lat="49.39989" lon="0.15036">
        <ele>32.1</ele>
        <time>2018-12-13T10:34:11.000Z</time>
      </trkpt>
      <trkpt lat="49.39982" lon="0.15046">
        <ele>31.7</ele>
        <time>2018-12-13T10:34:20.000Z</time>
      </trkpt>
      <trkpt lat="49.39975" lon="0.15055">
        <ele>31.5</ele>
        <time>2018-12-13T10:34:29.000Z</time>
      </trkpt>
      <trkpt lat="49.39966" lon="0.15061">
        <ele>31.4</ele>
        <time>2018-12-13T10:34:38.000Z</time>
      </trkpt>
      <trkpt lat="49.39958" lon="0.15068">
        <ele>31.8</ele>
        <time>2018-12-13T10:34:47.000Z</time>
      </trkpt>
      <trkpt lat="49.39949" lon="0.15073">
        <ele>32.1</ele>
        <time>2018-12-13T10:34:55.000Z</time>
      </trkpt>
      <trkpt lat="49.3994" lon="0.15078">
        <ele>32.4</ele>
        <time>2018-12-13T10:35:04.000Z</time>
      </trkpt>
      <trkpt lat="49.3993" lon="0.15082">
        <ele>33</ele>
        <time>2018-12-13T10:35:12.000Z</time>
      </trkpt>
      <trkpt lat="49.39922" lon="0.15088">
        <ele>33.1</ele>
        <time>2018-12-13T10:35:19.000Z</time>
      </trkpt>
      <trkpt lat="49.39912" lon="0.15091">
        <ele>33.3</ele>
        <time>2018-12-13T10:35:26.000Z</time>
      </trkpt>
      <trkpt lat="49.39903" lon="0.15094">
        <ele>33.3</ele>
        <time>2018-12-13T10:35:32.000Z</time>
      </trkpt>
      <trkpt lat="49.39894" lon="0.15099">
        <ele>33.1</ele>
        <time>2018-12-13T10:35:38.000Z</time>
      </trkpt>
      <trkpt lat="49.39886" lon="0.15104">
        <ele>33</ele>
        <time>2018-12-13T10:35:46.000Z</time>
      </trkpt>
      <trkpt lat="49.39876" lon="0.15108">
        <ele>33.1</ele>
        <time>2018-12-13T10:35:55.000Z</time>
      </trkpt>
      <trkpt lat="49.39867" lon="0.15112">
        <ele>33</ele>
        <time>2018-12-13T10:36:03.000Z</time>
      </trkpt>
      <trkpt lat="49.39858" lon="0.15117">
        <ele>32.4</ele>
        <time>2018-12-13T10:36:12.000Z</time>
      </trkpt>
      <trkpt lat="49.39849" lon="0.1512">
        <ele>32.5</ele>
        <time>2018-12-13T10:36:19.000Z</time>
      </trkpt>
      <trkpt lat="49.3984" lon="0.15124">
        <ele>32.8</ele>
        <time>2018-12-13T10:36:26.000Z</time>
      </trkpt>
      <trkpt lat="49.3983" lon="0.15126">
        <ele>33</ele>
        <time>2018-12-13T10:36:34.000Z</time>
      </trkpt>
      <trkpt lat="49.39821" lon="0.1513">
        <ele>33.2</ele>
        <time>2018-12-13T10:36:42.000Z</time>
      </trkpt>
      <trkpt lat="49.39811" lon="0.15133">
        <ele>33.3</ele>
        <time>2018-12-13T10:36:50.000Z</time>
      </trkpt>
      <trkpt lat="49.39802" lon="0.15136">
        <ele>33.4</ele>
        <time>2018-12-13T10:36:58.000Z</time>
      </trkpt>
      <trkpt lat="49.39792" lon="0.15137">
        <ele>33.6</ele>
        <time>2018-12-13T10:37:06.000Z</time>
      </trkpt>
      <trkpt lat="49.39782" lon="0.15138">
        <ele>33.9</ele>
        <time>2018-12-13T10:37:14.000Z</time>
      </trkpt>
      <trkpt lat="49.39773" lon="0.15141">
        <ele>34.1</ele>
        <time>2018-12-13T10:37:21.000Z</time>
      </trkpt>
      <trkpt lat="49.39763" lon="0.15142">
        <ele>33.9</ele>
        <time>2018-12-13T10:37:28.000Z</time>
      </trkpt>
      <trkpt lat="49.39753" lon="0.15141">
        <ele>33.7</ele>
        <time>2018-12-13T10:37:37.000Z</time>
      </trkpt>
      <trkpt lat="49.39743" lon="0.15139">
        <ele>33.7</ele>
        <time>2018-12-13T10:37:44.000Z</time>
      </trkpt>
      <trkpt lat="49.39733" lon="0.15136">
        <ele>33.8</ele>
        <time>2018-12-13T10:37:50.000Z</time>
      </trkpt>
      <trkpt lat="49.39724" lon="0.15135">
        <ele>33.7</ele>
        <time>2018-12-13T10:37:57.000Z</time>
      </trkpt>
      <trkpt lat="49.39714" lon="0.15133">
        <ele>33.5</ele>
        <time>2018-12-13T10:38:04.000Z</time>
      </trkpt>
      <trkpt lat="49.39704" lon="0.15131">
        <ele>33.7</ele>
        <time>2018-12-13T10:38:12.000Z</time>
      </trkpt>
      <trkpt lat="49.39694" lon="0.15129">
        <ele>33.3</ele>
        <time>2018-12-13T10:38:20.000Z</time>
      </trkpt>
      <trkpt lat="49.39685" lon="0.15128">
        <ele>33.1</ele>
        <time>2018-12-13T10:38:28.000Z</time>
      </trkpt>
      <trkpt lat="49.39679" lon="0.15138">
        <ele>32.5</ele>
        <time>2018-12-13T10:38:39.000Z</time>
      </trkpt>
      <trkpt lat="49.39676" lon="0.15151">
        <ele>31.4</ele>
        <time>2018-12-13T10:38:48.000Z</time>
      </trkpt>
      <trkpt lat="49.39676" lon="0.15165">
        <ele>30.3</ele>
        <time>2018-12-13T10:38:57.000Z</time>
      </trkpt>
      <trkpt lat="49.39675" lon="0.1518">
        <ele>29.6</ele>
        <time>2018-12-13T10:39:05.000Z</time>
      </trkpt>
      <trkpt lat="49.39677" lon="0.15194">
        <ele>28.2</ele>
        <time>2018-12-13T10:39:14.000Z</time>
      </trkpt>
      <trkpt lat="49.39679" lon="0.15208">
        <ele>26.8</ele>
        <time>2018-12-13T10:39:22.000Z</time>
      </trkpt>
      <trkpt lat="49.39678" lon="0.15222">
        <ele>25.8</ele>
        <time>2018-12-13T10:39:28.000Z</time>
      </trkpt>
      <trkpt lat="49.39677" lon="0.15236">
        <ele>25.2</ele>
        <time>2018-12-13T10:39:35.000Z</time>
      </trkpt>
      <trkpt lat="49.39675" lon="0.1525">
        <ele>24.6</ele>
        <time>2018-12-13T10:39:43.000Z</time>
      </trkpt>
      <trkpt lat="49.39673" lon="0.15265">
        <ele>23.8</ele>
        <time>2018-12-13T10:39:52.000Z</time>
      </trkpt>
      <trkpt lat="49.39671" lon="0.15279">
        <ele>23.6</ele>
        <time>2018-12-13T10:39:58.000Z</time>
      </trkpt>
      <trkpt lat="49.39674" lon="0.15293">
        <ele>23.5</ele>
        <time>2018-12-13T10:40:05.000Z</time>
      </trkpt>
      <trkpt lat="49.39675" lon="0.15308">
        <ele>23.5</ele>
        <time>2018-12-13T10:40:13.000Z</time>
      </trkpt>
      <trkpt lat="49.39675" lon="0.15323">
        <ele>23.7</ele>
        <time>2018-12-13T10:40:21.000Z</time>
      </trkpt>
      <trkpt lat="49.39678" lon="0.15337">
        <ele>24.2</ele>
        <time>2018-12-13T10:40:28.000Z</time>
      </trkpt>
      <trkpt lat="49.39681" lon="0.15351">
        <ele>25.2</ele>
        <time>2018-12-13T10:40:37.000Z</time>
      </trkpt>
      <trkpt lat="49.39685" lon="0.15366">
        <ele>26.1</ele>
        <time>2018-12-13T10:40:46.000Z</time>
      </trkpt>
      <trkpt lat="49.39688" lon="0.15381">
        <ele>27.1</ele>
        <time>2018-12-13T10:40:54.000Z</time>
      </trkpt>
      <trkpt lat="49.39692" lon="0.15394">
        <ele>27.8</ele>
        <time>2018-12-13T10:41:01.000Z</time>
      </trkpt>
      <trkpt lat="49.39697" lon="0.15406">
        <ele>27.8</ele>
        <time>2018-12-13T10:41:15.000Z</time>
      </trkpt>
      <trkpt lat="49.39703" lon="0.15419">
        <ele>27.4</ele>
        <time>2018-12-13T10:41:24.000Z</time>
      </trkpt>
      <trkpt lat="49.39708" lon="0.15432">
        <ele>27</ele>
        <time>2018-12-13T10:41:32.000Z</time>
      </trkpt>
      <trkpt lat="49.39714" lon="0.15442">
        <ele>26.5</ele>
        <time>2018-12-13T10:41:40.000Z</time>
      </trkpt>
      <trkpt lat="49.39721" lon="0.15454">
        <ele>26.2</ele>
        <time>2018-12-13T10:41:48.000Z</time>
      </trkpt>
      <trkpt lat="49.39728" lon="0.15465">
        <ele>25.8</ele>
        <time>2018-12-13T10:41:56.000Z</time>
      </trkpt>
      <trkpt lat="49.39733" lon="0.15477">
        <ele>25.4</ele>
        <time>2018-12-13T10:42:06.000Z</time>
      </trkpt>
      <trkpt lat="49.39739" lon="0.15488">
        <ele>24.6</ele>
        <time>2018-12-13T10:42:15.000Z</time>
      </trkpt>
      <trkpt lat="49.39745" lon="0.15499">
        <ele>24.2</ele>
        <time>2018-12-13T10:42:22.000Z</time>
      </trkpt>
      <trkpt lat="49.3975" lon="0.15512">
        <ele>23.1</ele>
        <time>2018-12-13T10:42:36.000Z</time>
      </trkpt>
      <trkpt lat="49.39755" lon="0.15524">
        <ele>22.5</ele>
        <time>2018-12-13T10:42:44.000Z</time>
      </trkpt>
      <trkpt lat="49.3976" lon="0.15536">
        <ele>21.5</ele>
        <time>2018-12-13T10:42:53.000Z</time>
      </trkpt>
      <trkpt lat="49.39763" lon="0.1555">
        <ele>20.5</ele>
        <time>2018-12-13T10:43:03.000Z</time>
      </trkpt>
      <trkpt lat="49.3977" lon="0.15559">
        <ele>19.7</ele>
        <time>2018-12-13T10:43:13.000Z</time>
      </trkpt>
      <trkpt lat="49.39776" lon="0.1557">
        <ele>19</ele>
        <time>2018-12-13T10:43:23.000Z</time>
      </trkpt>
      <trkpt lat="49.39777" lon="0.15584">
        <ele>18.7</ele>
        <time>2018-12-13T10:43:34.000Z</time>
      </trkpt>
      <trkpt lat="49.39771" lon="0.15595">
        <ele>18.2</ele>
        <time>2018-12-13T10:43:43.000Z</time>
      </trkpt>
      <trkpt lat="49.39767" lon="0.15609">
        <ele>17.2</ele>
        <time>2018-12-13T10:43:56.000Z</time>
      </trkpt>
      <trkpt lat="49.39769" lon="0.15623">
        <ele>15.8</ele>
        <time>2018-12-13T10:44:09.000Z</time>
      </trkpt>
      <trkpt lat="49.3977" lon="0.15638">
        <ele>14.9</ele>
        <time>2018-12-13T10:44:17.000Z</time>
      </trkpt>
      <trkpt lat="49.39773" lon="0.15652">
        <ele>14.7</ele>
        <time>2018-12-13T10:44:27.000Z</time>
      </trkpt>
      <trkpt lat="49.39778" lon="0.15663">
        <ele>14.4</ele>
        <time>2018-12-13T10:44:42.000Z</time>
      </trkpt>
      <trkpt lat="49.39781" lon="0.15677">
        <ele>15.1</ele>
        <time>2018-12-13T10:44:54.000Z</time>
      </trkpt>
      <trkpt lat="49.39782" lon="0.15691">
        <ele>16.6</ele>
        <time>2018-12-13T10:45:06.000Z</time>
      </trkpt>
      <trkpt lat="49.39781" lon="0.15706">
        <ele>17.4</ele>
        <time>2018-12-13T10:45:16.000Z</time>
      </trkpt>
      <trkpt lat="49.39781" lon="0.1572">
        <ele>18.3</ele>
        <time>2018-12-13T10:45:26.000Z</time>
      </trkpt>
      <trkpt lat="49.39782" lon="0.15734">
        <ele>19.6</ele>
        <time>2018-12-13T10:45:35.000Z</time>
      </trkpt>
      <trkpt lat="49.39783" lon="0.15749">
        <ele>20.9</ele>
        <time>2018-12-13T10:45:45.000Z</time>
      </trkpt>
      <trkpt lat="49.39783" lon="0.15763">
        <ele>22</ele>
        <time>2018-12-13T10:45:53.000Z</time>
      </trkpt>
      <trkpt lat="49.39782" lon="0.15778">
        <ele>23.3</ele>
        <time>2018-12-13T10:46:02.000Z</time>
      </trkpt>
      <trkpt lat="49.39784" lon="0.15792">
        <ele>25.1</ele>
        <time>2018-12-13T10:46:13.000Z</time>
      </trkpt>
      <trkpt lat="49.39786" lon="0.15807">
        <ele>26.3</ele>
        <time>2018-12-13T10:46:23.000Z</time>
      </trkpt>
      <trkpt lat="49.39788" lon="0.15821">
        <ele>27.4</ele>
        <time>2018-12-13T10:46:33.000Z</time>
      </trkpt>
      <trkpt lat="49.3979" lon="0.15835">
        <ele>28.9</ele>
        <time>2018-12-13T10:46:44.000Z</time>
      </trkpt>
      <trkpt lat="49.39791" lon="0.1585">
        <ele>30.2</ele>
        <time>2018-12-13T10:46:53.000Z</time>
      </trkpt>
      <trkpt lat="49.39792" lon="0.15864">
        <ele>31.5</ele>
        <time>2018-12-13T10:47:03.000Z</time>
      </trkpt>
      <trkpt lat="49.39794" lon="0.15879">
        <ele>32.3</ele>
        <time>2018-12-13T10:47:12.000Z</time>
      </trkpt>
      <trkpt lat="49.39789" lon="0.15894">
        <ele>33.1</ele>
        <time>2018-12-13T10:47:19.000Z</time>
      </trkpt>
      <trkpt lat="49.39782" lon="0.15904">
        <ele>33.7</ele>
        <time>2018-12-13T10:47:26.000Z</time>
      </trkpt>
      <trkpt lat="49.39775" lon="0.15914">
        <ele>34.3</ele>
        <time>2018-12-13T10:47:34.000Z</time>
      </trkpt>
      <trkpt lat="49.39766" lon="0.15922">
        <ele>34.5</ele>
        <time>2018-12-13T10:47:41.000Z</time>
      </trkpt>
      <trkpt lat="49.39758" lon="0.15931">
        <ele>34.7</ele>
        <time>2018-12-13T10:47:49.000Z</time>
      </trkpt>
      <trkpt lat="49.39757" lon="0.15944">
        <ele>35.1</ele>
        <time>2018-12-13T10:48:00.000Z</time>
      </trkpt>
      <trkpt lat="49.39762" lon="0.15957">
        <ele>36</ele>
        <time>2018-12-13T10:48:10.000Z</time>
      </trkpt>
      <trkpt lat="49.39766" lon="0.1597">
        <ele>37.3</ele>
        <time>2018-12-13T10:48:20.000Z</time>
      </trkpt>
      <trkpt lat="49.39772" lon="0.15983">
        <ele>38.3</ele>
        <time>2018-12-13T10:48:29.000Z</time>
      </trkpt>
      <trkpt lat="49.39777" lon="0.15995">
        <ele>39.4</ele>
        <time>2018-12-13T10:48:38.000Z</time>
      </trkpt>
      <trkpt lat="49.39783" lon="0.16008">
        <ele>40.7</ele>
        <time>2018-12-13T10:48:48.000Z</time>
      </trkpt>
      <trkpt lat="49.39785" lon="0.16022">
        <ele>42</ele>
        <time>2018-12-13T10:50:47.000Z</time>
      </trkpt>
      <trkpt lat="49.39777" lon="0.1603">
        <ele>41.9</ele>
        <time>2018-12-13T10:51:07.000Z</time>
      </trkpt>
      <trkpt lat="49.39769" lon="0.16038">
        <ele>42.6</ele>
        <time>2018-12-13T10:51:18.000Z</time>
      </trkpt>
      <trkpt lat="49.3976" lon="0.16044">
        <ele>43.6</ele>
        <time>2018-12-13T10:51:30.000Z</time>
      </trkpt>
      <trkpt lat="49.39753" lon="0.16053">
        <ele>43.9</ele>
        <time>2018-12-13T10:51:41.000Z</time>
      </trkpt>
      <trkpt lat="49.39746" lon="0.16062">
        <ele>44.2</ele>
        <time>2018-12-13T10:51:48.000Z</time>
      </trkpt>
      <trkpt lat="49.3974" lon="0.16073">
        <ele>44.4</ele>
        <time>2018-12-13T10:51:57.000Z</time>
      </trkpt>
      <trkpt lat="49.39734" lon="0.16085">
        <ele>44.8</ele>
        <time>2018-12-13T10:52:06.000Z</time>
      </trkpt>
      <trkpt lat="49.39728" lon="0.16096">
        <ele>45.3</ele>
        <time>2018-12-13T10:52:15.000Z</time>
      </trkpt>
      <trkpt lat="49.39722" lon="0.16108">
        <ele>45.8</ele>
        <time>2018-12-13T10:52:24.000Z</time>
      </trkpt>
      <trkpt lat="49.39715" lon="0.16119">
        <ele>46.3</ele>
        <time>2018-12-13T10:52:33.000Z</time>
      </trkpt>
      <trkpt lat="49.39707" lon="0.16129">
        <ele>46.8</ele>
        <time>2018-12-13T10:52:42.000Z</time>
      </trkpt>
      <trkpt lat="49.39699" lon="0.16137">
        <ele>47.1</ele>
        <time>2018-12-13T10:52:50.000Z</time>
      </trkpt>
      <trkpt lat="49.3969" lon="0.16144">
        <ele>47.5</ele>
        <time>2018-12-13T10:52:59.000Z</time>
      </trkpt>
      <trkpt lat="49.39683" lon="0.16153">
        <ele>47.6</ele>
        <time>2018-12-13T10:53:06.000Z</time>
      </trkpt>
      <trkpt lat="49.39674" lon="0.16158">
        <ele>48.2</ele>
        <time>2018-12-13T10:53:15.000Z</time>
      </trkpt>
      <trkpt lat="49.39665" lon="0.16163">
        <ele>48.6</ele>
        <time>2018-12-13T10:53:24.000Z</time>
      </trkpt>
      <trkpt lat="49.39655" lon="0.16166">
        <ele>48.7</ele>
        <time>2018-12-13T10:53:32.000Z</time>
      </trkpt>
      <trkpt lat="49.39647" lon="0.16172">
        <ele>48.8</ele>
        <time>2018-12-13T10:53:40.000Z</time>
      </trkpt>
      <trkpt lat="49.39638" lon="0.16179">
        <ele>49.2</ele>
        <time>2018-12-13T10:53:49.000Z</time>
      </trkpt>
      <trkpt lat="49.39628" lon="0.16182">
        <ele>49.7</ele>
        <time>2018-12-13T10:53:58.000Z</time>
      </trkpt>
      <trkpt lat="49.39618" lon="0.16187">
        <ele>50.2</ele>
        <time>2018-12-13T10:54:05.000Z</time>
      </trkpt>
      <trkpt lat="49.39609" lon="0.1619">
        <ele>50.7</ele>
        <time>2018-12-13T10:54:24.000Z</time>
      </trkpt>
      <trkpt lat="49.39599" lon="0.16194">
        <ele>51.4</ele>
        <time>2018-12-13T10:54:33.000Z</time>
      </trkpt>
      <trkpt lat="49.3959" lon="0.16201">
        <ele>51.7</ele>
        <time>2018-12-13T10:54:42.000Z</time>
      </trkpt>
      <trkpt lat="49.39581" lon="0.16206">
        <ele>52.1</ele>
        <time>2018-12-13T10:54:51.000Z</time>
      </trkpt>
      <trkpt lat="49.39571" lon="0.16207">
        <ele>53.2</ele>
        <time>2018-12-13T10:55:00.000Z</time>
      </trkpt>
      <trkpt lat="49.39562" lon="0.16211">
        <ele>53.8</ele>
        <time>2018-12-13T10:55:10.000Z</time>
      </trkpt>
      <trkpt lat="49.39553" lon="0.16214">
        <ele>54.5</ele>
        <time>2018-12-13T10:55:18.000Z</time>
      </trkpt>
      <trkpt lat="49.39545" lon="0.16218">
        <ele>55.3</ele>
        <time>2018-12-13T10:55:27.000Z</time>
      </trkpt>
      <trkpt lat="49.39536" lon="0.16224">
        <ele>56.3</ele>
        <time>2018-12-13T10:55:36.000Z</time>
      </trkpt>
      <trkpt lat="49.39527" lon="0.16228">
        <ele>57.5</ele>
        <time>2018-12-13T10:55:45.000Z</time>
      </trkpt>
      <trkpt lat="49.39518" lon="0.16235">
        <ele>58.4</ele>
        <time>2018-12-13T10:55:53.000Z</time>
      </trkpt>
      <trkpt lat="49.3951" lon="0.16241">
        <ele>58.9</ele>
        <time>2018-12-13T10:56:02.000Z</time>
      </trkpt>
      <trkpt lat="49.39504" lon="0.16252">
        <ele>59.4</ele>
        <time>2018-12-13T10:56:15.000Z</time>
      </trkpt>
      <trkpt lat="49.39504" lon="0.16267">
        <ele>59.5</ele>
        <time>2018-12-13T10:56:24.000Z</time>
      </trkpt>
      <trkpt lat="49.3951" lon="0.16278">
        <ele>59.3</ele>
        <time>2018-12-13T10:56:32.000Z</time>
      </trkpt>
      <trkpt lat="49.39517" lon="0.16288">
        <ele>59</ele>
        <time>2018-12-13T10:56:40.000Z</time>
      </trkpt>
      <trkpt lat="49.39523" lon="0.16299">
        <ele>58.9</ele>
        <time>2018-12-13T10:56:48.000Z</time>
      </trkpt>
      <trkpt lat="49.39529" lon="0.16309">
        <ele>58.6</ele>
        <time>2018-12-13T10:56:57.000Z</time>
      </trkpt>
      <trkpt lat="49.39534" lon="0.16323">
        <ele>58.1</ele>
        <time>2018-12-13T10:57:04.000Z</time>
      </trkpt>
      <trkpt lat="49.39539" lon="0.16335">
        <ele>57.4</ele>
        <time>2018-12-13T10:57:12.000Z</time>
      </trkpt>
      <trkpt lat="49.39541" lon="0.16349">
        <ele>56.3</ele>
        <time>2018-12-13T10:57:21.000Z</time>
      </trkpt>
      <trkpt lat="49.39548" lon="0.16359">
        <ele>55.5</ele>
        <time>2018-12-13T10:57:29.000Z</time>
      </trkpt>
      <trkpt lat="49.39553" lon="0.16373">
        <ele>54.7</ele>
        <time>2018-12-13T10:57:38.000Z</time>
      </trkpt>
      <trkpt lat="49.39559" lon="0.16385">
        <ele>53.6</ele>
        <time>2018-12-13T10:57:48.000Z</time>
      </trkpt>
      <trkpt lat="49.39562" lon="0.16399">
        <ele>52.7</ele>
        <time>2018-12-13T10:57:57.000Z</time>
      </trkpt>
      <trkpt lat="49.39565" lon="0.16414">
        <ele>52</ele>
        <time>2018-12-13T10:58:07.000Z</time>
      </trkpt>
      <trkpt lat="49.39568" lon="0.16427">
        <ele>51.1</ele>
        <time>2018-12-13T10:58:17.000Z</time>
      </trkpt>
      <trkpt lat="49.39571" lon="0.16441">
        <ele>50.5</ele>
        <time>2018-12-13T10:58:26.000Z</time>
      </trkpt>
      <trkpt lat="49.39575" lon="0.16454">
        <ele>50.1</ele>
        <time>2018-12-13T10:58:35.000Z</time>
      </trkpt>
      <trkpt lat="49.39577" lon="0.16468">
        <ele>50.3</ele>
        <time>2018-12-13T10:58:59.000Z</time>
      </trkpt>
      <trkpt lat="49.39571" lon="0.16479">
        <ele>49.1</ele>
        <time>2018-12-13T10:59:29.000Z</time>
      </trkpt>
      <trkpt lat="49.39581" lon="0.1648">
        <ele>48.2</ele>
        <time>2018-12-13T10:59:39.000Z</time>
      </trkpt>
      <trkpt lat="49.39588" lon="0.16492">
        <ele>44.9</ele>
        <time>2018-12-13T10:59:54.000Z</time>
      </trkpt>
      <trkpt lat="49.39594" lon="0.16507">
        <ele>46.4</ele>
        <time>2018-12-13T11:00:02.000Z</time>
      </trkpt>
      <trkpt lat="49.39597" lon="0.1652">
        <ele>42.6</ele>
        <time>2018-12-13T11:00:16.000Z</time>
      </trkpt>
      <trkpt lat="49.39597" lon="0.16535">
        <ele>39.2</ele>
        <time>2018-12-13T11:00:35.000Z</time>
      </trkpt>
      <trkpt lat="49.39604" lon="0.16545">
        <ele>37.8</ele>
        <time>2018-12-13T11:00:54.000Z</time>
      </trkpt>
      <trkpt lat="49.39612" lon="0.1655">
        <ele>37.7</ele>
        <time>2018-12-13T11:01:01.000Z</time>
      </trkpt>
      <trkpt lat="49.39621" lon="0.16555">
        <ele>37.5</ele>
        <time>2018-12-13T11:01:14.000Z</time>
      </trkpt>
      <trkpt lat="49.3963" lon="0.16558">
        <ele>38.2</ele>
        <time>2018-12-13T11:01:25.000Z</time>
      </trkpt>
      <trkpt lat="49.39639" lon="0.16563">
        <ele>30.6</ele>
        <time>2018-12-13T11:01:37.000Z</time>
      </trkpt>
      <trkpt lat="49.39645" lon="0.16573">
        <ele>43.8</ele>
        <time>2018-12-13T11:01:49.000Z</time>
      </trkpt>
      <trkpt lat="49.39652" lon="0.16587">
        <ele>46.7</ele>
        <time>2018-12-13T11:02:01.000Z</time>
      </trkpt>
      <trkpt lat="49.39656" lon="0.166">
        <ele>44.6</ele>
        <time>2018-12-13T11:02:13.000Z</time>
      </trkpt>
      <trkpt lat="49.3966" lon="0.16613">
        <ele>45.7</ele>
        <time>2018-12-13T11:02:24.000Z</time>
      </trkpt>
      <trkpt lat="49.39664" lon="0.16628">
        <ele>46.5</ele>
        <time>2018-12-13T11:02:35.000Z</time>
      </trkpt>
      <trkpt lat="49.39668" lon="0.1664">
        <ele>47.1</ele>
        <time>2018-12-13T11:02:43.000Z</time>
      </trkpt>
      <trkpt lat="49.39671" lon="0.16654">
        <ele>47.9</ele>
        <time>2018-12-13T11:02:51.000Z</time>
      </trkpt>
      <trkpt lat="49.3968" lon="0.16658">
        <ele>48.6</ele>
        <time>2018-12-13T11:02:59.000Z</time>
      </trkpt>
      <trkpt lat="49.39689" lon="0.16656">
        <ele>49.2</ele>
        <time>2018-12-13T11:03:08.000Z</time>
      </trkpt>
      <trkpt lat="49.39698" lon="0.16656">
        <ele>50.2</ele>
        <time>2018-12-13T11:03:16.000Z</time>
      </trkpt>
      <trkpt lat="49.39708" lon="0.16653">
        <ele>50.6</ele>
        <time>2018-12-13T11:03:24.000Z</time>
      </trkpt>
      <trkpt lat="49.39718" lon="0.16653">
        <ele>50.9</ele>
        <time>2018-12-13T11:03:32.000Z</time>
      </trkpt>
      <trkpt lat="49.39727" lon="0.16648">
        <ele>51.1</ele>
        <time>2018-12-13T11:03:41.000Z</time>
      </trkpt>
      <trkpt lat="49.39737" lon="0.16644">
        <ele>51.9</ele>
        <time>2018-12-13T11:03:49.000Z</time>
      </trkpt>
      <trkpt lat="49.39747" lon="0.16645">
        <ele>52.4</ele>
        <time>2018-12-13T11:03:58.000Z</time>
      </trkpt>
      <trkpt lat="49.39756" lon="0.16643">
        <ele>53</ele>
        <time>2018-12-13T11:04:06.000Z</time>
      </trkpt>
      <trkpt lat="49.39765" lon="0.1664">
        <ele>53.3</ele>
        <time>2018-12-13T11:04:13.000Z</time>
      </trkpt>
      <trkpt lat="49.39776" lon="0.16636">
        <ele>54</ele>
        <time>2018-12-13T11:04:25.000Z</time>
      </trkpt>
      <trkpt lat="49.39785" lon="0.16635">
        <ele>54</ele>
        <time>2018-12-13T11:04:31.000Z</time>
      </trkpt>
      <trkpt lat="49.39796" lon="0.16633">
        <ele>54</ele>
        <time>2018-12-13T11:04:37.000Z</time>
      </trkpt>
      <trkpt lat="49.39804" lon="0.16628">
        <ele>54.4</ele>
        <time>2018-12-13T11:04:43.000Z</time>
      </trkpt>
      <trkpt lat="49.39814" lon="0.16624">
        <ele>53.9</ele>
        <time>2018-12-13T11:04:54.000Z</time>
      </trkpt>
      <trkpt lat="49.39824" lon="0.16622">
        <ele>53.5</ele>
        <time>2018-12-13T11:05:01.000Z</time>
      </trkpt>
      <trkpt lat="49.39834" lon="0.16625">
        <ele>53.4</ele>
        <time>2018-12-13T11:05:08.000Z</time>
      </trkpt>
      <trkpt lat="49.39843" lon="0.16628">
        <ele>53.9</ele>
        <time>2018-12-13T11:05:17.000Z</time>
      </trkpt>
      <trkpt lat="49.39853" lon="0.16632">
        <ele>55.4</ele>
        <time>2018-12-13T11:05:28.000Z</time>
      </trkpt>
      <trkpt lat="49.39864" lon="0.16635">
        <ele>55.9</ele>
        <time>2018-12-13T11:05:36.000Z</time>
      </trkpt>
      <trkpt lat="49.39873" lon="0.16634">
        <ele>56.2</ele>
        <time>2018-12-13T11:05:43.000Z</time>
      </trkpt>
      <trkpt lat="49.39882" lon="0.16632">
        <ele>56.3</ele>
        <time>2018-12-13T11:05:51.000Z</time>
      </trkpt>
      <trkpt lat="49.39893" lon="0.16631">
        <ele>56.1</ele>
        <time>2018-12-13T11:05:59.000Z</time>
      </trkpt>
      <trkpt lat="49.39903" lon="0.16627">
        <ele>55.6</ele>
        <time>2018-12-13T11:06:07.000Z</time>
      </trkpt>
      <trkpt lat="49.39914" lon="0.16627">
        <ele>55.2</ele>
        <time>2018-12-13T11:06:14.000Z</time>
      </trkpt>
      <trkpt lat="49.39923" lon="0.16624">
        <ele>54.7</ele>
        <time>2018-12-13T11:06:20.000Z</time>
      </trkpt>
      <trkpt lat="49.39933" lon="0.16622">
        <ele>54.3</ele>
        <time>2018-12-13T11:06:26.000Z</time>
      </trkpt>
      <trkpt lat="49.39942" lon="0.1662">
        <ele>53.8</ele>
        <time>2018-12-13T11:06:33.000Z</time>
      </trkpt>
      <trkpt lat="49.39951" lon="0.16618">
        <ele>52.9</ele>
        <time>2018-12-13T11:06:40.000Z</time>
      </trkpt>
      <trkpt lat="49.3996" lon="0.16612">
        <ele>52.5</ele>
        <time>2018-12-13T11:06:47.000Z</time>
      </trkpt>
      <trkpt lat="49.39969" lon="0.1661">
        <ele>51.8</ele>
        <time>2018-12-13T11:06:54.000Z</time>
      </trkpt>
      <trkpt lat="49.39978" lon="0.16605">
        <ele>51</ele>
        <time>2018-12-13T11:07:02.000Z</time>
      </trkpt>
      <trkpt lat="49.39987" lon="0.16598">
        <ele>50.3</ele>
        <time>2018-12-13T11:07:09.000Z</time>
      </trkpt>
      <trkpt lat="49.39995" lon="0.16593">
        <ele>50.1</ele>
        <time>2018-12-13T11:07:16.000Z</time>
      </trkpt>
      <trkpt lat="49.40004" lon="0.16588">
        <ele>49.7</ele>
        <time>2018-12-13T11:07:25.000Z</time>
      </trkpt>
      <trkpt lat="49.40014" lon="0.16589">
        <ele>49.2</ele>
        <time>2018-12-13T11:07:30.000Z</time>
      </trkpt>
      <trkpt lat="49.40023" lon="0.1659">
        <ele>49.1</ele>
        <time>2018-12-13T11:07:37.000Z</time>
      </trkpt>
      <trkpt lat="49.40033" lon="0.16591">
        <ele>47.5</ele>
        <time>2018-12-13T11:07:45.000Z</time>
      </trkpt>
      <trkpt lat="49.40043" lon="0.16592">
        <ele>48.6</ele>
        <time>2018-12-13T11:07:49.000Z</time>
      </trkpt>
      <trkpt lat="49.40052" lon="0.16592">
        <ele>48.1</ele>
        <time>2018-12-13T11:07:55.000Z</time>
      </trkpt>
      <trkpt lat="49.40062" lon="0.16592">
        <ele>46.8</ele>
        <time>2018-12-13T11:08:04.000Z</time>
      </trkpt>
      <trkpt lat="49.40072" lon="0.1659">
        <ele>46.1</ele>
        <time>2018-12-13T11:08:16.000Z</time>
      </trkpt>
      <trkpt lat="49.40081" lon="0.1659">
        <ele>45.8</ele>
        <time>2018-12-13T11:08:24.000Z</time>
      </trkpt>
      <trkpt lat="49.4009" lon="0.16593">
        <ele>45.8</ele>
        <time>2018-12-13T11:08:29.000Z</time>
      </trkpt>
      <trkpt lat="49.40093" lon="0.16607">
        <ele>46</ele>
        <time>2018-12-13T11:08:42.000Z</time>
      </trkpt>
      <trkpt lat="49.40088" lon="0.16619">
        <ele>46</ele>
        <time>2018-12-13T11:08:55.000Z</time>
      </trkpt>
      <trkpt lat="49.40082" lon="0.1663">
        <ele>48.3</ele>
        <time>2018-12-13T11:09:04.000Z</time>
      </trkpt>
      <trkpt lat="49.40074" lon="0.16639">
        <ele>48.2</ele>
        <time>2018-12-13T11:09:12.000Z</time>
      </trkpt>
      <trkpt lat="49.40067" lon="0.16648">
        <ele>47.9</ele>
        <time>2018-12-13T11:09:20.000Z</time>
      </trkpt>
      <trkpt lat="49.40059" lon="0.16656">
        <ele>49.2</ele>
        <time>2018-12-13T11:09:27.000Z</time>
      </trkpt>
      <trkpt lat="49.40053" lon="0.16667">
        <ele>50.6</ele>
        <time>2018-12-13T11:09:37.000Z</time>
      </trkpt>
      <trkpt lat="49.40047" lon="0.16678">
        <ele>52.4</ele>
        <time>2018-12-13T11:09:56.000Z</time>
      </trkpt>
      <trkpt lat="49.4004" lon="0.16689">
        <ele>53</ele>
        <time>2018-12-13T11:10:05.000Z</time>
      </trkpt>
      <trkpt lat="49.40038" lon="0.16704">
        <ele>53.4</ele>
        <time>2018-12-13T11:10:13.000Z</time>
      </trkpt>
      <trkpt lat="49.40039" lon="0.16718">
        <ele>53.5</ele>
        <time>2018-12-13T11:10:20.000Z</time>
      </trkpt>
      <trkpt lat="49.40044" lon="0.1673">
        <ele>52.6</ele>
        <time>2018-12-13T11:10:28.000Z</time>
      </trkpt>
      <trkpt lat="49.40049" lon="0.16742">
        <ele>54.7</ele>
        <time>2018-12-13T11:10:37.000Z</time>
      </trkpt>
      <trkpt lat="49.40053" lon="0.16757">
        <ele>55.4</ele>
        <time>2018-12-13T11:10:45.000Z</time>
      </trkpt>
      <trkpt lat="49.40051" lon="0.16771">
        <ele>55.2</ele>
        <time>2018-12-13T11:10:52.000Z</time>
      </trkpt>
      <trkpt lat="49.40046" lon="0.16783">
        <ele>55.3</ele>
        <time>2018-12-13T11:10:58.000Z</time>
      </trkpt>
      <trkpt lat="49.40042" lon="0.16796">
        <ele>55.4</ele>
        <time>2018-12-13T11:11:03.000Z</time>
      </trkpt>
      <trkpt lat="49.40038" lon="0.16809">
        <ele>56</ele>
        <time>2018-12-13T11:11:08.000Z</time>
      </trkpt>
      <trkpt lat="49.40034" lon="0.16822">
        <ele>56.1</ele>
        <time>2018-12-13T11:11:15.000Z</time>
      </trkpt>
      <trkpt lat="49.40032" lon="0.16837">
        <ele>56</ele>
        <time>2018-12-13T11:11:22.000Z</time>
      </trkpt>
      <trkpt lat="49.40028" lon="0.16851">
        <ele>55.9</ele>
        <time>2018-12-13T11:11:28.000Z</time>
      </trkpt>
      <trkpt lat="49.40025" lon="0.16864">
        <ele>56.1</ele>
        <time>2018-12-13T11:11:34.000Z</time>
      </trkpt>
      <trkpt lat="49.40023" lon="0.16878">
        <ele>56.4</ele>
        <time>2018-12-13T11:11:40.000Z</time>
      </trkpt>
      <trkpt lat="49.40019" lon="0.16892">
        <ele>56.6</ele>
        <time>2018-12-13T11:11:47.000Z</time>
      </trkpt>
      <trkpt lat="49.40014" lon="0.16905">
        <ele>56.6</ele>
        <time>2018-12-13T11:11:54.000Z</time>
      </trkpt>
      <trkpt lat="49.40009" lon="0.16917">
        <ele>55.8</ele>
        <time>2018-12-13T11:12:01.000Z</time>
      </trkpt>
      <trkpt lat="49.40002" lon="0.16929">
        <ele>55.9</ele>
        <time>2018-12-13T11:12:07.000Z</time>
      </trkpt>
      <trkpt lat="49.39997" lon="0.1694">
        <ele>55.1</ele>
        <time>2018-12-13T11:12:13.000Z</time>
      </trkpt>
      <trkpt lat="49.39992" lon="0.16954">
        <ele>53.7</ele>
        <time>2018-12-13T11:12:20.000Z</time>
      </trkpt>
      <trkpt lat="49.39987" lon="0.16967">
        <ele>53.3</ele>
        <time>2018-12-13T11:12:28.000Z</time>
      </trkpt>
      <trkpt lat="49.39984" lon="0.16981">
        <ele>53.3</ele>
        <time>2018-12-13T11:12:37.000Z</time>
      </trkpt>
      <trkpt lat="49.39979" lon="0.16993">
        <ele>52.8</ele>
        <time>2018-12-13T11:12:45.000Z</time>
      </trkpt>
      <trkpt lat="49.39974" lon="0.17007">
        <ele>52.1</ele>
        <time>2018-12-13T11:12:52.000Z</time>
      </trkpt>
      <trkpt lat="49.39969" lon="0.17019">
        <ele>51.7</ele>
        <time>2018-12-13T11:12:58.000Z</time>
      </trkpt>
      <trkpt lat="49.39964" lon="0.17031">
        <ele>50.9</ele>
        <time>2018-12-13T11:13:05.000Z</time>
      </trkpt>
      <trkpt lat="49.39956" lon="0.17042">
        <ele>50.4</ele>
        <time>2018-12-13T11:13:13.000Z</time>
      </trkpt>
      <trkpt lat="49.39951" lon="0.17054">
        <ele>49.4</ele>
        <time>2018-12-13T11:13:21.000Z</time>
      </trkpt>
      <trkpt lat="49.39943" lon="0.17065">
        <ele>48.7</ele>
        <time>2018-12-13T11:13:27.000Z</time>
      </trkpt>
      <trkpt lat="49.39936" lon="0.17077">
        <ele>48.7</ele>
        <time>2018-12-13T11:13:34.000Z</time>
      </trkpt>
      <trkpt lat="49.39929" lon="0.17089">
        <ele>48.3</ele>
        <time>2018-12-13T11:13:42.000Z</time>
      </trkpt>
      <trkpt lat="49.39921" lon="0.171">
        <ele>48.2</ele>
        <time>2018-12-13T11:13:48.000Z</time>
      </trkpt>
      <trkpt lat="49.39914" lon="0.17109">
        <ele>48.3</ele>
        <time>2018-12-13T11:13:56.000Z</time>
      </trkpt>
      <trkpt lat="49.39909" lon="0.1712">
        <ele>47.9</ele>
        <time>2018-12-13T11:14:03.000Z</time>
      </trkpt>
      <trkpt lat="49.39901" lon="0.17129">
        <ele>47.6</ele>
        <time>2018-12-13T11:14:11.000Z</time>
      </trkpt>
      <trkpt lat="49.39895" lon="0.17142">
        <ele>47.4</ele>
        <time>2018-12-13T11:14:20.000Z</time>
      </trkpt>
      <trkpt lat="49.39888" lon="0.17152">
        <ele>47.3</ele>
        <time>2018-12-13T11:14:26.000Z</time>
      </trkpt>
      <trkpt lat="49.39882" lon="0.17164">
        <ele>47.7</ele>
        <time>2018-12-13T11:14:33.000Z</time>
      </trkpt>
      <trkpt lat="49.39875" lon="0.17175">
        <ele>47.7</ele>
        <time>2018-12-13T11:14:40.000Z</time>
      </trkpt>
      <trkpt lat="49.39867" lon="0.17185">
        <ele>47.7</ele>
        <time>2018-12-13T11:14:46.000Z</time>
      </trkpt>
      <trkpt lat="49.39859" lon="0.17195">
        <ele>47.7</ele>
        <time>2018-12-13T11:14:53.000Z</time>
      </trkpt>
      <trkpt lat="49.39853" lon="0.17205">
        <ele>47.6</ele>
        <time>2018-12-13T11:14:59.000Z</time>
      </trkpt>
      <trkpt lat="49.39846" lon="0.17216">
        <ele>47.2</ele>
        <time>2018-12-13T11:15:06.000Z</time>
      </trkpt>
      <trkpt lat="49.39839" lon="0.17226">
        <ele>47.4</ele>
        <time>2018-12-13T11:15:13.000Z</time>
      </trkpt>
      <trkpt lat="49.39831" lon="0.17236">
        <ele>47.3</ele>
        <time>2018-12-13T11:15:22.000Z</time>
      </trkpt>
      <trkpt lat="49.39824" lon="0.17245">
        <ele>47.1</ele>
        <time>2018-12-13T11:15:29.000Z</time>
      </trkpt>
      <trkpt lat="49.39814" lon="0.17251">
        <ele>47</ele>
        <time>2018-12-13T11:15:37.000Z</time>
      </trkpt>
      <trkpt lat="49.39807" lon="0.1726">
        <ele>47</ele>
        <time>2018-12-13T11:15:45.000Z</time>
      </trkpt>
      <trkpt lat="49.39801" lon="0.17272">
        <ele>47.4</ele>
        <time>2018-12-13T11:15:52.000Z</time>
      </trkpt>
      <trkpt lat="49.39798" lon="0.17287">
        <ele>47.4</ele>
        <time>2018-12-13T11:16:01.000Z</time>
      </trkpt>
      <trkpt lat="49.39798" lon="0.17302">
        <ele>47.4</ele>
        <time>2018-12-13T11:16:09.000Z</time>
      </trkpt>
      <trkpt lat="49.39798" lon="0.17317">
        <ele>47.1</ele>
        <time>2018-12-13T11:16:17.000Z</time>
      </trkpt>
      <trkpt lat="49.39798" lon="0.17332">
        <ele>47.1</ele>
        <time>2018-12-13T11:16:25.000Z</time>
      </trkpt>
      <trkpt lat="49.39797" lon="0.17347">
        <ele>47.2</ele>
        <time>2018-12-13T11:16:33.000Z</time>
      </trkpt>
      <trkpt lat="49.39794" lon="0.17362">
        <ele>47</ele>
        <time>2018-12-13T11:16:41.000Z</time>
      </trkpt>
      <trkpt lat="49.39789" lon="0.17375">
        <ele>47.1</ele>
        <time>2018-12-13T11:16:47.000Z</time>
      </trkpt>
      <trkpt lat="49.39785" lon="0.17389">
        <ele>46.9</ele>
        <time>2018-12-13T11:16:55.000Z</time>
      </trkpt>
      <trkpt lat="49.39777" lon="0.17396">
        <ele>46.8</ele>
        <time>2018-12-13T11:17:06.000Z</time>
      </trkpt>
      <trkpt lat="49.39768" lon="0.17404">
        <ele>46.1</ele>
        <time>2018-12-13T11:17:16.000Z</time>
      </trkpt>
      <trkpt lat="49.3976" lon="0.17413">
        <ele>45.9</ele>
        <time>2018-12-13T11:17:25.000Z</time>
      </trkpt>
      <trkpt lat="49.39752" lon="0.17423">
        <ele>45.5</ele>
        <time>2018-12-13T11:17:32.000Z</time>
      </trkpt>
      <trkpt lat="49.39745" lon="0.17431">
        <ele>45</ele>
        <time>2018-12-13T11:17:40.000Z</time>
      </trkpt>
      <trkpt lat="49.39736" lon="0.17447">
        <ele>44.7</ele>
        <time>2018-12-13T11:17:48.000Z</time>
      </trkpt>
      <trkpt lat="49.39728" lon="0.17451">
        <ele>44.1</ele>
        <time>2018-12-13T11:18:02.000Z</time>
      </trkpt>
      <trkpt lat="49.39719" lon="0.1746">
        <ele>44.1</ele>
        <time>2018-12-13T11:18:13.000Z</time>
      </trkpt>
      <trkpt lat="49.3971" lon="0.17468">
        <ele>43</ele>
        <time>2018-12-13T11:18:22.000Z</time>
      </trkpt>
      <trkpt lat="49.39701" lon="0.17473">
        <ele>42.5</ele>
        <time>2018-12-13T11:18:28.000Z</time>
      </trkpt>
      <trkpt lat="49.39693" lon="0.17481">
        <ele>42.5</ele>
        <time>2018-12-13T11:18:38.000Z</time>
      </trkpt>
      <trkpt lat="49.39685" lon="0.17489">
        <ele>42.5</ele>
        <time>2018-12-13T11:18:43.000Z</time>
      </trkpt>
      <trkpt lat="49.39678" lon="0.17499">
        <ele>42.7</ele>
        <time>2018-12-13T11:18:49.000Z</time>
      </trkpt>
      <trkpt lat="49.39671" lon="0.1751">
        <ele>42.7</ele>
        <time>2018-12-13T11:18:56.000Z</time>
      </trkpt>
      <trkpt lat="49.39662" lon="0.17515">
        <ele>42.5</ele>
        <time>2018-12-13T11:19:06.000Z</time>
      </trkpt>
      <trkpt lat="49.39653" lon="0.17526">
        <ele>42.5</ele>
        <time>2018-12-13T11:19:13.000Z</time>
      </trkpt>
      <trkpt lat="49.39645" lon="0.17534">
        <ele>42.5</ele>
        <time>2018-12-13T11:19:20.000Z</time>
      </trkpt>
      <trkpt lat="49.39638" lon="0.17546">
        <ele>42.6</ele>
        <time>2018-12-13T11:19:28.000Z</time>
      </trkpt>
      <trkpt lat="49.39629" lon="0.17556">
        <ele>42.8</ele>
        <time>2018-12-13T11:19:38.000Z</time>
      </trkpt>
      <trkpt lat="49.39622" lon="0.17565">
        <ele>43.1</ele>
        <time>2018-12-13T11:19:46.000Z</time>
      </trkpt>
      <trkpt lat="49.39615" lon="0.17575">
        <ele>43.4</ele>
        <time>2018-12-13T11:19:56.000Z</time>
      </trkpt>
      <trkpt lat="49.39608" lon="0.17586">
        <ele>43.7</ele>
        <time>2018-12-13T11:20:05.000Z</time>
      </trkpt>
      <trkpt lat="49.396" lon="0.17594">
        <ele>44</ele>
        <time>2018-12-13T11:20:13.000Z</time>
      </trkpt>
      <trkpt lat="49.39592" lon="0.17602">
        <ele>44</ele>
        <time>2018-12-13T11:20:21.000Z</time>
      </trkpt>
      <trkpt lat="49.39585" lon="0.17611">
        <ele>44</ele>
        <time>2018-12-13T11:20:28.000Z</time>
      </trkpt>
      <trkpt lat="49.39577" lon="0.17621">
        <ele>44.1</ele>
        <time>2018-12-13T11:20:35.000Z</time>
      </trkpt>
      <trkpt lat="49.39569" lon="0.17629">
        <ele>44.1</ele>
        <time>2018-12-13T11:20:43.000Z</time>
      </trkpt>
      <trkpt lat="49.39563" lon="0.1764">
        <ele>44.3</ele>
        <time>2018-12-13T11:20:49.000Z</time>
      </trkpt>
      <trkpt lat="49.39556" lon="0.17651">
        <ele>44.5</ele>
        <time>2018-12-13T11:20:56.000Z</time>
      </trkpt>
      <trkpt lat="49.39548" lon="0.17659">
        <ele>44.8</ele>
        <time>2018-12-13T11:21:03.000Z</time>
      </trkpt>
      <trkpt lat="49.39542" lon="0.17669">
        <ele>45</ele>
        <time>2018-12-13T11:21:10.000Z</time>
      </trkpt>
      <trkpt lat="49.39534" lon="0.17679">
        <ele>44.9</ele>
        <time>2018-12-13T11:21:21.000Z</time>
      </trkpt>
      <trkpt lat="49.39531" lon="0.17694">
        <ele>44.7</ele>
        <time>2018-12-13T11:21:27.000Z</time>
      </trkpt>
      <trkpt lat="49.39524" lon="0.17703">
        <ele>44.8</ele>
        <time>2018-12-13T11:21:34.000Z</time>
      </trkpt>
      <trkpt lat="49.39518" lon="0.17713">
        <ele>45</ele>
        <time>2018-12-13T11:21:44.000Z</time>
      </trkpt>
      <trkpt lat="49.39523" lon="0.17726">
        <ele>44.6</ele>
        <time>2018-12-13T11:22:06.000Z</time>
      </trkpt>
      <trkpt lat="49.39533" lon="0.1773">
        <ele>44.2</ele>
        <time>2018-12-13T11:22:14.000Z</time>
      </trkpt>
      <trkpt lat="49.39542" lon="0.1773">
        <ele>44.1</ele>
        <time>2018-12-13T11:22:23.000Z</time>
      </trkpt>
      <trkpt lat="49.39551" lon="0.1773">
        <ele>43.8</ele>
        <time>2018-12-13T11:22:30.000Z</time>
      </trkpt>
      <trkpt lat="49.39563" lon="0.17731">
        <ele>43.6</ele>
        <time>2018-12-13T11:22:37.000Z</time>
      </trkpt>
      <trkpt lat="49.39572" lon="0.17733">
        <ele>43.4</ele>
        <time>2018-12-13T11:22:45.000Z</time>
      </trkpt>
      <trkpt lat="49.39582" lon="0.17734">
        <ele>43.2</ele>
        <time>2018-12-13T11:22:57.000Z</time>
      </trkpt>
      <trkpt lat="49.39592" lon="0.17733">
        <ele>43.3</ele>
        <time>2018-12-13T11:23:04.000Z</time>
      </trkpt>
      <trkpt lat="49.39601" lon="0.17728">
        <ele>43.1</ele>
        <time>2018-12-13T11:23:13.000Z</time>
      </trkpt>
      <trkpt lat="49.39611" lon="0.17725">
        <ele>42.9</ele>
        <time>2018-12-13T11:23:20.000Z</time>
      </trkpt>
      <trkpt lat="49.39619" lon="0.17717">
        <ele>42.5</ele>
        <time>2018-12-13T11:23:28.000Z</time>
      </trkpt>
      <trkpt lat="49.39628" lon="0.17708">
        <ele>41.8</ele>
        <time>2018-12-13T11:23:37.000Z</time>
      </trkpt>
      <trkpt lat="49.39636" lon="0.177">
        <ele>41.4</ele>
        <time>2018-12-13T11:23:44.000Z</time>
      </trkpt>
      <trkpt lat="49.39645" lon="0.17694">
        <ele>40.6</ele>
        <time>2018-12-13T11:23:54.000Z</time>
      </trkpt>
      <trkpt lat="49.39653" lon="0.17688">
        <ele>40.2</ele>
        <time>2018-12-13T11:24:00.000Z</time>
      </trkpt>
      <trkpt lat="49.39662" lon="0.1768">
        <ele>39.8</ele>
        <time>2018-12-13T11:24:09.000Z</time>
      </trkpt>
      <trkpt lat="49.3967" lon="0.17674">
        <ele>39.8</ele>
        <time>2018-12-13T11:24:17.000Z</time>
      </trkpt>
      <trkpt lat="49.39679" lon="0.17673">
        <ele>39.3</ele>
        <time>2018-12-13T11:24:28.000Z</time>
      </trkpt>
      <trkpt lat="49.39689" lon="0.17673">
        <ele>38.4</ele>
        <time>2018-12-13T11:24:41.000Z</time>
      </trkpt>
      <trkpt lat="49.39698" lon="0.17674">
        <ele>37.8</ele>
        <time>2018-12-13T11:24:50.000Z</time>
      </trkpt>
      <trkpt lat="49.39707" lon="0.17676">
        <ele>37.3</ele>
        <time>2018-12-13T11:24:59.000Z</time>
      </trkpt>
      <trkpt lat="49.39718" lon="0.17678">
        <ele>36.4</ele>
        <time>2018-12-13T11:25:09.000Z</time>
      </trkpt>
      <trkpt lat="49.39727" lon="0.17677">
        <ele>36.2</ele>
        <time>2018-12-13T11:25:16.000Z</time>
      </trkpt>
      <trkpt lat="49.39736" lon="0.17675">
        <ele>35.4</ele>
        <time>2018-12-13T11:25:24.000Z</time>
      </trkpt>
      <trkpt lat="49.39746" lon="0.17679">
        <ele>34.7</ele>
        <time>2018-12-13T11:25:32.000Z</time>
      </trkpt>
      <trkpt lat="49.39755" lon="0.17678">
        <ele>33.8</ele>
        <time>2018-12-13T11:25:41.000Z</time>
      </trkpt>
      <trkpt lat="49.39765" lon="0.17675">
        <ele>33.5</ele>
        <time>2018-12-13T11:25:47.000Z</time>
      </trkpt>
      <trkpt lat="49.39775" lon="0.17673">
        <ele>32.9</ele>
        <time>2018-12-13T11:25:55.000Z</time>
      </trkpt>
      <trkpt lat="49.39784" lon="0.17669">
        <ele>32.6</ele>
        <time>2018-12-13T11:26:01.000Z</time>
      </trkpt>
      <trkpt lat="49.39792" lon="0.17664">
        <ele>32.1</ele>
        <time>2018-12-13T11:26:09.000Z</time>
      </trkpt>
      <trkpt lat="49.39801" lon="0.17657">
        <ele>31.9</ele>
        <time>2018-12-13T11:26:19.000Z</time>
      </trkpt>
      <trkpt lat="49.3981" lon="0.1765">
        <ele>32.2</ele>
        <time>2018-12-13T11:26:27.000Z</time>
      </trkpt>
      <trkpt lat="49.39818" lon="0.17642">
        <ele>32.5</ele>
        <time>2018-12-13T11:26:36.000Z</time>
      </trkpt>
      <trkpt lat="49.39827" lon="0.17637">
        <ele>33.1</ele>
        <time>2018-12-13T11:26:45.000Z</time>
      </trkpt>
      <trkpt lat="49.39836" lon="0.17632">
        <ele>33.4</ele>
        <time>2018-12-13T11:26:54.000Z</time>
      </trkpt>
      <trkpt lat="49.39844" lon="0.17625">
        <ele>33.4</ele>
        <time>2018-12-13T11:27:02.000Z</time>
      </trkpt>
      <trkpt lat="49.39854" lon="0.17616">
        <ele>33.5</ele>
        <time>2018-12-13T11:27:11.000Z</time>
      </trkpt>
      <trkpt lat="49.39862" lon="0.17608">
        <ele>33.6</ele>
        <time>2018-12-13T11:27:19.000Z</time>
      </trkpt>
      <trkpt lat="49.39871" lon="0.17601">
        <ele>33.7</ele>
        <time>2018-12-13T11:27:27.000Z</time>
      </trkpt>
      <trkpt lat="49.3988" lon="0.17595">
        <ele>33.6</ele>
        <time>2018-12-13T11:27:36.000Z</time>
      </trkpt>
      <trkpt lat="49.39887" lon="0.17586">
        <ele>33.3</ele>
        <time>2018-12-13T11:27:44.000Z</time>
      </trkpt>
      <trkpt lat="49.39896" lon="0.1758">
        <ele>33</ele>
        <time>2018-12-13T11:27:52.000Z</time>
      </trkpt>
      <trkpt lat="49.39904" lon="0.17572">
        <ele>32.6</ele>
        <time>2018-12-13T11:28:01.000Z</time>
      </trkpt>
      <trkpt lat="49.39913" lon="0.17566">
        <ele>32.4</ele>
        <time>2018-12-13T11:28:09.000Z</time>
      </trkpt>
      <trkpt lat="49.39921" lon="0.17558">
        <ele>31.8</ele>
        <time>2018-12-13T11:28:18.000Z</time>
      </trkpt>
      <trkpt lat="49.3993" lon="0.17552">
        <ele>31.2</ele>
        <time>2018-12-13T11:28:27.000Z</time>
      </trkpt>
      <trkpt lat="49.39937" lon="0.17544">
        <ele>30.8</ele>
        <time>2018-12-13T11:28:37.000Z</time>
      </trkpt>
      <trkpt lat="49.39946" lon="0.17538">
        <ele>29.8</ele>
        <time>2018-12-13T11:28:47.000Z</time>
      </trkpt>
      <trkpt lat="49.39955" lon="0.1753">
        <ele>29</ele>
        <time>2018-12-13T11:28:57.000Z</time>
      </trkpt>
      <trkpt lat="49.39963" lon="0.17524">
        <ele>28.5</ele>
        <time>2018-12-13T11:29:04.000Z</time>
      </trkpt>
      <trkpt lat="49.39973" lon="0.17518">
        <ele>27.9</ele>
        <time>2018-12-13T11:29:12.000Z</time>
      </trkpt>
      <trkpt lat="49.39983" lon="0.17513">
        <ele>27.5</ele>
        <time>2018-12-13T11:29:20.000Z</time>
      </trkpt>
      <trkpt lat="49.39991" lon="0.17505">
        <ele>27</ele>
        <time>2018-12-13T11:29:27.000Z</time>
      </trkpt>
      <trkpt lat="49.4" lon="0.17501">
        <ele>26.4</ele>
        <time>2018-12-13T11:29:35.000Z</time>
      </trkpt>
      <trkpt lat="49.40009" lon="0.17495">
        <ele>25.8</ele>
        <time>2018-12-13T11:29:44.000Z</time>
      </trkpt>
      <trkpt lat="49.40016" lon="0.17484">
        <ele>25.2</ele>
        <time>2018-12-13T11:29:56.000Z</time>
      </trkpt>
      <trkpt lat="49.40026" lon="0.1748">
        <ele>24.7</ele>
        <time>2018-12-13T11:30:06.000Z</time>
      </trkpt>
      <trkpt lat="49.40037" lon="0.17476">
        <ele>24.4</ele>
        <time>2018-12-13T11:30:14.000Z</time>
      </trkpt>
      <trkpt lat="49.40047" lon="0.17471">
        <ele>24.2</ele>
        <time>2018-12-13T11:30:22.000Z</time>
      </trkpt>
      <trkpt lat="49.40056" lon="0.17466">
        <ele>24</ele>
        <time>2018-12-13T11:30:34.000Z</time>
      </trkpt>
      <trkpt lat="49.40065" lon="0.1746">
        <ele>23.6</ele>
        <time>2018-12-13T11:30:43.000Z</time>
      </trkpt>
      <trkpt lat="49.40075" lon="0.17457">
        <ele>23.2</ele>
        <time>2018-12-13T11:30:52.000Z</time>
      </trkpt>
      <trkpt lat="49.40085" lon="0.17457">
        <ele>22.9</ele>
        <time>2018-12-13T11:30:59.000Z</time>
      </trkpt>
      <trkpt lat="49.40094" lon="0.17458">
        <ele>22.3</ele>
        <time>2018-12-13T11:31:09.000Z</time>
      </trkpt>
      <trkpt lat="49.40105" lon="0.17459">
        <ele>21.7</ele>
        <time>2018-12-13T11:31:22.000Z</time>
      </trkpt>
      <trkpt lat="49.40114" lon="0.17461">
        <ele>21.3</ele>
        <time>2018-12-13T11:31:31.000Z</time>
      </trkpt>
      <trkpt lat="49.40124" lon="0.17458">
        <ele>20.7</ele>
        <time>2018-12-13T11:31:38.000Z</time>
      </trkpt>
      <trkpt lat="49.40133" lon="0.17455">
        <ele>20.7</ele>
        <time>2018-12-13T11:31:47.000Z</time>
      </trkpt>
      <trkpt lat="49.40143" lon="0.17453">
        <ele>20.6</ele>
        <time>2018-12-13T11:31:55.000Z</time>
      </trkpt>
      <trkpt lat="49.40151" lon="0.17447">
        <ele>20</ele>
        <time>2018-12-13T11:32:04.000Z</time>
      </trkpt>
      <trkpt lat="49.40161" lon="0.17443">
        <ele>19.3</ele>
        <time>2018-12-13T11:32:13.000Z</time>
      </trkpt>
      <trkpt lat="49.40171" lon="0.17439">
        <ele>19</ele>
        <time>2018-12-13T11:32:21.000Z</time>
      </trkpt>
      <trkpt lat="49.40179" lon="0.17432">
        <ele>18.7</ele>
        <time>2018-12-13T11:32:31.000Z</time>
      </trkpt>
      <trkpt lat="49.40188" lon="0.17427">
        <ele>18.4</ele>
        <time>2018-12-13T11:32:38.000Z</time>
      </trkpt>
      <trkpt lat="49.40196" lon="0.17421">
        <ele>18</ele>
        <time>2018-12-13T11:32:48.000Z</time>
      </trkpt>
      <trkpt lat="49.40204" lon="0.17415">
        <ele>17.7</ele>
        <time>2018-12-13T11:32:55.000Z</time>
      </trkpt>
      <trkpt lat="49.40212" lon="0.17407">
        <ele>17.5</ele>
        <time>2018-12-13T11:33:03.000Z</time>
      </trkpt>
      <trkpt lat="49.4022" lon="0.17401">
        <ele>17.1</ele>
        <time>2018-12-13T11:33:12.000Z</time>
      </trkpt>
      <trkpt lat="49.40228" lon="0.17391">
        <ele>16.7</ele>
        <time>2018-12-13T11:33:23.000Z</time>
      </trkpt>
      <trkpt lat="49.40236" lon="0.17382">
        <ele>16.6</ele>
        <time>2018-12-13T11:33:30.000Z</time>
      </trkpt>
      <trkpt lat="49.40244" lon="0.17374">
        <ele>16.5</ele>
        <time>2018-12-13T11:33:37.000Z</time>
      </trkpt>
      <trkpt lat="49.40251" lon="0.17365">
        <ele>16.7</ele>
        <time>2018-12-13T11:33:44.000Z</time>
      </trkpt>
      <trkpt lat="49.40259" lon="0.17358">
        <ele>16.5</ele>
        <time>2018-12-13T11:33:51.000Z</time>
      </trkpt>
      <trkpt lat="49.40269" lon="0.17355">
        <ele>16.7</ele>
        <time>2018-12-13T11:34:00.000Z</time>
      </trkpt>
      <trkpt lat="49.40279" lon="0.17352">
        <ele>16.7</ele>
        <time>2018-12-13T11:34:08.000Z</time>
      </trkpt>
      <trkpt lat="49.40288" lon="0.17346">
        <ele>16.7</ele>
        <time>2018-12-13T11:34:17.000Z</time>
      </trkpt>
      <trkpt lat="49.40297" lon="0.17339">
        <ele>16.6</ele>
        <time>2018-12-13T11:34:26.000Z</time>
      </trkpt>
      <trkpt lat="49.40305" lon="0.17331">
        <ele>16</ele>
        <time>2018-12-13T11:34:35.000Z</time>
      </trkpt>
      <trkpt lat="49.40315" lon="0.17325">
        <ele>16.2</ele>
        <time>2018-12-13T11:34:43.000Z</time>
      </trkpt>
      <trkpt lat="49.40323" lon="0.17319">
        <ele>16.1</ele>
        <time>2018-12-13T11:34:50.000Z</time>
      </trkpt>
      <trkpt lat="49.40332" lon="0.1731">
        <ele>15.9</ele>
        <time>2018-12-13T11:34:59.000Z</time>
      </trkpt>
      <trkpt lat="49.40339" lon="0.17301">
        <ele>15.7</ele>
        <time>2018-12-13T11:35:07.000Z</time>
      </trkpt>
      <trkpt lat="49.40347" lon="0.17293">
        <ele>14.6</ele>
        <time>2018-12-13T11:35:17.000Z</time>
      </trkpt>
      <trkpt lat="49.40355" lon="0.17282">
        <ele>12.9</ele>
        <time>2018-12-13T11:35:29.000Z</time>
      </trkpt>
      <trkpt lat="49.40361" lon="0.17271">
        <ele>11.9</ele>
        <time>2018-12-13T11:35:39.000Z</time>
      </trkpt>
      <trkpt lat="49.40372" lon="0.17272">
        <ele>11.1</ele>
        <time>2018-12-13T11:35:50.000Z</time>
      </trkpt>
      <trkpt lat="49.40378" lon="0.17284">
        <ele>10.1</ele>
        <time>2018-12-13T11:36:04.000Z</time>
      </trkpt>
      <trkpt lat="49.40384" lon="0.17293">
        <ele>9.8</ele>
        <time>2018-12-13T11:36:14.000Z</time>
      </trkpt>
      <trkpt lat="49.40393" lon="0.17302">
        <ele>9.2</ele>
        <time>2018-12-13T11:36:24.000Z</time>
      </trkpt>
      <trkpt lat="49.40398" lon="0.17316">
        <ele>8.9</ele>
        <time>2018-12-13T11:36:33.000Z</time>
      </trkpt>
      <trkpt lat="49.40404" lon="0.17329">
        <ele>8.8</ele>
        <time>2018-12-13T11:36:40.000Z</time>
      </trkpt>
      <trkpt lat="49.40412" lon="0.17335">
        <ele>8.4</ele>
        <time>2018-12-13T11:36:49.000Z</time>
      </trkpt>
      <trkpt lat="49.40422" lon="0.17332">
        <ele>8.1</ele>
        <time>2018-12-13T11:36:57.000Z</time>
      </trkpt>
      <trkpt lat="49.40428" lon="0.17321">
        <ele>7.2</ele>
        <time>2018-12-13T11:37:36.000Z</time>
      </trkpt>
      <trkpt lat="49.40437" lon="0.17318">
        <ele>6.7</ele>
        <time>2018-12-13T11:37:47.000Z</time>
      </trkpt>
      <trkpt lat="49.40447" lon="0.17315">
        <ele>6.4</ele>
        <time>2018-12-13T11:37:53.000Z</time>
      </trkpt>
      <trkpt lat="49.40457" lon="0.17316">
        <ele>6.2</ele>
        <time>2018-12-13T11:38:00.000Z</time>
      </trkpt>
      <trkpt lat="49.40466" lon="0.17313">
        <ele>5.4</ele>
        <time>2018-12-13T11:38:10.000Z</time>
      </trkpt>
      <trkpt lat="49.40478" lon="0.17312">
        <ele>4.9</ele>
        <time>2018-12-13T11:38:18.000Z</time>
      </trkpt>
      <trkpt lat="49.40487" lon="0.17315">
        <ele>4.8</ele>
        <time>2018-12-13T11:38:22.000Z</time>
      </trkpt>
      <trkpt lat="49.40497" lon="0.17314">
        <ele>4</ele>
        <time>2018-12-13T11:38:29.000Z</time>
      </trkpt>
      <trkpt lat="49.40507" lon="0.17313">
        <ele>3.5</ele>
        <time>2018-12-13T11:38:37.000Z</time>
      </trkpt>
      <trkpt lat="49.40516" lon="0.17312">
        <ele>3.3</ele>
        <time>2018-12-13T11:38:45.000Z</time>
      </trkpt>
      <trkpt lat="49.40525" lon="0.17313">
        <ele>3.1</ele>
        <time>2018-12-13T11:38:52.000Z</time>
      </trkpt>
      <trkpt lat="49.40535" lon="0.17313">
        <ele>2.9</ele>
        <time>2018-12-13T11:38:59.000Z</time>
      </trkpt>
      <trkpt lat="49.40544" lon="0.17314">
        <ele>2.9</ele>
        <time>2018-12-13T11:39:05.000Z</time>
      </trkpt>
      <trkpt lat="49.40553" lon="0.1731">
        <ele>2.8</ele>
        <time>2018-12-13T11:39:12.000Z</time>
      </trkpt>
      <trkpt lat="49.40561" lon="0.17303">
        <ele>2.9</ele>
        <time>2018-12-13T11:39:19.000Z</time>
      </trkpt>
      <trkpt lat="49.4057" lon="0.17295">
        <ele>2.9</ele>
        <time>2018-12-13T11:39:26.000Z</time>
      </trkpt>
      <trkpt lat="49.40579" lon="0.17288">
        <ele>2.9</ele>
        <time>2018-12-13T11:39:33.000Z</time>
      </trkpt>
      <trkpt lat="49.40587" lon="0.1728">
        <ele>3</ele>
        <time>2018-12-13T11:39:40.000Z</time>
      </trkpt>
      <trkpt lat="49.40596" lon="0.17274">
        <ele>3</ele>
        <time>2018-12-13T11:39:48.000Z</time>
      </trkpt>
      <trkpt lat="49.40605" lon="0.17267">
        <ele>2.9</ele>
        <time>2018-12-13T11:39:58.000Z</time>
      </trkpt>
      <trkpt lat="49.40613" lon="0.17264">
        <ele>3.2</ele>
        <time>2018-12-13T11:40:10.000Z</time>
      </trkpt>
      <trkpt lat="49.40618" lon="0.17276">
        <ele>3.4</ele>
        <time>2018-12-13T11:40:25.000Z</time>
      </trkpt>
      <trkpt lat="49.40621" lon="0.17291">
        <ele>3.5</ele>
        <time>2018-12-13T11:40:34.000Z</time>
      </trkpt>
      <trkpt lat="49.40622" lon="0.17306">
        <ele>3.5</ele>
        <time>2018-12-13T11:40:43.000Z</time>
      </trkpt>
      <trkpt lat="49.40625" lon="0.17319">
        <ele>3.7</ele>
        <time>2018-12-13T11:40:52.000Z</time>
      </trkpt>
      <trkpt lat="49.40629" lon="0.17332">
        <ele>3.7</ele>
        <time>2018-12-13T11:41:01.000Z</time>
      </trkpt>
      <trkpt lat="49.40632" lon="0.17345">
        <ele>3.8</ele>
        <time>2018-12-13T11:41:10.000Z</time>
      </trkpt>
      <trkpt lat="49.40638" lon="0.17357">
        <ele>4</ele>
        <time>2018-12-13T11:41:18.000Z</time>
      </trkpt>
      <trkpt lat="49.4064" lon="0.17371">
        <ele>4.1</ele>
        <time>2018-12-13T11:41:27.000Z</time>
      </trkpt>
      <trkpt lat="49.40649" lon="0.17379">
        <ele>4.1</ele>
        <time>2018-12-13T11:41:33.000Z</time>
      </trkpt>
      <trkpt lat="49.40653" lon="0.17392">
        <ele>4.4</ele>
        <time>2018-12-13T11:41:41.000Z</time>
      </trkpt>
      <trkpt lat="49.40658" lon="0.17405">
        <ele>4.6</ele>
        <time>2018-12-13T11:41:50.000Z</time>
      </trkpt>
      <trkpt lat="49.40664" lon="0.17418">
        <ele>4.9</ele>
        <time>2018-12-13T11:41:58.000Z</time>
      </trkpt>
      <trkpt lat="49.40668" lon="0.17431">
        <ele>5.3</ele>
        <time>2018-12-13T11:42:06.000Z</time>
      </trkpt>
      <trkpt lat="49.40673" lon="0.17444">
        <ele>5.9</ele>
        <time>2018-12-13T11:42:14.000Z</time>
      </trkpt>
      <trkpt lat="49.40677" lon="0.17457">
        <ele>6.4</ele>
        <time>2018-12-13T11:42:22.000Z</time>
      </trkpt>
      <trkpt lat="49.40684" lon="0.17469">
        <ele>6.8</ele>
        <time>2018-12-13T11:42:29.000Z</time>
      </trkpt>
      <trkpt lat="49.40688" lon="0.17481">
        <ele>7.2</ele>
        <time>2018-12-13T11:42:36.000Z</time>
      </trkpt>
      <trkpt lat="49.40695" lon="0.17491">
        <ele>7.7</ele>
        <time>2018-12-13T11:42:43.000Z</time>
      </trkpt>
      <trkpt lat="49.407" lon="0.17504">
        <ele>8.3</ele>
        <time>2018-12-13T11:42:52.000Z</time>
      </trkpt>
      <trkpt lat="49.40707" lon="0.17519">
        <ele>9.3</ele>
        <time>2018-12-13T11:43:06.000Z</time>
      </trkpt>
      <trkpt lat="49.4071" lon="0.17532">
        <ele>9.7</ele>
        <time>2018-12-13T11:43:16.000Z</time>
      </trkpt>
      <trkpt lat="49.40716" lon="0.17543">
        <ele>9.9</ele>
        <time>2018-12-13T11:43:22.000Z</time>
      </trkpt>
      <trkpt lat="49.40722" lon="0.17555">
        <ele>10.8</ele>
        <time>2018-12-13T11:43:29.000Z</time>
      </trkpt>
      <trkpt lat="49.40728" lon="0.17567">
        <ele>11.5</ele>
        <time>2018-12-13T11:43:37.000Z</time>
      </trkpt>
      <trkpt lat="49.40732" lon="0.1758">
        <ele>12.2</ele>
        <time>2018-12-13T11:43:47.000Z</time>
      </trkpt>
      <trkpt lat="49.40735" lon="0.17595">
        <ele>12.7</ele>
        <time>2018-12-13T11:43:57.000Z</time>
      </trkpt>
      <trkpt lat="49.4074" lon="0.17607">
        <ele>13.3</ele>
        <time>2018-12-13T11:44:04.000Z</time>
      </trkpt>
      <trkpt lat="49.40742" lon="0.17621">
        <ele>14.6</ele>
        <time>2018-12-13T11:44:13.000Z</time>
      </trkpt>
      <trkpt lat="49.40741" lon="0.17635">
        <ele>15.4</ele>
        <time>2018-12-13T11:44:22.000Z</time>
      </trkpt>
      <trkpt lat="49.40735" lon="0.17646">
        <ele>16.3</ele>
        <time>2018-12-13T11:44:31.000Z</time>
      </trkpt>
      <trkpt lat="49.40728" lon="0.17656">
        <ele>16.9</ele>
        <time>2018-12-13T11:44:38.000Z</time>
      </trkpt>
      <trkpt lat="49.40721" lon="0.17666">
        <ele>17.7</ele>
        <time>2018-12-13T11:44:46.000Z</time>
      </trkpt>
      <trkpt lat="49.40712" lon="0.17673">
        <ele>19.3</ele>
        <time>2018-12-13T11:44:54.000Z</time>
      </trkpt>
      <trkpt lat="49.40704" lon="0.17681">
        <ele>19.6</ele>
        <time>2018-12-13T11:45:06.000Z</time>
      </trkpt>
      <trkpt lat="49.40701" lon="0.17695">
        <ele>18.9</ele>
        <time>2018-12-13T11:45:16.000Z</time>
      </trkpt>
      <trkpt lat="49.407" lon="0.17709">
        <ele>18.5</ele>
        <time>2018-12-13T11:45:30.000Z</time>
      </trkpt>
      <trkpt lat="49.40697" lon="0.1772">
        <ele>19.7</ele>
        <time>2018-12-13T11:45:45.000Z</time>
      </trkpt>
    </trkseg>
  </trk>
</gpx>